ftp/pub/palmer/observations_modified/2019/November/AR191126_BASE.txt

Download

Sample DateTime	Unit Id	WS Avg 2min	WD Avg 2min	WGS 10min	WGD 10min	Air Temp	Rel Humidity	Dew Point	Pyranometer	Quantum	Air Pressure	Snow Level	Rainfall	PW Current	Visibility	CBase 1	CBase 2	CBase 3	Vert Vis
2019/11/26 00:00:00	BASE	8.53	352	10.08	346	1.2	95	0.5	20	0	999.5	NA	0.0000		9999	2170	0	0	0
2019/11/26 00:01:00	BASE	8.20	349	9.83	354	1.2	95	0.5	21	0	999.5	NA	0.0000		9999	2170	0	0	0
2019/11/26 00:02:00	BASE	7.28	345	9.83	354	1.2	95	0.5	21	0	999.5	NA	0.0000		9999	2490	0	0	0
2019/11/26 00:03:00	BASE	7.57	354	9.83	354	1.2	95	0.5	21	0	999.5	NA	0.0000		9999	2360	0	0	0
2019/11/26 00:04:00	BASE	8.17	358	9.83	354	1.2	95	0.5	23	0	999.5	NA	0.0000		9999	2400	0	0	0
2019/11/26 00:05:00	BASE	8.18	355	9.83	354	1.2	95	0.4	25	0	999.5	NA	0.0000		9999	2430	0	0	0
2019/11/26 00:06:00	BASE	8.56	353	9.83	354	1.2	95	0.4	26	0	999.4	NA	0.0000		9999	2430	0	0	0
2019/11/26 00:07:00	BASE	8.49	352	9.83	354	1.2	94	0.4	29	0	999.5	NA	0.0000		9999	2330	0	0	0
2019/11/26 00:08:00	BASE	8.02	353	9.83	354	1.2	94	0.4	31	0	999.5	NA	0.0000		9999	2360	0	0	0
2019/11/26 00:09:00	BASE	7.74	354	9.83	354	1.2	94	0.3	33	0	999.5	NA	0.0000		9999	2360	0	0	0
2019/11/26 00:10:00	BASE	7.73	354	9.62	319	1.2	94	0.3	35	0	999.5	NA	0.0000		9999	2430	0	0	0
2019/11/26 00:11:00	BASE	7.90	354	9.62	319	1.2	94	0.3	36	0	999.5	NA	0.0000		9999	2360	0	0	0
2019/11/26 00:12:00	BASE	7.69	354	9.62	319	1.2	94	0.3	39	0	999.5	NA	0.0000		9999	2430	0	0	0
2019/11/26 00:13:00	BASE	7.93	351	9.62	319	1.2	94	0.3	41	0	999.5	NA	0.0000		9999	2530	0	0	0
2019/11/26 00:14:00	BASE	7.77	352	9.62	319	1.2	93	0.3	43	0	999.6	NA	0.0000		9999	2560	0	0	0
2019/11/26 00:15:00	BASE	7.66	356	9.62	319	1.3	93	0.2	43	0	999.5	NA	0.0000		9999	2690	0	0	0
2019/11/26 00:16:00	BASE	7.89	355	9.16	1	1.3	93	0.2	44	0	999.6	NA	0.0000		9999	2760	0	0	0
2019/11/26 00:17:00	BASE	7.61	356	9.16	1	1.3	92	0.2	45	0	999.6	NA	0.0000		9999	2820	0	0	0
2019/11/26 00:18:00	BASE	7.46	358	9.16	1	1.3	92	0.1	48	0	999.6	NA	0.0000		9999	2820	0	0	0
2019/11/26 00:19:00	BASE	7.47	360	9.16	1	1.3	91	0.1	48	0	999.6	NA	0.0000		9999	2760	0	0	0
2019/11/26 00:20:00	BASE	7.65	2	9.16	1	1.3	91	0.1	41	0	999.5	NA	0.0000		9999	2820	0	0	0
2019/11/26 00:21:00	BASE	7.71	0	9.16	1	1.3	91	0.0	33	0	999.6	NA	0.0000		9999	2820	0	0	0
2019/11/26 00:22:00	BASE	8.18	359	9.16	1	1.2	92	0.1	28	0	999.5	NA	0.0000		9999	2820	0	0	0
2019/11/26 00:23:00	BASE	8.56	2	9.31	11	1.2	92	0.1	25	0	999.5	NA	0.0000		9999	2760	0	0	0
2019/11/26 00:24:00	BASE	8.76	3	9.57	1	1.2	93	0.2	23	0	999.6	NA	0.0000		9999	2760	0	0	0
2019/11/26 00:25:00	BASE	8.43	1	9.57	1	1.2	93	0.2	21	0	999.6	NA	0.0000		9999	2850	0	0	0
2019/11/26 00:26:00	BASE	8.30	359	9.98	4	1.2	94	0.3	20	0	999.5	NA	0.0000		9999	2890	0	0	0
2019/11/26 00:27:00	BASE	8.57	359	9.98	4	1.2	94	0.3	18	0	999.6	NA	0.0000		9999	2920	0	0	0
2019/11/26 00:28:00	BASE	8.02	360	9.98	4	1.2	94	0.4	18	0	999.6	NA	0.0000		9999	2920	0	0	0
2019/11/26 00:29:00	BASE	7.76	358	9.98	4	1.2	94	0.4	17	0	999.7	NA	0.0000		9999	2950	0	0	0
2019/11/26 00:30:00	BASE	7.99	357	9.98	4	1.2	94	0.4	17	0	999.7	NA	0.0000		9999	2950	0	0	0
2019/11/26 00:31:00	BASE	8.09	0	9.98	4	1.2	94	0.4	17	0	999.7	NA	0.0000		9999	2990	0	0	0
2019/11/26 00:32:00	BASE	8.49	358	10.44	360	1.2	94	0.4	17	0	999.6	NA	0.0000		9999	2950	0	0	0
2019/11/26 00:33:00	BASE	9.10	358	10.44	360	1.2	94	0.3	17	0	999.6	NA	0.0000		9999	2920	0	0	0
2019/11/26 00:34:00	BASE	9.64	0	10.44	360	1.2	94	0.3	17	0	999.6	NA	0.0000		9999	2950	0	0	0
2019/11/26 00:35:00	BASE	9.71	2	10.65	2	1.2	94	0.3	17	0	999.6	NA	0.0000		9999	2920	0	0	0
2019/11/26 00:36:00	BASE	9.98	1	11.01	4	1.2	94	0.4	16	0	999.6	NA	0.0000		9999	2920	0	0	0
2019/11/26 00:37:00	BASE	10.38	2	11.01	4	1.2	94	0.4	15	0	999.6	NA	0.0000		9999	2760	0	0	0
2019/11/26 00:38:00	BASE	10.28	4	11.01	4	1.1	95	0.4	14	0	999.6	NA	0.0000		9999	2820	0	0	0
2019/11/26 00:39:00	BASE	10.26	4	11.01	4	1.1	95	0.4	13	0	999.6	NA	0.0000		9999	2850	0	0	0
2019/11/26 00:40:00	BASE	9.73	5	11.01	4	1.1	95	0.4	12	0	999.7	NA	0.0000		9999	2360	2990	0	0
2019/11/26 00:41:00	BASE	9.40	5	11.01	4	1.1	96	0.4	12	0	999.7	NA	0.0000		9999	2330	2950	0	0
2019/11/26 00:42:00	BASE	9.65	6	11.01	4	1.0	96	0.5	12	0	999.7	NA	0.0000		9999	2920	0	0	0
2019/11/26 00:43:00	BASE	9.88	7	11.01	4	1.0	96	0.5	12	0	999.7	NA	0.0000		9999	2920	0	0	0
2019/11/26 00:44:00	BASE	9.68	8	11.01	4	1.0	97	0.5	11	0	999.7	NA	0.0000		9999	2890	0	0	0
2019/11/26 00:45:00	BASE	9.40	7	11.01	4	1.0	97	0.6	11	0	999.6	NA	0.0000		9999	2850	0	0	0
2019/11/26 00:46:00	BASE	9.92	5	10.91	7	1.0	97	0.6	11	0	999.6	NA	0.0000		9999	2400	2920	0	0
2019/11/26 00:47:00	BASE	10.44	3	11.21	6	1.0	98	0.6	10	0	999.6	NA	0.0000		9999	2360	2890	0	0
2019/11/26 00:48:00	BASE	10.28	4	11.21	6	1.0	98	0.7	10	0	999.6	NA	0.0000		9999	2300	2890	0	0
2019/11/26 00:49:00	BASE	10.42	9	11.57	12	1.0	98	0.7	11	0	999.7	NA	0.0000		9999	2360	0	0	0
2019/11/26 00:50:00	BASE	10.73	8	11.57	12	1.0	98	0.7	11	0	999.7	NA	0.0000		9999	2850	0	0	0
2019/11/26 00:51:00	BASE	10.53	6	11.57	12	1.0	98	0.8	11	0	999.7	NA	0.0000		9999	3020	0	0	0
2019/11/26 00:52:00	BASE	10.10	7	11.57	12	1.0	99	0.8	11	0	999.7	NA	0.0000		9999	3080	0	0	0
2019/11/26 00:53:00	BASE	9.95	6	11.57	12	1.0	99	0.8	10	0	999.7	NA	0.0000		9999	2300	3150	0	0
2019/11/26 00:54:00	BASE	10.34	4	11.63	2	1.0	99	0.8	10	0	999.7	NA	0.0000		9999	2660	3250	0	0
2019/11/26 00:55:00	BASE	10.24	4	11.63	2	1.0	99	0.8	10	0	999.8	NA	0.0000		9999	3120	0	0	0
2019/11/26 00:56:00	BASE	9.76	2	11.63	2	1.0	99	0.8	9	0	999.8	NA	0.0000		9999	3150	0	0	0
2019/11/26 00:57:00	BASE	9.33	359	11.63	2	1.0	99	0.9	9	0	999.8	NA	0.0000		9999	3050	0	0	0
2019/11/26 00:58:00	BASE	9.42	0	11.63	2	1.0	99	0.9	8	0	999.8	NA	0.0000		9999	2990	0	0	0
2019/11/26 00:59:00	BASE	9.82	1	11.63	2	1.0	99	0.8	8	0	999.9	NA	0.0000		9999	3080	0	0	0
2019/11/26 01:00:00	BASE	9.64	3	11.63	2	1.0	99	0.8	8	0	999.9	NA	0.0000		9999	3080	0	0	0
2019/11/26 01:01:00	BASE	9.35	1	11.63	2	1.0	99	0.8	8	0	999.9	NA	0.0000		9999	2990	0	0	0
2019/11/26 01:02:00	BASE	8.90	357	11.63	2	1.0	99	0.8	7	0	1000.0	NA	0.0000		9999	3050	0	0	0
2019/11/26 01:03:00	BASE	8.64	355	11.63	2	1.0	99	0.8	7	0	1000.0	NA	0.0000		9999	2850	0	0	0
2019/11/26 01:04:00	BASE	8.35	350	10.75	4	1.0	99	0.8	7	0	1000.0	NA	0.0000		9999	3080	0	0	0
2019/11/26 01:05:00	BASE	8.05	348	10.44	11	1.0	99	0.9	7	0	1000.0	NA	0.0000		9999	3080	0	0	0
2019/11/26 01:06:00	BASE	7.45	349	10.34	3	1.1	99	0.9	7	0	1000.1	NA	0.0000		9999	3120	0	0	0
2019/11/26 01:07:00	BASE	6.48	347	10.34	3	1.1	99	1.0	7	0	1000.2	NA	0.0000		9999	3080	0	0	0
2019/11/26 01:08:00	BASE	6.06	347	10.34	3	1.1	99	1.0	6	0	1000.2	NA	0.0000		9999	3150	0	0	0
2019/11/26 01:09:00	BASE	5.54	344	10.34	3	1.1	99	1.0	6	0	1000.3	NA	0.0000		9999	3180	0	0	0
2019/11/26 01:10:00	BASE	5.74	345	9.98	354	1.1	99	0.9	6	0	1000.2	NA	0.0000		9999	3050	0	0	0
2019/11/26 01:11:00	BASE	6.03	347	9.98	354	1.1	99	0.9	6	0	1000.3	NA	0.0000		9999	3050	0	0	0
2019/11/26 01:12:00	BASE	5.85	349	9.98	354	1.1	99	0.9	6	0	1000.3	NA	0.0000		9999	3020	0	0	0
2019/11/26 01:13:00	BASE	6.02	347	9.98	354	1.1	98	0.8	6	0	1000.3	NA	0.0000		9999	3050	0	0	0
2019/11/26 01:14:00	BASE	6.45	346	9.21	355	1.0	98	0.8	6	0	1000.2	NA	0.0000		9999	2950	0	0	0
2019/11/26 01:15:00	BASE	6.45	347	8.39	336	1.1	98	0.8	5	0	1000.3	NA	0.0000		9999	2720	0	0	0
2019/11/26 01:16:00	BASE	6.26	344	8.39	336	1.1	98	0.8	5	0	1000.2	NA	0.0000		9999	2990	0	0	0
2019/11/26 01:17:00	BASE	6.34	346	8.39	336	1.1	98	0.8	5	0	1000.2	NA	0.0000		9999	2950	0	0	0
2019/11/26 01:18:00	BASE	6.00	349	8.39	336	1.1	98	0.8	5	0	1000.3	NA	0.0000		9999	2360	0	0	0
2019/11/26 01:19:00	BASE	6.41	351	8.39	336	1.1	98	0.8	5	0	1000.2	NA	0.0000		9999	2300	0	0	0
2019/11/26 01:20:00	BASE	7.21	348	8.39	336	1.1	98	0.8	5	0	1000.2	NA	0.0000		9999	2430	0	0	0
2019/11/26 01:21:00	BASE	7.55	348	8.69	2	1.1	98	0.8	5	0	1000.2	NA	0.0000		9999	2490	0	0	0
2019/11/26 01:22:00	BASE	7.60	353	8.69	2	1.1	98	0.8	5	0	1000.2	NA	0.0000		9999	2790	0	0	0
2019/11/26 01:23:00	BASE	7.79	353	9.36	360	1.1	98	0.8	5	0	1000.2	NA	0.0000		9999	2760	0	0	0
2019/11/26 01:24:00	BASE	7.89	352	9.36	360	1.2	98	0.8	5	0	1000.2	NA	0.0000		9999	2890	0	0	0
2019/11/26 01:25:00	BASE	7.94	352	9.36	360	1.2	97	0.9	5	0	1000.2	NA	0.0000		9999	2720	0	0	0
2019/11/26 01:26:00	BASE	8.30	347	9.36	360	1.3	97	0.8	5	0	1000.2	NA	0.0000		9999	2620	0	0	0
2019/11/26 01:27:00	BASE	8.74	343	9.83	342	1.3	97	0.8	5	0	1000.2	NA	0.0000		9999	2490	0	0	0
2019/11/26 01:28:00	BASE	8.49	346	9.83	342	1.3	96	0.8	5	0	1000.3	NA	0.0000		9999	2430	3020	0	0
2019/11/26 01:29:00	BASE	7.67	349	9.83	342	1.3	96	0.7	5	0	1000.3	NA	0.0000		9999	2330	0	0	0
2019/11/26 01:30:00	BASE	7.03	345	9.83	342	1.3	96	0.7	6	0	1000.3	NA	0.0000		9999	2170	0	0	0
2019/11/26 01:31:00	BASE	7.14	349	9.83	342	1.2	96	0.6	5	0	1000.3	NA	0.0000		9999	2170	0	0	0
2019/11/26 01:32:00	BASE	7.30	352	9.83	342	1.2	96	0.6	5	0	1000.4	NA	0.0000		9999	2170	0	0	0
2019/11/26 01:33:00	BASE	6.87	349	9.83	342	1.2	96	0.6	4	0	1000.4	NA	0.0000		9999	1970	0	0	0
2019/11/26 01:34:00	BASE	6.83	351	9.83	342	1.2	96	0.6	4	0	1000.4	NA	0.0000		9999	1870	0	0	0
2019/11/26 01:35:00	BASE	8.07	351	11.42	6	1.2	96	0.6	4	0	1000.4	NA	0.0000		9999	2070	0	0	0
2019/11/26 01:36:00	BASE	8.93	352	11.42	6	1.2	96	0.7	4	0	1000.4	NA	0.0000		9999	2030	0	0	0
2019/11/26 01:37:00	BASE	8.64	353	11.42	6	1.2	96	0.7	3	0	1000.3	NA	0.0000		9999	1940	0	0	0
2019/11/26 01:38:00	BASE	9.05	353	11.42	6	1.3	96	0.7	3	0	1000.3	NA	0.0000		9999	2200	0	0	0
2019/11/26 01:39:00	BASE	9.33	353	11.42	6	1.3	96	0.7	3	0	1000.3	NA	0.0000		9999	2100	0	0	0
2019/11/26 01:40:01	BASE	9.45	351	11.42	6	1.3	96	0.8	3	0	1000.3	NA	0.0000		9999	2130	0	0	0
2019/11/26 01:41:00	BASE	9.47	353	11.42	6	1.4	96	0.8	3	0	1000.3	NA	0.0000		9999	2130	0	0	0
2019/11/26 01:42:00	BASE	9.17	357	11.42	6	1.4	96	0.8	3	0	1000.4	NA	0.0000		9999	2170	0	0	0
2019/11/26 01:43:00	BASE	8.76	353	11.42	6	1.4	96	0.8	3	0	1000.4	NA	0.0000		9999	2100	0	0	0
2019/11/26 01:44:00	BASE	8.27	353	11.42	6	1.4	95	0.7	3	0	1000.5	NA	0.0000		9999	2130	0	0	0
2019/11/26 01:45:00	BASE	7.14	353	10.65	353	1.4	95	0.7	2	0	1000.5	NA	0.0000		9999	2200	0	0	0
2019/11/26 01:46:00	BASE	6.04	346	10.65	353	1.4	95	0.7	2	0	1000.5	NA	0.0000		9999	2170	0	0	0
2019/11/26 01:47:00	BASE	6.68	340	10.65	353	1.4	95	0.6	2	0	1000.5	NA	0.0000		9999	2100	0	0	0
2019/11/26 01:48:00	BASE	7.65	339	10.65	353	1.3	95	0.6	2	0	1000.4	NA	0.0000		9999	2260	0	0	0
2019/11/26 01:49:00	BASE	7.64	338	10.65	353	1.3	95	0.5	2	0	1000.5	NA	0.0000		9999	2330	0	0	0
2019/11/26 01:50:00	BASE	8.13	337	10.24	353	1.2	95	0.5	2	0	1000.4	NA	0.0000		9999	2400	0	0	0
2019/11/26 01:51:00	BASE	8.57	341	10.24	353	1.2	95	0.5	2	0	1000.4	NA	0.0000		9999	2330	0	0	0
2019/11/26 01:52:00	BASE	7.73	340	9.41	360	1.2	95	0.5	2	0	1000.5	NA	0.0000		9999	2360	0	0	0
2019/11/26 01:53:00	BASE	7.47	341	9.31	340	1.2	95	0.5	2	0	1000.5	NA	0.0000		9999	2460	0	0	0
2019/11/26 01:54:00	BASE	7.68	344	9.31	340	1.2	95	0.5	2	0	1000.5	NA	0.0000		9999	2430	0	0	0
2019/11/26 01:55:00	BASE	7.44	347	9.31	340	1.2	95	0.5	2	0	1000.5	NA	0.0000		9999	2430	0	0	0
2019/11/26 01:56:00	BASE	6.81	348	9.31	340	1.2	95	0.5	2	0	1000.5	NA	0.0000		9999	2430	0	0	0
2019/11/26 01:57:00	BASE	6.68	347	9.31	340	1.2	95	0.5	2	0	1000.5	NA	0.0000		9999	2460	0	0	0
2019/11/26 01:58:00	BASE	7.24	348	9.31	340	1.2	95	0.5	2	0	1000.5	NA	0.0000		9999	2460	0	0	0
2019/11/26 01:59:00	BASE	7.55	350	9.31	340	1.2	95	0.5	2	0	1000.4	NA	0.0000		9999	2460	0	0	0
2019/11/26 02:00:00	BASE	7.38	351	9.05	340	1.2	95	0.5	2	0	1000.4	NA	0.0000		9999	2230	0	0	0
2019/11/26 02:01:00	BASE	7.14	351	9.05	340	1.3	95	0.5	2	0	1000.5	NA	0.0000		9999	2330	0	0	0
2019/11/26 02:02:00	BASE	7.36	354	9.05	340	1.3	95	0.6	1	0	1000.4	NA	0.0000		9999	2430	0	0	0
2019/11/26 02:03:00	BASE	7.13	355	8.64	347	1.3	95	0.6	1	0	1000.4	NA	0.0000		9999	2490	0	0	0
2019/11/26 02:04:00	BASE	7.54	353	9.21	2	1.3	95	0.5	1	0	1000.4	NA	0.0000		9999	2490	0	0	0
2019/11/26 02:05:00	BASE	7.93	353	9.31	4	1.3	94	0.5	1	0	1000.3	NA	0.0000		9999	2530	0	0	0
2019/11/26 02:06:00	BASE	7.49	355	9.31	4	1.4	94	0.5	1	0	1000.3	NA	0.0000		9999	2660	0	0	0
2019/11/26 02:07:00	BASE	7.21	352	9.31	4	1.4	94	0.5	1	0	1000.4	NA	0.0000		9999	2720	0	0	0
2019/11/26 02:08:00	BASE	6.66	352	9.31	4	1.4	94	0.5	1	0	1000.4	NA	0.0000		9999	2720	0	0	0
2019/11/26 02:09:00	BASE	6.56	354	9.31	4	1.4	93	0.4	1	0	1000.3	NA	0.0000		9999	2790	0	0	0
2019/11/26 02:10:00	BASE	6.38	349	9.31	4	1.4	93	0.4	1	0	1000.3	NA	0.0000		9999	2820	0	0	0
2019/11/26 02:11:00	BASE	6.53	349	9.31	4	1.4	93	0.4	1	0	1000.3	NA	0.0000		9999	2720	0	0	0
2019/11/26 02:12:00	BASE	7.20	351	9.31	4	1.4	93	0.4	1	0	1000.3	NA	0.0000		9999	2720	0	0	0
2019/11/26 02:13:00	BASE	6.96	352	9.31	4	1.4	93	0.4	1	0	1000.3	NA	0.0000		9999	2760	3220	0	0
2019/11/26 02:14:00	BASE	7.22	352	9.31	4	1.4	93	0.4	1	0	1000.3	NA	0.0000		9999	2790	0	0	0
2019/11/26 02:15:00	BASE	8.22	352	9.26	6	1.4	93	0.4	1	0	1000.3	NA	0.0000		9999	2950	0	0	0
2019/11/26 02:16:00	BASE	7.40	348	9.26	6	1.4	93	0.4	1	0	1000.3	NA	0.0000		9999	2950	3510	0	0
2019/11/26 02:17:00	BASE	6.36	340	9.26	6	1.4	93	0.4	1	0	1000.3	NA	0.0000		9999	3020	3580	0	0
2019/11/26 02:18:00	BASE	6.68	342	9.26	6	1.4	93	0.4	1	0	1000.3	NA	0.0000		9999	2660	3450	0	0
2019/11/26 02:19:00	BASE	7.23	343	9.52	352	1.4	93	0.4	1	0	1000.2	NA	0.0000		9999	2820	0	0	0
2019/11/26 02:20:00	BASE	7.17	340	9.52	352	1.4	93	0.4	1	0	1000.3	NA	0.0000		9999	2850	0	0	0
2019/11/26 02:21:00	BASE	7.51	344	9.52	353	1.5	93	0.4	1	0	1000.2	NA	0.0000		9999	2850	0	0	0
2019/11/26 02:22:00	BASE	8.53	349	11.06	352	1.5	92	0.4	1	0	1000.2	NA	0.0000		9999	2850	0	0	0
2019/11/26 02:23:00	BASE	8.88	360	11.06	352	1.6	92	0.4	1	0	1000.2	NA	0.0000		9999	2850	0	0	0
2019/11/26 02:24:00	BASE	9.59	9	12.09	10	1.6	91	0.4	1	0	1000.1	NA	0.0000		9999	2690	3180	0	0
2019/11/26 02:25:00	BASE	9.71	12	12.09	10	1.6	91	0.3	1	0	1000.1	NA	0.0000		9999	2760	3280	0	0
2019/11/26 02:26:00	BASE	9.86	12	12.71	14	1.7	91	0.3	1	0	1000.0	NA	0.0000		9999	2820	0	0	0
2019/11/26 02:27:00	BASE	10.90	15	12.71	14	1.7	90	0.2	1	0	1000.0	NA	0.0000		9999	2760	0	0	0
2019/11/26 02:28:00	BASE	10.73	15	12.71	14	1.8	89	0.2	1	0	1000.1	NA	0.0000		9999	2760	3350	0	0
2019/11/26 02:29:00	BASE	10.14	12	12.71	14	1.8	89	0.2	1	0	1000.0	NA	0.0000		9999	2760	0	0	0
2019/11/26 02:30:00	BASE	9.63	8	12.71	14	1.9	89	0.2	1	0	1000.1	NA	0.0000		9999	2620	0	0	0
2019/11/26 02:31:00	BASE	9.73	3	12.71	14	1.9	88	0.1	0	0	1000.1	NA	0.0000		9999	2690	0	0	0
2019/11/26 02:32:00	BASE	9.31	6	12.71	14	1.9	88	0.1	0	0	1000.2	NA	0.0000		9999	2760	0	0	0
2019/11/26 02:33:00	BASE	8.26	10	12.71	14	2.0	87	0.1	0	0	1000.2	NA	0.0000		9999	2820	0	0	0
2019/11/26 02:34:00	BASE	9.11	11	12.71	14	2.0	87	0.0	0	0	1000.0	NA	0.0000		9999	2920	0	0	0
2019/11/26 02:35:00	BASE	9.49	10	12.71	14	2.0	86	-0.1	0	0	1000.1	NA	0.0000		9999	2850	0	0	0
2019/11/26 02:36:00	BASE	8.80	12	12.55	21	2.0	86	-0.1	0	0	1000.1	NA	0.0000		9999	2760	0	0	0
2019/11/26 02:37:00	BASE	9.06	13	11.21	5	2.0	85	-0.2	0	0	1000.0	NA	0.0000		9999	3020	0	0	0
2019/11/26 02:38:00	BASE	9.35	10	11.21	5	2.0	85	-0.2	0	0	1000.0	NA	0.0000		9999	2820	0	0	0
2019/11/26 02:39:00	BASE	8.91	10	11.21	5	2.0	85	-0.3	0	0	1000.0	NA	0.0000		9999	2820	0	0	0
2019/11/26 02:40:00	BASE	9.31	3	11.21	5	2.0	85	-0.2	0	0	1000.0	NA	0.0000		9999	2820	0	0	0
2019/11/26 02:41:00	BASE	9.60	357	11.06	1	2.1	85	-0.2	0	0	1000.1	NA	0.0000		9999	2660	0	0	0
2019/11/26 02:42:00	BASE	7.85	345	11.06	1	2.1	85	-0.2	0	0	1000.2	NA	0.0000		9999	2760	0	0	0
2019/11/26 02:43:00	BASE	5.69	330	11.06	1	2.1	85	-0.2	0	0	1000.3	NA	0.0000		9999	2760	0	0	0
2019/11/26 02:44:00	BASE	5.63	344	11.06	1	2.1	85	-0.2	0	0	1000.2	NA	0.0000		9999	2850	0	0	0
2019/11/26 02:45:00	BASE	6.35	350	11.06	1	2.1	85	-0.2	0	0	1000.2	NA	0.0000		9999	2850	0	0	0
2019/11/26 02:46:00	BASE	5.23	327	11.06	1	2.0	84	-0.3	0	0	1000.3	NA	0.0000		9999	2920	0	0	0
2019/11/26 02:47:00	BASE	4.38	321	11.06	1	2.0	85	-0.3	0	0	1000.3	NA	0.0000		9999	2820	0	0	0
2019/11/26 02:48:00	BASE	4.91	332	11.06	1	1.9	85	-0.3	0	0	1000.2	NA	0.0000		9999	2850	0	0	0
2019/11/26 02:49:00	BASE	6.57	2	11.06	1	1.9	85	-0.3	0	0	1000.1	NA	0.0000		9999	2920	0	0	0
2019/11/26 02:50:00	BASE	8.26	27	10.70	360	1.9	86	-0.2	0	0	1000.0	NA	0.0000		9999	2990	0	0	0
2019/11/26 02:51:00	BASE	8.41	24	10.49	22	2.0	86	-0.1	0	0	1000.1	NA	0.0000		9999	2850	0	0	0
2019/11/26 02:52:00	BASE	8.79	17	10.85	16	2.1	86	-0.1	0	0	1000.0	NA	0.0000		9999	2850	0	0	0
2019/11/26 02:53:00	BASE	10.34	22	12.19	29	2.2	85	-0.0	0	0	999.9	NA	0.0000		9999	2790	0	0	0
2019/11/26 02:54:00	BASE	11.06	29	12.19	28	2.3	84	-0.1	0	0	999.9	NA	0.0000		9999	2820	0	0	0
2019/11/26 02:55:00	BASE	10.65	32	12.19	28	2.4	83	-0.1	0	0	999.9	NA	0.0000		9999	2790	0	0	0
2019/11/26 02:56:00	BASE	9.85	32	12.19	28	2.4	83	-0.3	0	0	1000.0	NA	0.0000		9999	2890	0	0	0
2019/11/26 02:57:00	BASE	9.00	29	12.19	28	2.4	82	-0.3	0	0	1000.0	NA	0.0000		9999	2950	0	0	0
2019/11/26 02:58:00	BASE	9.81	26	12.19	28	2.5	82	-0.4	0	0	999.9	NA	0.0000		9999	2790	0	0	0
2019/11/26 02:59:00	BASE	10.21	26	12.19	28	2.5	81	-0.4	0	0	1000.0	NA	0.0000		9999	2790	0	0	0
2019/11/26 03:00:00	BASE	9.09	26	12.19	28	2.5	81	-0.4	0	0	1000.1	NA	0.0000		9999	2760	0	0	0
2019/11/26 03:01:00	BASE	8.60	22	12.19	28	2.5	81	-0.4	0	0	1000.0	NA	0.0000		9999	2820	0	0	0
2019/11/26 03:02:00	BASE	7.96	16	12.19	28	2.5	81	-0.4	0	0	1000.1	NA	0.0000		9999	2790	0	0	0
2019/11/26 03:03:00	BASE	7.69	20	12.19	28	2.5	81	-0.4	0	0	1000.1	NA	0.0000		9999	2820	0	0	0
2019/11/26 03:04:00	BASE	7.46	24	11.88	37	2.6	81	-0.4	0	0	1000.2	NA	0.0000		9999	2850	0	0	0
2019/11/26 03:05:00	BASE	6.34	20	11.63	22	2.5	81	-0.4	0	0	1000.3	NA	0.0000		9999	2950	0	0	0
2019/11/26 03:06:00	BASE	5.95	19	11.63	22	2.5	81	-0.4	0	0	1000.2	NA	0.0000		9999	2950	0	0	0
2019/11/26 03:07:00	BASE	6.57	15	11.63	22	2.6	81	-0.3	0	0	1000.2	NA	0.0000		9999	2850	0	0	0
2019/11/26 03:08:00	BASE	6.98	358	11.16	23	2.6	81	-0.2	0	0	1000.4	NA	0.0000		9999	2850	0	0	0
2019/11/26 03:09:00	BASE	5.27	338	9.47	17	2.6	81	-0.2	0	0	1000.5	NA	0.0000		9999	2950	0	0	0
2019/11/26 03:10:00	BASE	3.04	353	9.47	17	2.6	81	-0.2	0	0	1000.6	NA	0.0000		9999	2820	0	0	0
2019/11/26 03:11:00	BASE	1.61	46	9.11	33	2.6	81	-0.3	0	0	1000.5	NA	0.0000		9999	2890	0	0	0
2019/11/26 03:12:00	BASE	0.94	135	9.11	33	2.4	81	-0.4	0	0	1000.6	NA	0.0000		9999	2850	0	0	0
2019/11/26 03:13:00	BASE	2.29	139	8.39	3	2.2	82	-0.6	0	0	1000.7	NA	0.0000		9999	2950	0	0	0
2019/11/26 03:14:00	BASE	3.89	113	8.39	3	2.0	83	-0.6	0	0	1000.7	NA	0.0000		9999	2890	0	0	0
2019/11/26 03:15:00	BASE	5.14	108	8.39	3	1.8	84	-0.6	0	0	1000.7	NA	0.0000		9999	3020	0	0	0
2019/11/26 03:16:00	BASE	6.45	123	8.39	3	1.6	85	-0.6	0	0	1000.6	NA	0.0000		9999	2990	0	0	0
2019/11/26 03:17:00	BASE	7.62	139	10.19	146	1.4	87	-0.5	0	0	1000.5	NA	0.0000		9999	2890	0	0	0
2019/11/26 03:18:00	BASE	8.77	147	10.19	146	1.3	88	-0.4	0	0	1000.6	NA	0.0000		9999	2990	0	0	0
2019/11/26 03:19:00	BASE	8.54	155	10.19	146	1.1	90	-0.4	0	0	1000.6	NA	0.0000		9999	2990	0	0	0
2019/11/26 03:20:00	BASE	7.67	159	10.19	146	0.9	91	-0.3	0	0	1000.6	NA	0.0000		9999	2920	0	0	0
2019/11/26 03:21:00	BASE	7.42	158	10.19	146	0.8	93	-0.3	0	0	1000.6	NA	0.0000		9999	2920	0	0	0
2019/11/26 03:22:00	BASE	7.80	153	10.19	146	0.6	94	-0.2	0	0	1000.6	NA	0.0000		9999	2950	0	0	0
2019/11/26 03:23:00	BASE	8.83	152	10.19	146	0.5	96	-0.2	0	0	1000.6	NA	0.0000		9999	2490	0	0	0
2019/11/26 03:24:00	BASE	8.83	158	10.19	146	0.4	97	-0.0	0	0	1000.7	NA	0.0000		9999	2460	0	0	0
2019/11/26 03:25:00	BASE	7.51	155	10.19	146	0.3	98	0.1	0	0	1000.8	NA	0.0000		9999	2460	0	0	0
2019/11/26 03:26:00	BASE	6.87	150	10.19	146	0.3	99	0.1	0	0	1000.8	NA	0.0000		9999	2920	0	0	0
2019/11/26 03:27:00	BASE	6.22	153	10.13	155	0.2	100	0.2	0	0	1000.8	NA	0.0000		9999	2890	0	0	0
2019/11/26 03:28:00	BASE	6.02	147	10.13	155	0.2	100	0.2	0	0	1000.7	NA	0.0000		9999	2790	0	0	0
2019/11/26 03:29:00	BASE	7.42	142	10.13	155	0.2	100	0.2	0	0	1000.6	NA	0.0000		9999	2660	0	0	0
2019/11/26 03:30:00	BASE	8.43	139	10.13	155	0.2	100	0.2	0	0	1000.6	NA	0.0000		9999	2590	0	0	0
2019/11/26 03:31:00	BASE	8.17	136	10.13	155	0.2	100	0.2	0	0	1000.7	NA	0.0000	UP	9999	2330	0	0	0
2019/11/26 03:32:00	BASE	7.03	143	10.13	155	0.1	100	0.1	0	0	1000.8	NA	0.0000	UP	9999	2360	0	0	0
2019/11/26 03:33:00	BASE	6.35	149	9.36	139	0.1	100	0.1	0	0	1000.7	NA	0.0000	UP	9999	2530	0	0	0
2019/11/26 03:34:00	BASE	7.26	139	9.36	139	0.1	100	0.1	0	0	1000.7	NA	0.0000	UP	9999	2430	0	0	0
2019/11/26 03:35:00	BASE	8.12	126	9.98	130	0.1	100	0.1	0	0	1000.7	NA	0.0000	UP	9999	1740	0	0	0
2019/11/26 03:36:00	BASE	8.72	121	10.55	131	0.1	100	0.1	0	0	1000.7	NA	0.0000	UP	9000	2460	0	0	0
2019/11/26 03:37:00	BASE	8.84	119	10.55	131	0.1	100	0.1	0	0	1000.8	NA	0.0000	UP	5000	2590	0	0	0
2019/11/26 03:38:00	BASE	8.53	116	10.55	131	0.1	100	0.1	0	0	1000.7	NA	0.0000	UP BR	3900	430	0	0	0
2019/11/26 03:39:00	BASE	8.39	116	10.55	131	0.1	100	0.1	0	0	1000.8	NA	0.0000	UP BR	3100	390	0	0	0
2019/11/26 03:40:00	BASE	8.43	119	10.55	131	0.1	100	0.1	0	0	1000.7	NA	0.0000	UP BR	2100	390	0	0	0
2019/11/26 03:41:00	BASE	9.24	119	11.21	121	0.1	100	0.1	0	0	1000.7	NA	0.0000	UP BR	1700	2460	0	0	0
2019/11/26 03:42:00	BASE	9.75	117	11.32	125	0.1	100	0.1	0	0	1000.7	NA	0.0000	UP BR	1500	2530	0	0	0
2019/11/26 03:43:00	BASE	9.00	119	11.32	125	0.2	100	0.2	0	0	1000.8	NA	0.0000	UP BR	1400	390	0	0	0
2019/11/26 03:44:00	BASE	7.05	117	11.32	125	0.2	100	0.2	0	0	1000.8	NA	0.0000	UP BR	1400	360	2490	0	0
2019/11/26 03:45:00	BASE	7.27	113	11.32	125	0.2	100	0.2	0	0	1000.8	NA	0.0000	UP BR	1400	360	2400	0	0
2019/11/26 03:46:00	BASE	8.62	115	11.32	125	0.2	100	0.2	0	0	1000.8	NA	0.0000	UP BR	1300	360	0	0	0
2019/11/26 03:47:00	BASE	8.11	113	11.32	125	0.2	100	0.2	0	0	1000.8	NA	0.0000	UP BR	1300	390	0	0	0
2019/11/26 03:48:00	BASE	7.95	108	11.32	125	0.1	100	0.1	0	0	1000.8	NA	0.0000	UP BR	1400	360	0	0	0
2019/11/26 03:49:00	BASE	8.23	105	11.32	125	0.1	100	0.1	0	0	1000.8	NA	0.0000	UP BR	1800	360	0	0	0
2019/11/26 03:50:00	BASE	7.97	104	11.32	125	0.1	100	0.1	0	0	1000.9	NA	0.0000	UP BR	1700	360	0	0	0
2019/11/26 03:51:00	BASE	7.44	101	11.32	125	0.1	100	0.1	0	0	1000.9	NA	0.0000	UP BR	1600	330	0	0	0
2019/11/26 03:52:00	BASE	7.10	100	9.67	115	0.1	100	0.1	0	0	1000.9	NA	0.0000	UP BR	1600	330	2560	0	0
2019/11/26 03:53:00	BASE	6.99	105	9.26	120	0.1	100	0.1	0	0	1000.9	NA	0.0000	UP BR	1500	330	0	0	0
2019/11/26 03:54:00	BASE	7.07	107	9.26	120	0.1	100	0.1	0	0	1000.9	NA	0.0000	UP BR	1600	330	0	0	0
2019/11/26 03:55:00	BASE	7.58	110	9.26	120	0.1	100	0.1	0	0	1000.8	NA	0.0000	UP BR	1700	330	2230	0	0
2019/11/26 03:56:00	BASE	8.05	115	9.11	115	0.1	100	0.1	0	0	1000.7	NA	0.0000	UP BR	1600	330	2590	0	0
2019/11/26 03:57:00	BASE	8.02	119	9.11	115	0.1	100	0.1	0	0	1000.7	NA	0.0000	UP BR	1600	330	0	0	0
2019/11/26 03:58:00	BASE	8.00	116	9.11	115	0.1	100	0.1	0	0	1000.8	NA	0.0000	UP BR	1500	330	2360	0	0
2019/11/26 03:59:00	BASE	7.82	114	9.11	115	0.1	100	0.1	0	0	1000.7	NA	0.0000	UP BR	1400	260	2300	0	0
2019/11/26 04:00:01	BASE	7.83	112	9.00	115	0.0	100	0.0	0	0	1000.7	NA	0.0000	UP BR	1700	230	2430	0	0
2019/11/26 04:01:00	BASE	8.08	110	9.00	115	0.0	100	0.0	0	0	1000.7	NA	0.0000	UP BR	1800	230	2360	0	0
2019/11/26 04:02:01	BASE	8.21	110	9.00	115	-0.0	100	-0.0	0	0	M	NA	0.0000	UP BR	M	230	2230	0	0
2019/11/26 04:03:01	BASE	8.06	113	9.00	115	-0.0	100	-0.1	0	0	1000.7	NA	0.0000	UP BR	1800	300	0	0	0
2019/11/26 04:04:00	BASE	7.98	118	9.31	127	-0.1	100	-0.1	0	0	1000.7	NA	0.0000	UP BR	1800	260	0	0	0
2019/11/26 04:05:00	BASE	7.79	119	9.31	127	-0.1	100	-0.1	0	0	1000.7	NA	0.0000	UP BR	1800	300	0	0	0
2019/11/26 04:06:00	BASE	7.36	114	9.31	127	-0.1	100	-0.1	0	0	1000.8	NA	0.0000	UP BR	1800	230	750	0	0
2019/11/26 04:07:00	BASE	7.05	113	9.31	127	-0.1	100	-0.1	0	0	1000.8	NA	0.0000	UP BR	1700	230	790	0	0
2019/11/26 04:08:00	BASE	6.77	114	9.31	127	-0.1	100	-0.1	0	0	1000.9	NA	0.0000	UP BR	1700	260	1770	0	0
2019/11/26 04:09:00	BASE	6.73	112	9.31	127	-0.1	100	-0.1	0	0	1000.9	NA	0.0000	UP BR	1700	230	1180	0	0
2019/11/26 04:10:00	BASE	6.71	112	9.31	127	-0.1	100	-0.1	0	0	1000.9	NA	0.0000	UP BR	1700	260	1150	0	0
2019/11/26 04:11:00	BASE	6.89	117	9.31	127	-0.1	100	-0.1	0	0	1000.8	NA	0.0000	UP BR	1700	260	1410	0	0
2019/11/26 04:12:00	BASE	7.18	122	9.31	127	-0.1	100	-0.1	0	0	1000.8	NA	0.0000	UP BR	1700	390	0	0	0
2019/11/26 04:13:00	BASE	7.33	125	9.31	127	-0.1	100	-0.1	0	0	1000.7	NA	0.0000	UP BR	1700	300	0	0	0
2019/11/26 04:14:00	BASE	7.26	124	8.33	132	-0.1	100	-0.1	0	0	1000.7	NA	0.0000	UP BR	2100	260	1800	0	0
2019/11/26 04:15:00	BASE	7.08	125	8.33	132	-0.1	100	-0.1	0	0	1000.6	NA	0.0000	UP BR	2800	260	0	0	0
2019/11/26 04:16:00	BASE	7.25	130	8.33	132	-0.1	100	-0.1	0	0	1000.5	NA	0.0000	UP BR	3500	260	0	0	0
2019/11/26 04:17:00	BASE	7.92	131	9.93	133	-0.1	100	-0.1	0	0	1000.4	NA	0.0000	UP BR	4000	300	0	0	0
2019/11/26 04:18:00	BASE	8.21	132	9.93	133	-0.1	100	-0.1	0	0	1000.4	NA	0.0000	UP BR	4600	330	0	0	0
2019/11/26 04:19:00	BASE	7.76	131	9.93	133	-0.1	100	-0.1	0	0	1000.5	NA	0.0000	UP BR	4400	300	1770	0	0
2019/11/26 04:20:00	BASE	7.33	127	9.93	133	-0.1	100	-0.1	0	0	1000.5	NA	0.0000	UP BR	3800	260	0	0	0
2019/11/26 04:21:00	BASE	7.21	122	9.93	133	-0.2	100	-0.2	0	0	1000.6	NA	0.0000	UP BR	3600	200	1870	0	0
2019/11/26 04:22:00	BASE	7.55	120	9.93	133	-0.2	100	-0.2	0	0	1000.5	NA	0.0000	UP BR	3500	160	0	0	0
2019/11/26 04:23:00	BASE	8.10	123	9.93	133	-0.2	100	-0.2	0	0	1000.5	NA	0.0000	UP BR	3500	160	2000	0	0
2019/11/26 04:24:00	BASE	8.28	129	9.93	133	-0.2	100	-0.2	0	0	1000.4	NA	0.0000	UP BR	3300	260	0	0	0
2019/11/26 04:25:00	BASE	8.10	135	9.93	133	-0.2	100	-0.2	0	0	1000.4	NA	0.0000	UP BR	3000	230	0	0	0
2019/11/26 04:26:00	BASE	7.86	138	9.93	133	-0.2	100	-0.2	0	0	1000.4	NA	0.0000	UP BR	2900	260	0	0	0
2019/11/26 04:27:00	BASE	7.55	139	9.52	130	-0.3	100	-0.3	0	0	1000.4	NA	0.0000	UP BR	3200	200	0	0	0
2019/11/26 04:28:00	BASE	7.21	141	9.52	130	-0.3	100	-0.3	0	0	1000.5	NA	0.0000	UP BR	3200	230	0	0	0
2019/11/26 04:29:00	BASE	6.95	142	9.52	130	-0.3	100	-0.3	0	0	1000.4	NA	0.2540	UP BR	2800	0	0	0	2100
2019/11/26 04:30:00	BASE	7.70	144	9.62	146	-0.3	100	-0.3	0	0	1000.4	NA	0.0000	UP BR	2600	300	0	0	0
2019/11/26 04:31:00	BASE	7.40	141	9.62	146	-0.3	100	-0.3	0	0	1000.5	NA	0.0000	UP BR	2700	300	0	0	0
2019/11/26 04:32:00	BASE	6.38	137	9.62	146	-0.3	100	-0.4	0	0	1000.5	NA	0.0000	UP BR	2600	260	0	0	0
2019/11/26 04:33:00	BASE	6.38	138	9.62	146	-0.4	100	-0.4	0	0	1000.4	NA	0.0000	UP BR	2400	260	0	0	0
2019/11/26 04:34:00	BASE	6.11	141	9.62	146	-0.4	100	-0.4	0	0	1000.5	NA	0.0000	UP BR	2400	330	0	0	0
2019/11/26 04:35:00	BASE	5.78	144	9.62	146	-0.3	100	-0.3	0	0	1000.5	NA	0.0000	UP BR	2400	300	0	0	0
2019/11/26 04:36:00	BASE	6.68	143	9.62	146	-0.3	100	-0.3	0	0	1000.4	NA	0.0000	UP BR	2600	300	0	0	0
2019/11/26 04:37:00	BASE	7.49	139	9.62	146	-0.3	100	-0.3	0	0	1000.3	NA	0.0000	UP BR	2500	300	0	0	0
2019/11/26 04:38:00	BASE	7.25	142	9.62	146	-0.3	100	-0.3	0	0	1000.4	NA	0.0000	UP BR	2500	230	1640	0	0
2019/11/26 04:39:00	BASE	7.09	149	9.62	146	-0.3	100	-0.3	0	0	1000.3	NA	0.0000	UP BR	3100	300	0	0	0
2019/11/26 04:40:00	BASE	7.15	154	8.08	149	-0.3	100	-0.3	0	0	1000.3	NA	0.0000	UP BR	3100	300	0	0	0
2019/11/26 04:41:00	BASE	6.94	156	8.08	149	-0.2	100	-0.2	0	0	1000.3	NA	0.0000	UP BR	3000	360	0	0	0
2019/11/26 04:42:00	BASE	6.54	157	8.08	149	-0.2	100	-0.2	0	0	1000.3	NA	0.0000	UP BR	3500	330	0	0	0
2019/11/26 04:43:00	BASE	6.48	158	8.08	149	-0.2	100	-0.2	0	0	1000.3	NA	0.0000	UP BR	3500	260	1610	0	0
2019/11/26 04:44:00	BASE	6.67	154	8.08	149	-0.3	100	-0.3	0	0	1000.2	NA	0.0000	UP BR	3500	360	2170	0	0
2019/11/26 04:45:00	BASE	6.88	150	8.08	149	-0.3	100	-0.3	0	0	1000.2	NA	0.0000	UP BR	3800	950	0	0	0
2019/11/26 04:46:00	BASE	6.70	148	8.08	149	-0.3	100	-0.3	0	0	1000.2	NA	0.0000	UP BR	4000	1610	2170	0	0
2019/11/26 04:47:00	BASE	6.21	143	8.08	149	-0.3	100	-0.3	0	0	1000.2	NA	0.0000	UP BR	4000	390	0	0	0
2019/11/26 04:48:00	BASE	5.49	138	7.72	146	-0.3	100	-0.3	0	0	1000.3	NA	0.0000	UP BR	3700	1410	2260	0	0
2019/11/26 04:49:00	BASE	4.57	127	7.67	150	-0.4	100	-0.4	0	0	1000.4	NA	0.0000	UP BR	3500	300	2230	0	0
2019/11/26 04:50:00	BASE	4.21	121	7.67	150	-0.4	100	-0.4	0	0	1000.3	NA	0.0000	UP BR	3500	300	2300	0	0
2019/11/26 04:51:00	BASE	4.30	131	7.67	150	-0.4	100	-0.4	0	0	1000.3	NA	0.0000	UP BR	3500	330	1570	0	0
2019/11/26 04:52:00	BASE	3.36	135	7.67	150	-0.4	100	-0.4	0	0	1000.3	NA	0.0000	UP BR	3500	230	2430	0	0
2019/11/26 04:53:00	BASE	2.73	127	7.67	150	-0.4	100	-0.4	0	0	1000.3	NA	0.0000	UP BR	3500	200	620	0	0
2019/11/26 04:54:00	BASE	3.94	127	7.67	150	-0.4	100	-0.4	0	0	1000.2	NA	0.0000	UP BR	3500	260	0	0	0
2019/11/26 04:55:00	BASE	5.06	133	7.05	145	-0.4	100	-0.4	0	0	1000.2	NA	0.0000	UP BR	3500	2990	0	0	0
2019/11/26 04:56:00	BASE	4.90	135	6.28	138	-0.4	100	-0.4	0	0	1000.2	NA	0.0000	UP BR	3500	390	0	0	0
2019/11/26 04:57:00	BASE	4.08	135	5.92	134	-0.4	100	-0.4	0	0	1000.3	NA	0.0000	BR	3500	0	0	0	3150
2019/11/26 04:58:00	BASE	3.17	134	5.92	134	-0.4	100	-0.4	0	0	1000.3	NA	0.2540	BR	3500	230	0	0	0
2019/11/26 04:59:00	BASE	2.32	135	5.92	134	-0.4	100	-0.4	0	0	1000.3	NA	0.0000	BR	3500	230	0	0	0
2019/11/26 05:00:00	BASE	1.94	138	5.92	134	-0.4	100	-0.4	0	0	1000.2	NA	0.0000	BR	3500	0	0	0	2990
2019/11/26 05:01:00	BASE	2.47	150	5.92	134	-0.3	100	-0.3	0	0	1000.1	NA	0.0000	BR	3500	330	0	0	0
2019/11/26 05:02:00	BASE	3.35	163	5.92	134	-0.2	100	-0.2	0	0	1000.1	NA	0.0000	BR	3500	0	0	0	3350
2019/11/26 05:03:00	BASE	4.44	164	5.92	134	-0.1	100	-0.1	0	0	999.9	NA	0.0000	BR	3500	1120	0	0	0
2019/11/26 05:04:00	BASE	4.33	162	5.92	134	-0.0	100	-0.0	0	0	1000.1	NA	0.0000	BR	3500	1350	0	0	0
2019/11/26 05:05:00	BASE	3.29	153	5.81	165	0.1	100	0.1	0	0	1000.1	NA	0.0000	BR	3500	720	0	0	0
2019/11/26 05:06:00	BASE	3.50	144	5.81	165	0.2	100	0.2	0	0	1000.1	NA	0.0000	BR	3500	1670	2560	0	0
2019/11/26 05:07:00	BASE	3.60	140	5.81	165	0.2	100	0.2	0	0	1000.1	NA	0.0000	BR	3500	1640	0	0	0
2019/11/26 05:08:00	BASE	3.57	141	5.81	165	0.3	100	0.3	0	0	1000.0	NA	0.0000	BR	3500	1510	0	0	0
2019/11/26 05:09:00	BASE	4.09	148	5.81	165	0.3	100	0.3	0	0	1000.0	NA	0.0000	BR	3500	820	0	0	0
2019/11/26 05:10:00	BASE	3.89	144	5.81	165	0.2	100	0.2	0	0	1000.0	NA	0.0000	BR	3500	1570	2620	0	0
2019/11/26 05:11:00	BASE	3.71	137	5.81	165	0.2	100	0.2	0	0	1000.0	NA	0.0000	BR	3500	2530	0	0	0
2019/11/26 05:12:00	BASE	3.80	117	5.81	165	0.2	100	0.2	0	0	1000.1	NA	0.0000	BR	3500	2460	0	0	0
2019/11/26 05:13:00	BASE	4.11	109	5.45	125	0.2	100	0.2	0	0	1000.0	NA	0.0000	BR	3500	2430	0	0	0
2019/11/26 05:14:00	BASE	4.54	120	5.66	131	0.2	100	0.2	0	0	1000.0	NA	0.0000	BR	3500	560	0	0	0
2019/11/26 05:15:00	BASE	4.43	119	5.66	131	0.2	100	0.2	0	0	999.9	NA	0.0000	BR	3500	2620	0	0	0
2019/11/26 05:16:00	BASE	3.68	117	5.66	131	0.3	100	0.3	0	0	999.9	NA	0.0000	BR	3500	2430	0	0	0
2019/11/26 05:17:00	BASE	3.34	129	5.66	131	0.4	100	0.4	0	0	999.9	NA	0.0000	BR	3500	720	0	0	0
2019/11/26 05:18:00	BASE	3.45	128	5.66	131	0.5	100	0.5	0	0	999.9	NA	0.0000	BR	3500	2620	0	0	0
2019/11/26 05:19:00	BASE	3.32	107	5.66	131	0.6	100	0.6	0	0	999.9	NA	0.0000	BR	3500	2360	0	0	0
2019/11/26 05:20:00	BASE	2.66	85	5.66	131	0.8	100	0.8	0	0	999.9	NA	0.0000	BR	3500	1870	0	0	0
2019/11/26 05:21:00	BASE	2.15	89	5.66	131	0.9	100	0.9	0	0	999.9	NA	0.2540	BR	3500	2260	0	0	0
2019/11/26 05:22:00	BASE	2.39	110	5.66	131	1.0	100	1.0	0	0	999.9	NA	0.0000	BR	3500	1840	0	0	0
2019/11/26 05:23:00	BASE	2.15	112	5.66	131	1.2	100	1.2	0	0	1000.0	NA	0.0000	BR	3500	2200	0	0	0
2019/11/26 05:24:00	BASE	1.45	123	5.25	119	1.2	100	1.2	0	0	1000.1	NA	0.0000	BR	3500	690	0	0	0
2019/11/26 05:25:00	BASE	0.65	170	4.89	136	1.2	100	1.2	0	0	1000.1	NA	0.0000	BR	3500	2300	0	0	0
2019/11/26 05:26:00	BASE	0.94	138	4.89	136	1.2	100	1.2	0	0	1000.0	NA	0.0000	BR	3500	2330	0	0	0
2019/11/26 05:27:00	BASE	2.29	87	4.32	131	1.1	100	1.1	0	0	1000.0	NA	0.0000	BR	3500	1940	0	0	0
2019/11/26 05:28:00	BASE	2.59	83	4.06	98	1.2	100	1.2	0	0	1000.0	NA	0.0000	BR	3500	2100	0	0	0
2019/11/26 05:29:00	BASE	2.50	88	3.91	104	1.2	100	1.2	0	0	1000.0	NA	0.0000	BR	3500	1800	0	0	0
2019/11/26 05:30:00	BASE	2.92	95	4.68	92	1.2	100	1.2	0	0	1000.0	NA	0.0000	BR	3500	2000	0	0	0
2019/11/26 05:31:00	BASE	2.50	100	4.68	92	1.2	100	1.2	0	0	1000.1	NA	0.0000	BR	3500	2070	0	0	0
2019/11/26 05:32:00	BASE	3.25	113	5.25	136	1.2	100	1.2	0	0	1000.0	NA	0.0000	BR	4100	1870	0	0	0
2019/11/26 05:33:00	BASE	4.30	115	5.25	136	1.1	100	1.1	0	0	1000.0	NA	0.0000	BR	4800	1280	0	0	0
2019/11/26 05:34:00	BASE	3.95	116	5.86	94	1.0	100	1.0	0	0	999.9	NA	0.0000	BR	5000	2590	0	0	0
2019/11/26 05:35:00	BASE	4.17	120	5.86	94	1.0	100	1.0	0	0	999.9	NA	0.0000	BR	5000	2330	0	0	0
2019/11/26 05:36:00	BASE	4.30	112	5.86	94	1.0	100	1.0	0	0	999.9	NA	0.0000	BR	5000	0	0	0	5120
2019/11/26 05:37:00	BASE	3.50	106	5.86	94	1.0	100	1.0	0	0	999.9	NA	0.0000	BR	5000	1670	0	0	0
2019/11/26 05:38:00	BASE	2.46	98	5.86	94	1.0	100	1.0	0	0	999.9	NA	0.0000	BR	4600	2230	0	0	0
2019/11/26 05:39:00	BASE	1.84	82	5.86	94	1.1	100	1.1	0	0	999.9	NA	0.0000	BR	4900	1050	0	0	0
2019/11/26 05:40:00	BASE	1.20	50	5.86	94	1.3	100	1.3	0	0	999.9	NA	0.0000	BR	6000	1800	2660	0	0
2019/11/26 05:41:00	BASE	1.02	12	5.86	94	1.5	100	1.5	0	0	999.9	NA	0.0000	BR	6000	2330	0	0	0
2019/11/26 05:42:00	BASE	1.10	351	5.86	94	1.7	100	1.7	0	0	999.9	NA	0.0000	BR	7000	2170	0	0	0
2019/11/26 05:43:00	BASE	1.18	343	5.86	94	1.8	100	1.8	0	0	999.9	NA	0.0000	BR	9000	1800	0	0	0
2019/11/26 05:44:00	BASE	2.05	350	5.14	122	1.9	100	1.9	0	0	999.9	NA	0.0000	BR	9999	1800	0	0	0
2019/11/26 05:45:00	BASE	2.54	344	4.58	99	2.0	100	2.0	0	0	999.9	NA	0.0000	BR	9999	2070	0	0	0
2019/11/26 05:46:00	BASE	2.30	333	3.55	1	2.1	100	2.1	0	0	999.9	NA	0.0000	BR	9999	1640	0	0	0
2019/11/26 05:47:00	BASE	2.13	318	3.55	1	2.2	100	2.2	0	0	999.9	NA	0.0000	BR	9999	2170	0	0	0
2019/11/26 05:48:00	BASE	1.89	288	3.55	1	2.2	100	2.2	0	0	999.9	NA	0.0000	BR	9999	980	0	0	0
2019/11/26 05:49:00	BASE	1.06	296	3.55	1	2.3	100	2.3	0	0	999.9	NA	0.0000	BR	9999	2360	0	0	0
2019/11/26 05:50:00	BASE	1.17	343	3.55	1	2.4	100	2.4	1	0	999.9	NA	0.0000		9999	2200	0	0	0
2019/11/26 05:51:00	BASE	1.98	333	3.55	1	2.3	100	2.3	1	0	999.9	NA	0.0000		9999	2230	0	0	0
2019/11/26 05:52:00	BASE	1.92	306	3.55	1	2.4	100	2.4	1	0	999.9	NA	0.0000		9999	2460	3380	0	0
2019/11/26 05:53:00	BASE	1.81	300	3.55	1	2.5	100	2.5	1	0	999.9	NA	0.0000		9999	2560	0	0	0
2019/11/26 05:54:00	BASE	2.64	328	5.04	6	2.6	100	2.6	1	0	999.9	NA	0.0000		9999	2230	0	0	0
2019/11/26 05:55:00	BASE	3.33	344	5.04	6	2.7	100	2.7	1	0	999.9	NA	0.0000		9999	2130	0	0	0
2019/11/26 05:56:00	BASE	3.05	314	5.04	6	2.9	100	2.9	1	0	999.9	NA	0.0000		9999	2200	0	0	0
2019/11/26 05:57:00	BASE	2.82	286	5.04	6	2.8	100	2.8	1	0	999.9	NA	0.0000		9999	2070	0	0	0
2019/11/26 05:58:00	BASE	2.82	263	5.04	6	2.5	99	2.4	1	0	999.9	NA	0.0000		9999	1640	2330	0	0
2019/11/26 05:59:00	BASE	2.80	241	5.04	6	2.1	99	2.0	1	0	999.9	NA	0.0000		9999	2070	0	0	0
2019/11/26 06:00:00	BASE	2.69	230	5.04	6	1.6	99	1.5	1	0	999.9	NA	0.0000		9999	1840	2300	0	0
2019/11/26 06:01:00	BASE	2.51	220	5.04	6	1.1	99	1.0	1	0	999.9	NA	0.0000		9999	1800	2230	0	0
2019/11/26 06:02:00	BASE	1.81	229	5.04	6	0.7	99	0.6	1	0	999.9	NA	0.0000		9999	2200	0	0	0
2019/11/26 06:03:00	BASE	1.57	269	5.04	6	0.5	100	0.5	1	0	999.9	NA	0.0000		9999	1770	0	0	0
2019/11/26 06:04:00	BASE	2.29	292	4.48	360	0.7	100	0.7	1	0	999.8	NA	0.0000		9999	2230	2920	0	0
2019/11/26 06:05:00	BASE	2.35	287	3.86	318	0.9	100	0.9	1	0	999.9	NA	0.0000		9999	2170	0	0	0
2019/11/26 06:06:00	BASE	1.36	279	3.86	318	1.1	100	1.1	1	0	999.9	NA	0.0000		9999	2100	0	0	0
2019/11/26 06:07:00	BASE	0.35	229	3.86	318	1.3	100	1.3	1	0	999.9	NA	0.0000		9999	2230	0	0	0
2019/11/26 06:08:01	BASE	0.39	199	3.86	318	1.5	100	1.5	1	0	999.9	NA	0.0000		9999	1840	0	0	0
2019/11/26 06:09:00	BASE	1.04	195	3.86	318	1.4	100	1.4	1	0	999.9	NA	0.0000		9999	2030	0	0	0
2019/11/26 06:10:00	BASE	1.94	166	3.86	318	1.3	100	1.3	1	0	999.9	NA	0.0000		9999	2200	0	0	0
2019/11/26 06:11:00	BASE	2.35	161	3.86	318	1.2	100	1.2	1	0	999.9	NA	0.0000		9999	2200	0	0	0
2019/11/26 06:12:00	BASE	2.21	159	3.86	318	1.0	100	1.0	1	0	999.9	NA	0.0000		9999	2300	0	0	0
2019/11/26 06:13:00	BASE	2.14	166	3.86	318	0.9	100	0.9	1	0	999.9	NA	0.0000		9999	2260	2720	0	0
2019/11/26 06:14:00	BASE	1.98	182	3.34	162	0.7	100	0.7	1	0	999.9	NA	0.0000		9999	2330	0	0	0
2019/11/26 06:15:00	BASE	2.11	184	3.34	162	0.6	100	0.6	1	0	999.9	NA	0.0000		9999	2360	0	0	0
2019/11/26 06:16:00	BASE	2.05	174	3.34	162	0.5	100	0.5	1	0	1000.0	NA	0.0000		9999	2460	0	0	0
2019/11/26 06:17:00	BASE	1.92	168	3.34	162	0.5	100	0.5	1	0	999.9	NA	0.0000		9999	2070	0	0	0
2019/11/26 06:18:01	BASE	1.81	157	3.34	162	0.5	100	0.5	1	0	1000.0	NA	0.0000		9999	1940	0	0	0
2019/11/26 06:19:00	BASE	1.48	151	3.34	162	0.5	100	0.5	1	0	1000.0	NA	0.0000		9999	2300	0	0	0
2019/11/26 06:20:00	BASE	0.75	164	2.98	181	0.5	100	0.5	1	0	1000.1	NA	0.0000		9999	2490	0	0	0
2019/11/26 06:21:00	BASE	0.09	174	2.78	186	0.6	100	0.6	1	0	1000.1	NA	0.0000		9999	2620	0	0	0
2019/11/26 06:22:00	BASE	0.00	177	2.78	186	0.7	100	0.7	1	0	1000.1	NA	0.0000		9999	2560	0	0	0
2019/11/26 06:23:00	BASE	0.12	187	2.78	186	0.7	100	0.7	1	0	1000.1	NA	0.0000		9999	2430	0	0	0
2019/11/26 06:24:00	BASE	0.44	183	2.78	186	0.8	100	0.8	1	0	1000.1	NA	0.0000		9999	2490	0	0	0
2019/11/26 06:25:00	BASE	0.59	149	2.21	177	0.9	100	0.9	1	0	1000.1	NA	0.0000		9999	2560	0	0	0
2019/11/26 06:26:00	BASE	0.27	129	2.21	177	1.0	100	1.0	1	0	1000.0	NA	0.0000		9999	2620	0	0	0
2019/11/26 06:27:00	BASE	0.46	35	2.52	354	1.1	100	1.1	1	0	1000.0	NA	0.0000		9999	2660	0	0	0
2019/11/26 06:28:00	BASE	0.93	15	3.29	349	1.2	100	1.2	1	0	1000.0	NA	0.0000		9999	2660	0	0	0
2019/11/26 06:29:00	BASE	2.92	16	6.58	1	1.3	100	1.3	1	0	999.9	NA	0.0000		9999	2760	0	0	0
2019/11/26 06:30:00	BASE	4.21	321	6.58	1	1.5	100	1.5	1	0	999.9	NA	0.0000		9999	2720	0	0	0
2019/11/26 06:31:00	BASE	3.47	252	6.58	1	1.6	100	1.6	1	0	999.9	NA	0.0000		9999	2790	0	0	0
2019/11/26 06:32:00	BASE	2.75	235	6.58	1	1.5	100	1.5	1	0	1000.1	NA	0.0000		9999	2820	0	0	0
2019/11/26 06:33:00	BASE	1.67	260	6.58	1	1.5	100	1.5	1	0	1000.1	NA	0.0000		9999	2890	0	0	0
2019/11/26 06:34:00	BASE	0.82	257	6.58	1	1.3	100	1.3	1	0	1000.1	NA	0.0000		9999	2950	0	0	0
2019/11/26 06:35:00	BASE	0.41	235	6.58	1	1.3	100	1.3	1	0	1000.1	NA	0.0000		9999	2460	3020	0	0
2019/11/26 06:36:01	BASE	1.38	21	6.58	1	1.3	100	1.3	1	0	1000.1	NA	0.0000		9999	2260	2990	0	0
2019/11/26 06:37:00	BASE	2.88	29	6.79	24	1.4	100	1.4	1	0	1000.0	NA	0.0000		9999	2260	0	0	0
2019/11/26 06:38:01	BASE	2.10	14	6.79	24	1.7	100	1.7	1	0	1000.0	NA	0.0000		9999	2200	0	0	0
2019/11/26 06:39:00	BASE	0.87	9	6.79	24	1.9	100	1.9	1	0	1000.1	NA	0.0000		9999	2230	2990	0	0
2019/11/26 06:40:00	BASE	0.50	335	6.79	24	2.1	100	2.1	1	0	1000.1	NA	0.0000		9999	2400	3050	0	0
2019/11/26 06:41:00	BASE	0.20	222	6.79	24	2.2	100	2.2	1	0	1000.1	NA	0.0000		9999	2890	0	0	0
2019/11/26 06:42:00	BASE	0.85	182	6.79	24	2.1	100	2.1	1	0	1000.1	NA	0.0000		9999	2950	0	0	0
2019/11/26 06:43:00	BASE	0.75	168	6.79	24	2.0	100	2.0	2	0	1000.2	NA	0.0000		9999	2990	0	0	0
2019/11/26 06:44:00	BASE	1.48	58	6.79	24	1.9	100	1.9	2	0	1000.2	NA	0.0000		9999	3020	0	0	0
2019/11/26 06:45:00	BASE	2.94	8	6.79	24	2.0	100	2.0	2	0	1000.1	NA	0.0000		9999	3080	0	0	0
2019/11/26 06:46:00	BASE	3.39	2	6.79	24	2.0	100	2.0	2	0	1000.1	NA	0.0000		9999	3080	0	0	0
2019/11/26 06:47:00	BASE	3.90	351	6.58	354	2.1	100	2.1	2	0	1000.0	NA	0.0000		9999	3180	0	0	0
2019/11/26 06:48:00	BASE	3.56	341	6.58	354	2.2	100	2.2	2	0	1000.1	NA	0.0000		9999	3080	0	0	0
2019/11/26 06:49:00	BASE	3.86	349	6.58	354	2.3	100	2.3	2	0	1000.0	NA	0.0000		9999	3150	0	0	0
2019/11/26 06:50:00	BASE	4.34	351	6.58	354	2.3	100	2.3	2	0	1000.0	NA	0.0000		9999	3150	0	0	0
2019/11/26 06:51:01	BASE	4.43	358	6.58	354	2.3	100	2.3	2	0	1000.0	NA	0.0000		9999	3050	0	0	0
2019/11/26 06:52:00	BASE	4.41	358	6.58	354	2.4	100	2.4	2	0	1000.0	NA	0.0000		9999	2560	0	0	0
2019/11/26 06:53:00	BASE	4.17	353	6.58	354	2.4	100	2.4	2	0	1000.1	NA	0.0000		9999	3120	0	0	0
2019/11/26 06:54:00	BASE	4.13	352	6.58	354	2.5	100	2.5	2	0	1000.0	NA	0.0000		9999	3150	0	0	0
2019/11/26 06:55:00	BASE	4.60	348	6.58	354	2.5	100	2.5	2	0	1000.0	NA	0.0000		9999	3150	0	0	0
2019/11/26 06:56:00	BASE	4.72	347	6.58	354	2.5	100	2.5	3	0	1000.0	NA	0.0000		9999	3150	0	0	0
2019/11/26 06:57:00	BASE	3.31	334	6.53	13	2.5	100	2.5	3	0	1000.1	NA	0.0000		9999	3180	0	0	0
2019/11/26 06:58:00	BASE	2.41	323	6.53	13	2.5	100	2.5	3	0	1000.1	NA	0.0000		9999	3180	0	0	0
2019/11/26 06:59:00	BASE	2.25	331	6.53	13	2.5	100	2.4	3	0	1000.1	NA	0.0000		9999	3150	0	0	0
2019/11/26 07:00:00	BASE	3.56	9	6.53	13	2.4	100	2.4	3	0	1000.1	NA	0.0000		9999	3080	0	0	0
2019/11/26 07:01:01	BASE	3.93	11	6.53	13	2.4	100	2.4	3	0	1000.1	NA	0.0000		9999	2990	0	0	0
2019/11/26 07:02:01	BASE	2.61	354	6.48	1	2.4	99	2.3	3	0	1000.1	NA	0.0000		9999	3020	0	0	0
2019/11/26 07:03:01	BASE	2.16	358	6.48	1	2.4	99	2.3	3	0	1000.1	NA	0.0000		9999	3150	0	0	0
2019/11/26 07:04:00	BASE	2.68	1	6.48	1	2.4	100	2.3	3	0	1000.1	NA	0.0000		9999	3150	0	0	0
2019/11/26 07:05:01	BASE	2.76	2	6.33	337	2.4	100	2.3	3	0	1000.1	NA	0.0000		9999	3150	0	0	0
2019/11/26 07:06:01	BASE	2.18	35	5.66	37	2.3	100	2.3	3	0	1000.1	NA	0.0000		9999	3120	0	0	0
2019/11/26 07:07:00	BASE	1.93	71	5.66	37	2.3	100	2.2	3	0	1000.1	NA	0.0000		9999	3150	0	0	0
2019/11/26 07:08:00	BASE	1.72	55	5.66	37	2.3	100	2.2	3	0	1000.1	NA	0.0000		9999	3180	0	0	0
2019/11/26 07:09:00	BASE	1.22	47	5.66	37	2.2	100	2.2	4	0	1000.1	NA	0.0000		9999	3250	0	0	0
2019/11/26 07:10:00	BASE	1.68	41	5.09	5	2.2	100	2.2	4	0	1000.1	NA	0.0000		9999	3180	0	0	0
2019/11/26 07:11:00	BASE	1.95	45	4.48	14	2.1	100	2.1	4	0	1000.1	NA	0.0000		9999	3120	0	0	0
2019/11/26 07:12:00	BASE	1.01	44	4.48	14	2.2	100	2.2	4	0	1000.1	NA	0.0000		9999	3050	0	0	0
2019/11/26 07:13:00	BASE	1.08	66	4.48	14	2.2	100	2.2	4	0	1000.1	NA	0.0000		9999	3020	0	0	0
2019/11/26 07:14:00	BASE	1.88	113	4.48	14	2.2	100	2.2	4	0	1000.2	NA	0.0000		9999	3020	0	0	0
2019/11/26 07:15:00	BASE	2.43	121	3.91	56	2.1	100	2.1	4	0	1000.2	NA	0.0000		9999	3020	0	0	0
2019/11/26 07:16:00	BASE	2.54	112	3.91	56	2.1	100	2.1	4	0	1000.2	NA	0.0000		9999	2790	0	0	0
2019/11/26 07:17:00	BASE	2.41	113	3.91	56	2.0	100	2.0	4	0	1000.2	NA	0.0000		9999	2720	0	0	0
2019/11/26 07:18:00	BASE	2.25	127	3.91	56	1.9	100	1.9	4	0	1000.2	NA	0.0000		9999	2660	0	0	0
2019/11/26 07:19:00	BASE	3.05	135	4.84	123	1.8	100	1.8	4	0	1000.2	NA	0.0000		9999	2660	0	0	0
2019/11/26 07:20:00	BASE	3.79	128	4.84	123	1.8	100	1.8	4	0	1000.2	NA	0.0000		9999	2620	0	0	0
2019/11/26 07:21:00	BASE	3.67	119	4.84	123	1.7	100	1.7	5	0	1000.2	NA	0.0000		9999	2590	0	0	0
2019/11/26 07:22:00	BASE	3.66	114	4.84	123	1.6	100	1.6	5	0	1000.2	NA	0.0000		9999	2620	0	0	0
2019/11/26 07:23:00	BASE	3.58	109	4.84	123	1.5	100	1.5	5	0	1000.2	NA	0.0000		9999	2690	0	0	0
2019/11/26 07:24:00	BASE	3.38	105	4.84	123	1.4	100	1.4	5	0	1000.3	NA	0.0000		9999	2720	0	0	0
2019/11/26 07:25:00	BASE	3.13	106	4.84	123	1.4	100	1.4	5	0	1000.3	NA	0.0000		9999	2660	0	0	0
2019/11/26 07:26:00	BASE	2.58	112	4.84	123	1.4	100	1.4	5	0	1000.3	NA	0.0000		9999	2690	0	0	0
2019/11/26 07:27:00	BASE	2.07	117	4.84	123	1.4	100	1.4	5	0	1000.3	NA	0.0000		9999	2720	0	0	0
2019/11/26 07:28:00	BASE	1.19	128	4.84	123	1.4	100	1.4	5	0	1000.3	NA	0.0000		9999	2690	0	0	0
2019/11/26 07:29:00	BASE	1.84	122	4.48	127	1.4	100	1.4	5	0	1000.2	NA	0.0000		9999	2690	0	0	0
2019/11/26 07:30:00	BASE	2.68	111	4.22	117	1.4	100	1.4	5	0	1000.2	NA	0.0000		9999	2890	0	0	0
2019/11/26 07:31:00	BASE	2.01	123	4.22	117	1.5	100	1.5	5	0	1000.2	NA	0.0000		9999	2790	0	0	0
2019/11/26 07:32:00	BASE	2.12	130	4.22	117	1.4	100	1.4	5	0	1000.2	NA	0.0000		9999	2790	0	0	0
2019/11/26 07:33:00	BASE	2.22	115	4.22	117	1.4	100	1.4	5	0	1000.2	NA	0.0000		9999	2950	0	0	0
2019/11/26 07:34:00	BASE	2.61	67	4.22	33	1.5	100	1.5	6	0	1000.2	NA	0.0000		9999	2790	0	0	0
2019/11/26 07:35:00	BASE	2.90	30	4.37	32	1.7	100	1.7	6	0	1000.2	NA	0.0000		9999	2720	0	0	0
2019/11/26 07:36:00	BASE	2.54	26	4.37	32	1.9	100	1.9	6	0	1000.2	NA	0.0000		9999	2590	3180	0	0
2019/11/26 07:37:00	BASE	2.34	13	4.37	32	2.2	100	2.2	6	0	1000.2	NA	0.0000		9999	2720	0	0	0
2019/11/26 07:38:00	BASE	2.96	11	4.68	31	2.4	100	2.4	6	0	1000.1	NA	0.0000		9999	2950	0	0	0
2019/11/26 07:39:00	BASE	4.33	32	5.97	38	2.5	100	2.5	6	0	1000.1	NA	0.0000		9999	3020	0	0	0
2019/11/26 07:40:00	BASE	5.40	36	6.74	35	2.6	100	2.6	6	0	1000.1	NA	0.0000		9999	3180	0	0	0
2019/11/26 07:41:00	BASE	5.70	28	6.74	35	2.7	100	2.7	7	0	1000.1	NA	0.0000		9999	3180	0	0	0
2019/11/26 07:42:00	BASE	6.02	23	7.41	24	2.8	100	2.8	7	0	1000.0	NA	0.0000		9999	2690	3220	0	0
2019/11/26 07:43:00	BASE	6.82	24	8.08	24	2.9	100	2.9	6	0	1000.0	NA	0.0000		9999	2530	3350	0	0
2019/11/26 07:44:00	BASE	7.53	22	8.49	22	3.0	100	3.0	6	0	1000.0	NA	0.0000		9999	3220	0	0	0
2019/11/26 07:45:00	BASE	7.68	20	8.49	22	3.0	100	3.0	6	0	1000.0	NA	0.0000		9999	2460	0	0	0
2019/11/26 07:46:00	BASE	7.16	20	8.49	22	3.1	99	2.9	6	0	1000.1	NA	0.0000		9999	2430	0	0	0
2019/11/26 07:47:00	BASE	6.45	18	8.49	22	3.1	99	2.9	6	0	1000.1	NA	0.0000		9999	2400	0	0	0
2019/11/26 07:48:00	BASE	6.24	19	8.49	22	3.1	98	2.8	6	0	1000.1	NA	0.0000		9999	2400	0	0	0
2019/11/26 07:49:00	BASE	6.28	24	8.49	22	3.1	97	2.7	6	0	1000.1	NA	0.0000		9999	2430	3710	0	0
2019/11/26 07:50:00	BASE	5.21	29	8.49	22	3.2	97	2.7	6	0	1000.2	NA	0.0000		9999	2490	3510	0	0
2019/11/26 07:51:00	BASE	4.49	35	8.49	22	3.2	96	2.7	6	0	1000.1	NA	0.0000		9999	2460	3220	0	0
2019/11/26 07:52:00	BASE	4.65	31	8.49	22	3.3	96	2.7	6	0	1000.2	NA	0.0000		9999	2400	0	0	0
2019/11/26 07:53:00	BASE	4.07	20	8.49	22	3.3	95	2.6	6	0	1000.2	NA	0.0000		9999	2400	0	0	0
2019/11/26 07:54:00	BASE	4.74	15	8.08	16	3.3	95	2.5	6	0	1000.1	NA	0.0000		9999	2430	0	0	0
2019/11/26 07:55:00	BASE	5.38	20	7.61	15	3.3	94	2.5	7	0	1000.1	NA	0.0000		9999	2400	0	0	0
2019/11/26 07:56:00	BASE	4.72	26	7.61	15	3.3	94	2.4	7	0	1000.1	NA	0.0000		9999	2460	0	0	0
2019/11/26 07:57:00	BASE	4.65	25	7.61	15	3.3	94	2.4	7	0	1000.1	NA	0.0000		9999	2590	3350	0	0
2019/11/26 07:58:00	BASE	5.27	21	7.61	15	3.3	94	2.4	7	0	1000.0	NA	0.0000		9999	2620	3380	0	0
2019/11/26 07:59:00	BASE	6.52	21	8.49	25	3.3	93	2.4	7	0	1000.0	NA	0.0000		9999	2660	3450	0	0
2019/11/26 08:00:00	BASE	6.56	19	8.49	25	3.3	93	2.3	7	0	1000.0	NA	0.0000		9999	2720	0	0	0
2019/11/26 08:01:00	BASE	5.69	13	8.49	25	3.2	93	2.2	7	0	1000.0	NA	0.0000		9999	2720	0	0	0
2019/11/26 08:02:00	BASE	5.54	3	8.49	25	3.2	93	2.1	8	0	1000.0	NA	0.0000		9999	2660	0	0	0
2019/11/26 08:03:00	BASE	5.62	348	8.49	25	3.1	93	2.0	8	0	1000.0	NA	0.0000		9999	2720	0	0	0
2019/11/26 08:04:00	BASE	4.92	324	8.49	25	2.9	93	1.9	9	0	1000.1	NA	0.0000		9999	2950	0	0	0
2019/11/26 08:05:00	BASE	3.26	312	8.49	25	2.7	93	1.7	9	0	1000.2	NA	0.0000		9999	2920	0	0	0
2019/11/26 08:06:00	BASE	2.31	337	8.49	25	2.4	94	1.5	9	0	1000.2	NA	0.0000		9999	2920	0	0	0
2019/11/26 08:07:00	BASE	3.05	2	8.49	25	2.2	95	1.5	9	0	1000.1	NA	0.0000		9999	3020	0	0	0
2019/11/26 08:08:00	BASE	3.47	14	8.49	25	2.2	96	1.6	9	0	1000.1	NA	0.0000		9999	2760	0	0	0
2019/11/26 08:09:00	BASE	3.27	24	7.36	3	2.3	97	1.8	9	0	1000.1	NA	0.0000		9999	2820	0	0	0
2019/11/26 08:10:00	BASE	4.23	26	7.36	3	2.4	98	2.1	9	0	1000.1	NA	0.0000		9999	2890	0	0	0
2019/11/26 08:11:00	BASE	5.13	29	7.36	3	2.7	98	2.5	10	0	1000.1	NA	0.0000		9999	2820	0	0	0
2019/11/26 08:12:00	BASE	4.63	32	6.53	353	2.9	98	2.6	10	0	1000.1	NA	0.0000		9999	2920	0	0	0
2019/11/26 08:13:00	BASE	4.30	28	6.02	39	3.0	97	2.6	10	0	1000.1	NA	0.0000		9999	3080	0	0	0
2019/11/26 08:14:00	BASE	4.68	26	6.17	32	3.1	97	2.6	11	0	1000.1	NA	0.0000		9999	3180	0	0	0
2019/11/26 08:15:00	BASE	4.94	30	6.58	30	3.1	96	2.5	11	0	1000.0	NA	0.0000		9999	3180	0	0	0
2019/11/26 08:16:00	BASE	5.17	33	6.69	37	3.2	95	2.5	11	0	1000.0	NA	0.0000		9999	3280	0	0	0
2019/11/26 08:17:00	BASE	5.60	29	6.89	22	3.2	94	2.4	11	0	1000.0	NA	0.0000		9999	3380	0	0	0
2019/11/26 08:18:00	BASE	5.90	25	6.89	22	3.2	94	2.3	12	0	1000.0	NA	0.0000		9999	3640	0	0	0
2019/11/26 08:19:00	BASE	6.37	26	7.77	23	3.2	93	2.2	12	0	999.9	NA	0.0000		9999	3610	0	0	0
2019/11/26 08:20:00	BASE	6.57	28	7.77	23	3.2	93	2.2	12	0	999.9	NA	0.0000		9999	3770	0	0	0
2019/11/26 08:21:00	BASE	5.97	28	7.77	23	3.3	93	2.2	13	0	999.9	NA	0.0000		9999	3770	0	0	0
2019/11/26 08:22:00	BASE	5.88	28	7.77	23	3.3	93	2.2	13	0	999.9	NA	0.0000		9999	3810	0	0	0
2019/11/26 08:23:00	BASE	6.53	29	8.28	23	3.3	92	2.2	13	0	999.9	NA	0.0000		9999	3870	0	0	0
2019/11/26 08:24:00	BASE	6.90	27	8.28	23	3.3	92	2.2	13	0	999.9	NA	0.0000		9999	3810	0	0	0
2019/11/26 08:25:00	BASE	6.72	26	8.28	23	3.4	92	2.1	13	0	999.8	NA	0.0000		9999	3770	0	0	0
2019/11/26 08:26:00	BASE	6.74	26	8.28	23	3.3	91	2.1	13	0	999.8	NA	0.0000		9999	3770	0	0	0
2019/11/26 08:27:00	BASE	6.73	27	8.28	23	3.3	91	2.0	14	0	999.8	NA	0.0000		9999	3770	0	0	0
2019/11/26 08:28:00	BASE	6.76	26	8.28	23	3.3	91	2.0	14	0	999.8	NA	0.0000		9999	3770	0	0	0
2019/11/26 08:29:00	BASE	6.79	24	8.28	23	3.3	91	2.0	14	0	999.8	NA	0.0000		9999	3810	0	0	0
2019/11/26 08:30:00	BASE	6.48	25	8.28	23	3.3	91	2.0	14	0	999.8	NA	0.0000		9999	3770	0	0	0
2019/11/26 08:31:00	BASE	6.14	26	8.28	23	3.3	91	2.0	15	0	999.8	NA	0.0000		9999	3740	0	0	0
2019/11/26 08:32:00	BASE	6.40	25	8.28	23	3.3	91	2.0	15	0	999.7	NA	0.0000		9999	3770	0	0	0
2019/11/26 08:33:00	BASE	6.96	25	7.97	24	3.4	91	2.0	16	0	999.7	NA	0.0000		9999	3770	0	0	0
2019/11/26 08:34:00	BASE	6.57	27	7.56	24	3.3	91	2.0	16	0	999.7	NA	0.0000		9999	3840	0	0	0
2019/11/26 08:35:00	BASE	6.33	27	7.51	25	3.3	90	1.9	17	0	999.7	NA	0.0000		9999	3840	0	0	0
2019/11/26 08:36:00	BASE	6.67	25	7.51	25	3.3	91	2.0	17	0	999.7	NA	0.0000		9999	4040	0	0	0
2019/11/26 08:37:00	BASE	6.89	24	7.51	25	3.3	90	1.9	18	0	999.7	NA	0.0000		9999	4000	0	0	0
2019/11/26 08:38:00	BASE	6.92	24	7.51	25	3.3	90	1.9	19	0	999.7	NA	0.0000		9999	4070	0	0	0
2019/11/26 08:39:00	BASE	6.71	23	7.51	25	3.3	90	1.9	19	0	999.7	NA	0.0000		9999	4040	0	0	0
2019/11/26 08:40:00	BASE	6.62	23	7.51	25	3.4	90	1.9	20	0	999.7	NA	0.0000		9999	4070	0	0	0
2019/11/26 08:41:00	BASE	6.64	22	7.51	25	3.3	90	1.8	21	0	999.7	NA	0.0000		9999	4100	0	0	0
2019/11/26 08:42:00	BASE	6.68	21	7.51	25	3.4	90	1.8	21	0	999.8	NA	0.0000		9999	4330	0	0	0
2019/11/26 08:43:00	BASE	6.68	21	7.51	25	3.4	90	1.8	22	0	999.8	NA	0.0000		9999	4270	0	0	0
2019/11/26 08:44:00	BASE	6.63	20	7.51	25	3.4	89	1.8	22	0	999.8	NA	0.0000		9999	4270	4760	0	0
2019/11/26 08:45:00	BASE	6.54	19	7.51	25	3.4	89	1.8	23	0	999.8	NA	0.0000		9999	4230	0	0	0
2019/11/26 08:46:00	BASE	6.35	19	7.51	25	3.5	89	1.8	23	0	999.8	NA	0.0000		9999	4130	0	0	0
2019/11/26 08:47:00	BASE	5.97	19	7.41	24	3.5	89	1.8	23	0	999.8	NA	0.0000		9999	4100	0	0	0
2019/11/26 08:48:00	BASE	5.69	18	7.25	20	3.5	88	1.8	24	0	999.8	NA	0.0000		9999	4130	0	0	0
2019/11/26 08:49:00	BASE	6.04	17	7.25	20	3.5	88	1.7	24	0	999.8	NA	0.0000		9999	4200	0	0	0
2019/11/26 08:50:00	BASE	6.20	16	7.25	20	3.4	88	1.6	24	0	999.8	NA	0.0000		9999	4330	0	0	0
2019/11/26 08:51:00	BASE	6.05	17	7.25	20	3.4	88	1.6	25	0	999.8	NA	0.0000		9999	4000	0	0	0
2019/11/26 08:52:00	BASE	6.16	18	7.25	20	3.4	88	1.6	25	0	999.8	NA	0.0000		9999	3940	0	0	0
2019/11/26 08:53:00	BASE	6.28	18	7.25	20	3.4	88	1.6	25	0	999.8	NA	0.0000		9999	4400	0	0	0
2019/11/26 08:54:00	BASE	5.80	17	7.10	13	3.4	88	1.7	25	0	999.8	NA	0.0000		9999	4400	0	0	0
2019/11/26 08:55:00	BASE	5.32	16	7.10	13	3.5	88	1.7	25	0	999.8	NA	0.0000		9999	4330	0	0	0
2019/11/26 08:56:00	BASE	5.21	13	7.10	13	3.5	88	1.8	26	0	999.8	NA	0.0000		9999	4270	0	0	0
2019/11/26 08:57:00	BASE	4.64	8	7.10	13	3.5	88	1.7	26	0	999.9	NA	0.0000		9999	4230	0	0	0
2019/11/26 08:58:00	BASE	3.99	0	7.10	13	3.5	87	1.6	26	0	999.8	NA	0.0000		9999	4230	0	0	0
2019/11/26 08:59:00	BASE	2.97	353	6.94	19	3.4	87	1.4	25	0	999.8	NA	0.0000		9999	4230	0	0	0
2019/11/26 09:00:00	BASE	2.38	352	6.94	19	3.2	87	1.3	26	0	999.9	NA	0.0000		9999	4200	0	0	0
2019/11/26 09:01:00	BASE	2.44	346	6.94	19	3.1	88	1.2	26	0	999.9	NA	0.0000		9999	4200	0	0	0
2019/11/26 09:02:00	BASE	1.94	327	6.69	20	2.9	88	1.2	26	0	999.9	NA	0.0000		9999	4170	0	0	0
2019/11/26 09:03:00	BASE	1.31	295	5.97	27	2.7	89	1.1	27	0	999.9	NA	0.0000		9999	3510	0	0	0
2019/11/26 09:04:00	BASE	0.54	258	5.86	9	2.5	90	1.0	28	0	999.9	NA	0.0000		9999	3450	0	0	0
2019/11/26 09:05:00	BASE	0.05	239	5.61	10	2.3	91	0.9	28	0	999.9	NA	0.0000		9999	4070	0	0	0
2019/11/26 09:06:00	BASE	0.00	222	4.89	7	2.0	92	0.8	29	0	999.9	NA	0.0000		9999	3480	4170	0	0
2019/11/26 09:07:00	BASE	0.24	208	4.42	353	1.9	93	0.8	29	0	999.9	NA	0.0000		9999	1380	0	0	0
2019/11/26 09:08:00	BASE	0.79	212	3.19	2	1.7	94	0.8	29	0	999.9	NA	0.0000		9999	1640	0	0	0
2019/11/26 09:09:00	BASE	1.31	212	3.14	348	1.6	95	0.9	31	0	999.9	NA	0.0000		9999	1840	0	0	0
2019/11/26 09:10:00	BASE	1.64	210	3.09	336	1.5	96	1.0	33	0	999.9	NA	0.0000		9999	1710	3870	0	0
2019/11/26 09:11:00	BASE	1.50	218	2.16	274	1.5	97	1.0	34	0	999.9	NA	0.0000		9999	1410	3940	0	0
2019/11/26 09:12:00	BASE	1.36	216	2.06	228	1.4	98	1.1	35	0	999.9	NA	0.0000		9999	1570	2330	0	0
2019/11/26 09:13:00	BASE	1.48	193	2.06	228	1.4	98	1.2	36	0	999.9	NA	0.0000		9999	1710	3870	0	0
2019/11/26 09:14:00	BASE	1.58	184	2.06	228	1.4	99	1.3	38	0	999.9	NA	0.0000		9999	1440	3180	0	0
2019/11/26 09:15:00	BASE	1.71	188	2.06	228	1.4	99	1.3	39	0	999.9	NA	0.0000		9999	1540	3350	0	0
2019/11/26 09:16:00	BASE	1.98	176	3.40	175	1.4	100	1.4	40	0	999.9	NA	0.0000		9000	1250	0	0	0
2019/11/26 09:17:00	BASE	2.56	167	3.40	175	1.3	100	1.3	41	0	999.9	NA	0.0000		9999	2820	0	0	0
2019/11/26 09:18:00	BASE	2.51	165	3.40	175	1.3	100	1.3	41	0	999.9	NA	0.0000		9999	2030	4300	0	0
2019/11/26 09:19:00	BASE	1.87	167	3.40	175	1.2	100	1.2	43	0	999.9	NA	0.0000		9999	0	0	0	4360
2019/11/26 09:20:00	BASE	1.85	167	3.40	175	1.1	100	1.1	44	0	999.9	NA	0.0000		8000	1440	3310	0	0
2019/11/26 09:21:00	BASE	1.76	170	3.40	175	1.1	100	1.1	46	0	999.9	NA	0.0000		8000	1180	0	0	0
2019/11/26 09:22:00	BASE	1.01	175	3.40	175	1.0	100	1.0	48	0	999.9	NA	0.0000	BR	6000	0	0	0	4330
2019/11/26 09:23:00	BASE	0.66	185	3.40	175	1.1	100	1.1	48	0	999.9	NA	0.0000	BR	6000	0	0	0	4270
2019/11/26 09:24:00	BASE	0.38	202	3.40	175	1.1	100	1.1	48	0	999.9	NA	0.0000	BR	6000	1870	0	0	0
2019/11/26 09:25:00	BASE	0.12	189	3.40	175	1.1	100	1.1	48	0	999.9	NA	0.0000	BR	8000	3350	4100	0	0
2019/11/26 09:26:00	BASE	0.33	179	3.34	172	1.1	100	1.1	49	0	999.9	NA	0.0000	BR	7000	3120	0	0	0
2019/11/26 09:27:00	BASE	0.25	193	2.98	167	1.1	100	1.1	50	0	999.9	NA	0.0000	BR	7000	790	0	0	0
2019/11/26 09:28:00	BASE	0.77	190	2.47	165	1.1	100	1.1	50	0	999.9	NA	0.0000	BR	8000	1480	0	0	0
2019/11/26 09:29:00	BASE	0.97	155	2.47	165	1.1	100	1.1	52	0	999.8	NA	0.0000	BR	9000	1840	0	0	0
2019/11/26 09:30:00	BASE	0.25	91	1.85	191	1.2	100	1.2	52	0	999.9	NA	0.0000	BR	9999	3020	0	0	0
2019/11/26 09:31:00	BASE	0.39	40	1.65	1	1.2	100	1.2	53	0	999.9	NA	0.0000	BR	9999	920	23300	0	0
2019/11/26 09:32:00	BASE	0.55	38	1.65	1	1.4	100	1.4	52	0	999.8	NA	0.0000	BR	9999	620	0	0	0
2019/11/26 09:33:00	BASE	0.36	56	1.65	1	1.6	100	1.6	50	0	999.8	NA	0.0000	BR	9999	660	0	0	0
2019/11/26 09:34:00	BASE	0.25	348	1.65	1	1.9	100	1.9	45	0	999.8	NA	0.0000	BR	9999	460	0	0	0
2019/11/26 09:35:00	BASE	0.38	284	1.65	1	2.1	100	2.1	44	0	999.8	NA	0.0000		9999	2530	0	0	0
2019/11/26 09:36:00	BASE	0.94	256	2.11	265	2.3	100	2.3	48	0	999.9	NA	0.0000		9999	2490	0	0	0
2019/11/26 09:37:00	BASE	1.17	261	2.57	280	2.4	100	2.3	53	0	999.9	NA	0.0000		9999	560	0	0	0
2019/11/26 09:38:00	BASE	0.81	246	2.57	280	2.4	99	2.3	56	0	999.9	NA	0.0000		9999	2590	3180	0	0
2019/11/26 09:39:00	BASE	1.28	216	2.62	199	2.3	99	2.2	57	0	999.9	NA	0.0000		9999	620	0	0	0
2019/11/26 09:40:00	BASE	2.39	192	3.60	177	2.2	99	2.0	56	0	999.9	NA	0.0000		9999	520	0	0	0
2019/11/26 09:41:00	BASE	2.59	175	3.60	177	2.1	98	1.8	57	0	999.9	NA	0.0000		8000	2360	2890	0	0
2019/11/26 09:42:00	BASE	2.51	165	3.81	152	2.0	98	1.7	59	0	999.9	NA	0.0000		7000	2030	0	0	0
2019/11/26 09:43:00	BASE	3.46	160	4.94	164	1.9	98	1.6	61	0	999.9	NA	0.0000		9000	3020	0	0	0
2019/11/26 09:44:00	BASE	3.86	156	4.94	164	1.7	98	1.5	60	0	999.9	NA	0.0000	BR	9000	2690	0	0	0
2019/11/26 09:45:01	BASE	3.45	145	4.94	164	1.6	99	1.4	61	0	999.9	NA	0.0000	BR	9999	2920	0	0	0
2019/11/26 09:46:00	BASE	3.89	138	4.94	164	1.6	99	1.4	60	0	999.9	NA	0.0000	BR	9999	2620	0	0	0
2019/11/26 09:47:00	BASE	4.32	137	4.99	128	1.5	100	1.5	61	0	999.8	NA	0.0000	BR	9999	690	0	0	0
2019/11/26 09:48:00	BASE	4.07	145	4.99	128	1.5	100	1.5	62	0	999.9	NA	0.0000	BR	9999	2790	0	0	0
2019/11/26 09:49:00	BASE	3.53	154	4.99	128	1.6	100	1.6	62	0	999.9	NA	0.0000	BR	9999	2560	0	0	0
2019/11/26 09:50:00	BASE	4.03	152	4.99	147	1.6	100	1.6	60	0	999.8	NA	0.0000	BR	9999	2300	2920	0	0
2019/11/26 09:51:00	BASE	5.07	150	5.86	145	1.5	100	1.5	59	0	999.8	NA	0.0000		9999	660	0	0	0
2019/11/26 09:52:00	BASE	5.00	151	5.86	145	1.4	100	1.4	57	0	999.8	NA	0.0000		9999	620	0	0	0
2019/11/26 09:53:00	BASE	4.12	135	5.86	145	1.4	100	1.4	54	0	999.9	NA	0.0000		9999	2100	0	0	0
2019/11/26 09:54:00	BASE	4.10	118	5.86	145	1.4	100	1.4	52	0	999.8	NA	0.0000		9999	2400	0	0	0
2019/11/26 09:55:00	BASE	4.35	114	5.86	145	1.5	100	1.5	51	0	999.8	NA	0.0000		8000	750	0	0	0
2019/11/26 09:56:00	BASE	4.74	116	6.02	125	1.6	100	1.6	50	0	999.8	NA	0.0000		8000	2590	0	0	0
2019/11/26 09:57:00	BASE	4.94	119	6.02	125	1.8	100	1.8	51	0	999.8	NA	0.0000		9000	620	0	0	0
2019/11/26 09:58:00	BASE	4.30	120	6.02	125	1.9	100	1.9	51	0	999.8	NA	0.0000		9000	2660	0	0	0
2019/11/26 09:59:00	BASE	4.37	121	6.02	125	2.0	100	2.0	53	0	999.8	NA	0.0000		9999	1410	0	0	0
2019/11/26 10:00:00	BASE	4.68	120	6.02	125	2.0	100	2.0	55	0	999.8	NA	0.0000		9999	790	0	0	0
2019/11/26 10:01:00	BASE	4.61	118	6.02	125	2.1	100	2.1	56	0	999.8	NA	0.0000	BR	7000	660	0	0	0
2019/11/26 10:02:00	BASE	4.68	120	6.02	125	2.1	100	2.1	56	0	999.8	NA	0.0000	BR	7000	520	0	0	0
2019/11/26 10:03:00	BASE	4.71	124	6.02	125	2.2	100	2.2	56	0	999.8	NA	0.0000	BR	7000	490	0	0	0
2019/11/26 10:04:00	BASE	4.61	129	6.02	125	2.1	100	2.1	58	0	999.8	NA	0.0000	BR	5000	560	0	0	0
2019/11/26 10:05:00	BASE	4.74	139	6.02	125	2.0	100	2.0	60	0	999.8	NA	0.0000	BR	5000	2490	0	0	0
2019/11/26 10:06:00	BASE	4.84	147	5.45	116	1.9	100	1.9	62	0	999.8	NA	0.0000	BR	6000	2590	0	0	0
2019/11/26 10:07:00	BASE	4.52	151	5.45	116	1.7	100	1.7	63	0	999.8	NA	0.0000	BR	8000	2590	0	0	0
2019/11/26 10:08:00	BASE	4.81	148	5.81	148	1.4	100	1.4	64	0	999.8	NA	0.0000	BR	8000	2400	0	0	0
2019/11/26 10:09:00	BASE	5.32	144	5.81	144	1.2	100	1.2	66	0	999.7	NA	0.0000	BR	8000	2170	0	0	0
2019/11/26 10:10:00	BASE	5.23	144	5.81	144	1.0	100	1.0	68	0	999.7	NA	0.0000	BR	8000	2330	0	0	0
2019/11/26 10:11:00	BASE	5.20	145	5.81	144	0.9	100	0.9	71	0	999.7	NA	0.0000	BR	7000	2460	0	0	0
2019/11/26 10:12:00	BASE	5.15	143	5.81	144	0.8	100	0.8	72	0	999.7	NA	0.0000	BR	7000	2460	0	0	0
2019/11/26 10:13:00	BASE	5.30	137	6.02	132	0.8	100	0.8	73	0	999.7	NA	0.0000	BR	8000	2400	0	0	0
2019/11/26 10:14:00	BASE	5.47	129	6.28	122	0.8	100	0.8	74	0	999.7	NA	0.0000	BR	6000	2460	0	0	0
2019/11/26 10:15:00	BASE	5.43	125	6.28	122	0.9	100	0.9	77	0	999.7	NA	0.0000	BR	5000	2430	0	0	0
2019/11/26 10:16:00	BASE	5.17	126	6.28	122	1.0	100	1.0	81	0	999.7	NA	0.0000	BR	4200	2460	0	0	0
2019/11/26 10:17:00	BASE	5.15	124	6.28	131	1.1	100	1.1	85	0	999.7	NA	0.0000	BR	3700	2590	0	0	0
2019/11/26 10:18:00	BASE	6.01	126	7.25	127	1.1	100	1.1	87	0	999.7	NA	0.0000	BR	3300	2590	0	0	0
2019/11/26 10:19:00	BASE	6.54	130	7.25	127	1.1	100	1.1	88	0	999.7	NA	0.0000	BR	2700	820	0	0	0
2019/11/26 10:20:00	BASE	6.48	127	7.25	127	1.0	100	1.0	88	0	999.6	NA	0.0000	BR	2300	620	0	0	0
2019/11/26 10:21:00	BASE	6.39	125	7.25	127	0.9	100	0.9	88	0	999.7	NA	0.0000	BR	2000	2790	0	0	0
2019/11/26 10:22:00	BASE	6.19	123	7.25	127	0.8	100	0.8	87	0	999.7	NA	0.0000	BR	1900	2720	0	0	0
2019/11/26 10:23:00	BASE	6.50	122	7.51	128	0.8	100	0.8	88	0	999.6	NA	0.0000	BR	2200	2720	0	0	0
2019/11/26 10:24:00	BASE	6.60	123	7.51	128	0.7	100	0.7	88	0	999.7	NA	0.0000	BR	2200	2790	0	0	0
2019/11/26 10:25:00	BASE	6.50	122	7.51	128	0.8	100	0.8	90	0	999.7	NA	0.0000	BR	2100	2760	0	0	0
2019/11/26 10:26:00	BASE	6.66	120	7.51	128	0.8	100	0.8	92	0	999.7	NA	0.0000	BR	2100	2820	0	0	0
2019/11/26 10:27:00	BASE	6.34	121	7.51	128	0.8	100	0.8	96	0	999.6	NA	0.0000	BR	2200	2820	0	0	0
2019/11/26 10:28:00	BASE	5.93	122	7.51	128	0.8	100	0.8	99	0	999.6	NA	0.0000	BR	2700	2790	0	0	0
2019/11/26 10:29:00	BASE	5.98	123	7.72	124	0.9	100	0.9	102	0	999.6	NA	0.0000	BR	3200	2850	0	0	0
2019/11/26 10:30:00	BASE	6.43	123	7.72	124	0.8	100	0.8	109	0	999.6	NA	0.0000	BR	3800	3020	0	0	0
2019/11/26 10:31:00	BASE	6.90	122	7.82	120	0.8	100	0.8	117	0	999.6	NA	0.0000	BR	4000	3020	0	0	0
2019/11/26 10:32:00	BASE	6.67	122	7.82	120	0.8	100	0.8	119	0	999.6	NA	0.0000	BR	4700	3050	0	0	0
2019/11/26 10:33:00	BASE	6.30	121	7.82	120	0.8	100	0.8	116	0	999.6	NA	0.0000	BR	5000	2890	18930	22180	0
2019/11/26 10:34:00	BASE	6.35	120	7.82	120	0.8	100	0.8	115	0	999.6	NA	0.0000	BR	6000	2950	0	0	0
2019/11/26 10:35:00	BASE	6.20	121	7.82	120	0.8	100	0.8	122	0	999.6	NA	0.0000	BR	7000	2890	0	0	0
2019/11/26 10:36:00	BASE	6.02	121	7.82	120	0.8	100	0.8	126	0	999.6	NA	0.0000	BR	8000	2890	0	0	0
2019/11/26 10:37:00	BASE	5.94	120	7.82	120	0.8	100	0.8	128	0	999.6	NA	0.0000	BR	9999	2790	0	0	0
2019/11/26 10:38:00	BASE	5.74	121	7.82	120	0.8	100	0.8	129	0	999.6	NA	0.0000	BR	9000	2170	4720	0	0
2019/11/26 10:39:00	BASE	5.47	125	7.82	120	0.8	100	0.8	124	0	999.6	NA	0.0000	BR	9000	2360	3020	0	0
2019/11/26 10:40:00	BASE	5.90	129	7.82	120	0.8	100	0.8	120	0	999.6	NA	0.0000	BR	9000	2170	3510	0	0
2019/11/26 10:41:00	BASE	6.39	132	7.00	126	0.8	100	0.8	118	0	999.6	NA	0.0000	BR	9999	2100	0	0	0
2019/11/26 10:42:00	BASE	5.97	132	7.00	126	0.7	100	0.7	117	0	999.6	NA	0.0000	BR	9999	2070	0	0	0
2019/11/26 10:43:00	BASE	5.68	133	6.94	135	0.6	100	0.6	116	0	999.6	NA	0.0000	BR	9999	2170	0	0	0
2019/11/26 10:44:00	BASE	5.52	135	6.94	135	0.6	100	0.6	117	0	999.7	NA	0.0000	BR	9999	2260	3350	0	0
2019/11/26 10:45:00	BASE	5.59	135	6.94	135	0.5	100	0.5	116	0	999.7	NA	0.0000	BR	9999	2230	3310	0	0
2019/11/26 10:46:00	BASE	5.57	134	6.94	135	0.5	100	0.5	112	0	999.7	NA	0.0000		9999	2230	3250	0	0
2019/11/26 10:47:00	BASE	5.14	131	6.94	135	0.5	100	0.5	112	0	999.7	NA	0.0000		9999	2230	3350	0	0
2019/11/26 10:48:00	BASE	5.28	131	6.94	135	0.5	100	0.5	111	0	999.6	NA	0.0000		9000	2170	0	0	0
2019/11/26 10:49:00	BASE	5.47	132	6.94	135	0.5	100	0.5	111	0	999.6	NA	0.0000		9999	2200	0	0	0
2019/11/26 10:50:00	BASE	5.26	133	6.64	129	0.5	100	0.5	114	0	999.6	NA	0.0000		9999	2170	0	0	0
2019/11/26 10:51:00	BASE	4.87	135	6.43	135	0.5	100	0.5	118	0	999.5	NA	0.0000		9999	2230	0	0	0
2019/11/26 10:52:00	BASE	4.38	136	6.12	136	0.5	100	0.5	120	0	999.6	NA	0.0000		9999	2300	3410	0	0
2019/11/26 10:53:00	BASE	3.97	141	6.12	136	0.5	100	0.5	122	0	999.7	NA	0.0000		9999	2330	0	0	0
2019/11/26 10:54:00	BASE	4.17	143	6.12	136	0.6	100	0.6	122	0	999.7	NA	0.0000		9999	2230	3180	0	0
2019/11/26 10:55:00	BASE	4.52	135	5.86	134	0.6	100	0.6	123	0	999.6	NA	0.0000		9999	2260	2890	0	0
2019/11/26 10:56:00	BASE	4.46	127	5.86	134	0.7	100	0.7	122	0	999.6	NA	0.0000		9999	3050	3580	0	0
2019/11/26 10:57:00	BASE	4.35	124	5.86	134	0.8	100	0.8	122	0	999.6	NA	0.0000		9999	2170	3310	0	0
2019/11/26 10:58:00	BASE	4.90	126	5.76	128	0.8	100	0.8	120	0	999.6	NA	0.0000		9999	2620	0	0	0
2019/11/26 10:59:00	BASE	5.32	130	5.76	128	0.8	100	0.8	119	0	999.6	NA	0.0000		9999	2300	0	0	0
2019/11/26 11:00:00	BASE	4.93	134	5.76	128	0.8	100	0.8	117	0	999.6	NA	0.0000		9999	2130	0	0	0
2019/11/26 11:01:00	BASE	4.25	138	5.76	128	0.8	100	0.8	115	0	999.6	NA	0.0000		9999	2100	0	0	0
2019/11/26 11:02:00	BASE	3.50	139	5.76	128	0.8	100	0.8	113	0	999.6	NA	0.0000		9999	2260	0	0	0
2019/11/26 11:03:00	BASE	3.58	138	5.76	128	0.7	100	0.7	107	0	999.6	NA	0.0000		9999	2170	0	0	0
2019/11/26 11:04:00	BASE	4.05	135	5.76	128	0.7	100	0.7	103	0	999.5	NA	0.0000		9999	2300	0	0	0
2019/11/26 11:05:00	BASE	3.98	136	5.76	128	0.6	100	0.6	102	0	999.5	NA	0.0000		9999	2070	0	0	0
2019/11/26 11:06:00	BASE	4.13	142	5.76	128	0.6	100	0.6	103	0	999.5	NA	0.0000		9999	2490	0	0	0
2019/11/26 11:07:00	BASE	4.45	141	5.76	128	0.6	100	0.6	103	0	999.5	NA	0.0000		9999	2790	0	0	0
2019/11/26 11:08:00	BASE	4.40	136	5.56	133	0.6	100	0.6	103	0	999.5	NA	0.0000		9999	2130	0	0	0
2019/11/26 11:09:00	BASE	4.13	133	4.99	134	0.6	100	0.6	103	0	999.5	NA	0.0000		9999	2170	0	0	0
2019/11/26 11:10:00	BASE	3.88	134	4.84	140	0.6	100	0.6	102	0	999.4	NA	0.0000		9999	2260	2950	0	0
2019/11/26 11:11:00	BASE	3.71	132	4.84	140	0.6	100	0.6	102	0	999.5	NA	0.0000		9999	2330	0	0	0
2019/11/26 11:12:00	BASE	3.49	132	4.84	140	0.6	100	0.6	102	0	999.5	NA	0.0000		9999	1280	0	0	0
2019/11/26 11:13:00	BASE	3.40	135	4.84	140	0.6	100	0.6	100	0	999.4	NA	0.0000		9999	1250	0	0	0
2019/11/26 11:14:00	BASE	3.67	136	4.84	140	0.7	100	0.7	100	0	999.5	NA	0.0000		9999	1180	0	0	0
2019/11/26 11:15:00	BASE	3.93	133	4.84	140	0.7	100	0.7	102	0	999.3	NA	0.0000		9999	2200	0	0	0
2019/11/26 11:16:00	BASE	3.67	130	4.84	140	0.7	100	0.7	105	0	999.4	NA	0.0000		9999	2070	0	0	0
2019/11/26 11:17:00	BASE	3.27	128	4.58	130	0.7	100	0.7	108	0	999.5	NA	0.0000		9999	1900	0	0	0
2019/11/26 11:18:00	BASE	3.33	126	4.53	136	0.7	100	0.7	111	0	999.4	NA	0.0000		9999	1610	0	0	0
2019/11/26 11:19:00	BASE	3.37	125	4.53	136	0.7	100	0.7	117	0	999.5	NA	0.0000		9999	1480	0	0	0
2019/11/26 11:20:00	BASE	3.26	126	4.53	136	0.7	100	0.7	124	0	999.4	NA	0.0000		9999	1350	0	0	0
2019/11/26 11:21:00	BASE	3.08	128	4.53	136	0.7	100	0.7	127	0	999.4	NA	0.0000		9999	2460	2990	0	0
2019/11/26 11:22:00	BASE	2.70	130	4.53	136	0.7	100	0.7	128	0	999.3	NA	0.0000		9999	890	0	0	0
2019/11/26 11:23:00	BASE	2.61	135	4.53	136	0.7	100	0.7	129	0	999.3	NA	0.0000		9999	1020	0	0	0
2019/11/26 11:24:00	BASE	2.81	140	4.37	129	0.7	100	0.7	130	0	999.4	NA	0.0000		9999	1670	2360	0	0
2019/11/26 11:25:00	BASE	3.05	142	3.86	122	0.7	100	0.7	131	0	999.4	NA	0.0000		9999	1670	0	0	0
2019/11/26 11:26:00	BASE	3.01	141	3.86	122	0.7	100	0.7	134	0	999.4	NA	0.0000		9999	1970	2560	0	0
2019/11/26 11:27:00	BASE	2.87	140	3.86	122	0.6	100	0.6	136	0	999.4	NA	0.0000		9999	1350	0	0	0
2019/11/26 11:28:00	BASE	3.04	138	3.65	133	0.6	100	0.6	135	0	999.4	NA	0.0000		9999	2530	0	0	0
2019/11/26 11:29:00	BASE	3.04	133	3.55	132	0.6	100	0.6	131	0	999.4	NA	0.0000		9999	890	0	0	0
2019/11/26 11:30:00	BASE	2.71	130	3.45	142	0.6	100	0.6	128	0	999.4	NA	0.0000		9999	2100	0	0	0
2019/11/26 11:31:00	BASE	2.35	129	3.45	142	0.6	100	0.6	127	0	999.4	NA	0.0000		9999	2100	3250	0	0
2019/11/26 11:32:00	BASE	2.26	128	3.45	142	0.6	100	0.6	127	0	999.4	NA	0.0000		9999	1970	3280	0	0
2019/11/26 11:33:00	BASE	2.09	132	3.45	142	0.7	100	0.7	127	0	999.4	NA	0.0000		9999	1970	2950	0	0
2019/11/26 11:34:00	BASE	2.24	136	3.45	142	0.7	100	0.7	125	0	999.4	NA	0.0000		9999	2920	17030	0	0
2019/11/26 11:35:00	BASE	2.82	134	3.40	134	0.8	100	0.8	123	0	999.4	NA	0.0000		9999	2850	0	0	0
2019/11/26 11:36:00	BASE	2.99	133	3.40	134	0.8	100	0.8	120	0	999.4	NA	0.0000		9999	2850	0	0	0
2019/11/26 11:37:00	BASE	2.92	131	3.40	134	0.8	100	0.8	118	0	999.4	NA	0.0000		9999	2360	0	0	0
2019/11/26 11:38:00	BASE	2.83	132	3.34	132	0.8	100	0.8	117	0	999.4	NA	0.0000		9999	2170	0	0	0
2019/11/26 11:39:00	BASE	2.78	133	3.34	132	0.8	100	0.8	117	0	999.4	NA	0.0000		9999	2070	0	0	0
2019/11/26 11:40:00	BASE	2.62	134	3.34	132	0.9	100	0.9	118	0	999.4	NA	0.0000		9999	2070	0	0	0
2019/11/26 11:41:00	BASE	2.50	135	3.34	132	0.9	100	0.9	119	0	999.4	NA	0.0000		9999	2130	2560	0	0
2019/11/26 11:42:00	BASE	2.30	137	3.34	132	0.9	100	0.9	121	0	999.4	NA	0.0000		9999	1970	2530	0	0
2019/11/26 11:43:00	BASE	1.99	145	3.34	132	0.9	100	0.9	121	0	999.4	NA	0.0000		9999	2000	0	0	0
2019/11/26 11:44:00	BASE	2.05	154	3.34	132	0.9	100	0.9	121	0	999.4	NA	0.0000		9999	2030	0	0	0
2019/11/26 11:45:00	BASE	2.08	150	3.24	131	0.9	100	0.9	121	0	999.4	NA	0.0000		9999	1870	0	0	0
2019/11/26 11:46:00	BASE	1.76	145	3.19	132	0.9	100	0.9	122	0	999.2	NA	0.0000		9999	1900	0	0	0
2019/11/26 11:47:00	BASE	1.52	143	3.19	132	0.8	100	0.8	125	0	999.4	NA	0.0000		9999	1900	0	0	0
2019/11/26 11:48:00	BASE	1.33	142	3.19	132	0.8	100	0.8	131	0	999.4	NA	0.0000		9999	1840	2460	0	0
2019/11/26 11:49:00	BASE	1.50	139	2.88	145	0.8	100	0.8	140	0	999.3	NA	0.0000		9999	1900	0	0	0
2019/11/26 11:50:00	BASE	1.49	128	2.62	141	0.8	100	0.8	154	0	999.3	NA	0.0000		9999	1770	0	0	0
2019/11/26 11:51:00	BASE	1.06	131	2.62	141	0.9	100	0.9	169	0	999.2	NA	0.0000		9999	1770	0	0	0
2019/11/26 11:52:00	BASE	0.72	140	2.42	152	0.8	100	0.8	181	0	999.2	NA	0.0000		9999	1900	2430	0	0
2019/11/26 11:53:00	BASE	0.46	145	2.42	152	0.8	100	0.8	190	0	999.1	NA	0.0000		9999	2130	3940	6140	0
2019/11/26 11:54:00	BASE	0.46	153	2.26	146	0.9	100	0.9	194	0	999.2	NA	0.0000		9999	3710	0	0	0
2019/11/26 11:55:00	BASE	0.67	159	2.11	149	0.9	100	0.9	195	0	999.2	NA	0.0000		9999	3940	6170	0	0
2019/11/26 11:56:00	BASE	1.07	164	2.06	143	0.9	100	0.9	196	0	999.2	NA	0.0000		9999	3970	6140	0	0
2019/11/26 11:57:00	BASE	1.61	159	2.11	159	0.8	100	0.8	197	0	999.2	NA	0.0000		9999	4000	6140	0	0
2019/11/26 11:58:00	BASE	1.92	157	2.26	168	0.8	100	0.8	199	0	999.2	NA	0.0000		9999	6140	0	0	0
2019/11/26 11:59:00	BASE	1.87	155	2.26	168	0.7	100	0.7	203	0	999.2	NA	0.0000		9999	6070	0	0	0
2019/11/26 12:00:00	BASE	1.95	154	2.52	155	0.6	100	0.6	210	0	999.2	NA	0.0000		9999	4070	6140	0	0
2019/11/26 12:01:00	BASE	2.21	153	2.62	152	0.6	100	0.6	218	0	999.2	NA	0.0000		9999	2560	6200	0	0
2019/11/26 12:02:00	BASE	2.47	150	2.73	148	0.6	100	0.6	224	0	999.2	NA	0.0000		9999	2400	4070	0	0
2019/11/26 12:03:00	BASE	2.53	145	2.73	148	0.6	100	0.6	228	0	999.2	NA	0.0000		9999	4000	0	0	0
2019/11/26 12:04:00	BASE	2.12	137	2.73	148	0.6	100	0.6	233	0	999.2	NA	0.0000		9999	4070	6200	0	0
2019/11/26 12:05:00	BASE	1.72	135	2.73	148	0.7	100	0.7	236	0	999.1	NA	0.0000		9999	6140	0	0	0
2019/11/26 12:06:00	BASE	1.82	148	2.88	162	0.8	100	0.8	235	0	999.1	NA	0.0000		9999	6100	0	0	0
2019/11/26 12:07:00	BASE	2.25	157	2.88	162	0.8	100	0.8	232	0	999.1	NA	0.0000		9999	2260	6230	0	0
2019/11/26 12:08:00	BASE	2.52	156	2.98	147	0.8	100	0.8	228	0	999.1	NA	0.0000		9999	2200	0	0	0
2019/11/26 12:09:00	BASE	2.74	155	3.19	154	0.9	100	0.9	224	0	999.1	NA	0.0000		9999	2200	0	0	0
2019/11/26 12:10:00	BASE	3.19	154	3.76	152	0.9	100	0.9	214	0	999.1	NA	0.0000		9999	2260	0	0	0
2019/11/26 12:11:00	BASE	3.62	151	3.96	153	0.9	100	0.9	203	0	999.1	NA	0.0000		9999	2260	0	0	0
2019/11/26 12:12:00	BASE	3.75	147	3.96	153	0.9	100	0.9	197	0	999.2	NA	0.0000		9999	2200	0	0	0
2019/11/26 12:13:00	BASE	3.61	146	3.96	153	1.0	100	1.0	196	0	999.2	NA	0.0000		9999	2130	0	0	0
2019/11/26 12:14:00	BASE	3.17	144	3.96	153	1.0	100	1.0	200	0	999.2	NA	0.0000		9999	2100	0	0	0
2019/11/26 12:15:00	BASE	2.86	142	3.96	153	1.0	100	1.0	211	0	999.2	NA	0.0000		9999	2130	0	0	0
2019/11/26 12:16:00	BASE	2.80	143	3.96	153	1.1	100	1.1	229	0	999.2	NA	0.0000		9999	2030	0	0	0
2019/11/26 12:17:00	BASE	2.83	143	3.96	153	1.1	100	1.1	261	0	999.2	NA	0.0000		9999	2030	0	0	0
2019/11/26 12:18:00	BASE	2.80	143	3.96	153	1.2	100	1.2	293	0	999.1	NA	0.0000		9999	1970	0	0	0
2019/11/26 12:19:00	BASE	2.88	145	3.96	153	1.2	100	1.2	340	0	999.2	NA	0.0000		9999	2000	0	0	0
2019/11/26 12:20:00	BASE	2.98	147	3.96	153	1.3	100	1.3	397	0	999.2	NA	0.0000		9999	2130	0	0	0
2019/11/26 12:21:00	BASE	2.88	146	3.86	147	1.4	100	1.4	367	0	999.1	NA	0.0000		9999	2130	0	0	0
2019/11/26 12:22:00	BASE	2.98	147	3.76	147	1.4	100	1.4	364	0	999.1	NA	0.0000		9999	2100	0	0	0
2019/11/26 12:23:00	BASE	2.69	140	3.45	146	1.5	100	1.5	350	0	999.1	NA	0.0000		9999	2030	0	0	0
2019/11/26 12:24:00	BASE	2.17	133	3.45	146	1.5	100	1.5	357	0	999.1	NA	0.0000		9999	2030	0	0	0
2019/11/26 12:25:00	BASE	1.83	130	3.45	146	1.5	100	1.5	345	0	999.1	NA	0.0000		9999	1970	23070	0	0
2019/11/26 12:26:00	BASE	1.53	122	3.45	146	1.6	100	1.6	343	0	999.1	NA	0.0000		9999	2000	0	0	0
2019/11/26 12:27:00	BASE	1.47	123	3.45	146	1.7	100	1.7	365	0	999.1	NA	0.0000		9999	2100	3740	15850	0
2019/11/26 12:28:00	BASE	1.37	125	3.45	146	1.8	100	1.8	428	0	999.0	NA	0.0000		9999	2170	3810	0	0
2019/11/26 12:29:00	BASE	1.09	121	3.45	146	1.9	100	1.9	492	0	999.1	NA	0.0000		9999	3840	0	0	0
2019/11/26 12:30:00	BASE	0.75	118	3.34	148	1.9	100	1.9	456	0	999.1	NA	0.0000		9999	2300	3900	0	0
2019/11/26 12:31:00	BASE	0.90	108	3.34	148	2.0	100	2.0	441	0	999.1	NA	0.0000		9999	2260	0	0	0
2019/11/26 12:32:00	BASE	1.05	98	2.73	134	2.0	100	2.0	474	0	999.1	NA	0.0000		9999	2200	0	0	0
2019/11/26 12:33:00	BASE	1.14	80	2.37	125	2.0	100	2.0	664	0	999.1	NA	0.0000		9999	2170	0	0	0
2019/11/26 12:34:00	BASE	1.38	60	1.90	46	2.1	100	2.1	646	0	999.1	NA	0.0000		9999	2230	3970	0	0
2019/11/26 12:35:00	BASE	1.03	75	1.90	46	2.1	100	2.1	702	0	999.0	NA	0.0000		9999	2100	16960	0	0
2019/11/26 12:36:00	BASE	0.71	105	1.90	46	2.1	100	2.1	496	0	999.0	NA	0.0000		9999	2170	3970	0	0
2019/11/26 12:37:00	BASE	0.66	125	1.90	46	2.1	100	2.1	756	0	998.9	NA	0.0000		9999	3970	0	0	0
2019/11/26 12:38:00	BASE	0.92	150	1.90	46	2.1	100	2.1	750	0	998.9	NA	0.0000		9999	2260	0	0	0
2019/11/26 12:39:00	BASE	1.29	163	1.90	46	2.1	100	2.1	775	0	998.9	NA	0.0000		9999	2170	4040	0	0
2019/11/26 12:40:00	BASE	1.41	161	1.90	46	2.1	100	2.1	472	0	998.9	NA	0.0000		9999	4100	0	0	0
2019/11/26 12:41:00	BASE	1.41	156	1.95	146	2.0	100	2.0	765	0	998.9	NA	0.0000		9999	2170	4100	0	0
2019/11/26 12:42:00	BASE	1.34	149	1.95	146	2.0	100	2.0	848	0	998.8	NA	0.0000		9999	2170	0	0	0
2019/11/26 12:43:00	BASE	1.35	144	1.95	146	2.0	100	2.0	847	0	998.8	NA	0.0000		9999	2200	4200	21720	0
2019/11/26 12:44:00	BASE	1.27	144	1.95	146	2.0	100	2.0	488	0	998.8	NA	0.0000		9999	2400	4130	0	0
2019/11/26 12:45:00	BASE	1.40	145	1.95	146	2.1	100	2.1	388	0	998.8	NA	0.0000		9999	2330	4100	0	0
2019/11/26 12:46:00	BASE	1.78	137	2.11	135	2.2	100	2.2	629	0	998.7	NA	0.0000		9999	2400	4070	23980	0
2019/11/26 12:47:00	BASE	2.12	132	2.52	130	2.2	100	2.2	685	0	998.7	NA	0.0000		9999	4070	0	0	0
2019/11/26 12:48:00	BASE	2.30	130	2.57	123	2.2	100	2.2	789	0	998.6	NA	0.0000		9999	2100	4270	0	0
2019/11/26 12:49:00	BASE	2.29	122	2.57	123	2.2	100	2.2	586	0	998.7	NA	0.0000		9999	4300	0	0	0
2019/11/26 12:50:00	BASE	2.09	116	2.57	123	2.2	100	2.2	430	0	998.7	NA	0.0000		9999	4170	0	0	0
2019/11/26 12:51:00	BASE	1.72	104	2.57	123	2.3	100	2.3	844	0	998.7	NA	0.0000		9999	4200	0	0	0
2019/11/26 12:52:00	BASE	1.40	93	2.57	123	2.4	100	2.4	849	0	998.7	NA	0.0000		9999	0	0	0	0
2019/11/26 12:53:00	BASE	1.15	94	2.57	123	2.6	99	2.5	841	0	998.7	NA	0.0000		9999	4230	0	0	0
2019/11/26 12:54:00	BASE	0.80	103	2.57	123	2.7	99	2.5	766	0	998.7	NA	0.0000		9999	4130	0	0	0
2019/11/26 12:55:00	BASE	0.62	101	2.57	123	2.8	98	2.5	637	0	998.6	NA	0.0000		9999	4130	0	0	0
2019/11/26 12:56:00	BASE	0.41	88	2.57	123	2.9	97	2.5	474	0	998.6	NA	0.0000		9999	4230	0	0	0
2019/11/26 12:57:00	BASE	0.09	77	2.57	123	3.0	96	2.5	423	0	998.6	NA	0.0000		9999	4270	0	0	0
2019/11/26 12:58:00	BASE	0.05	76	2.52	129	3.0	96	2.4	530	0	998.4	NA	0.0000		9999	4230	0	0	0
2019/11/26 12:59:00	BASE	0.47	91	2.11	115	3.1	95	2.4	606	0	998.3	NA	0.0000		9999	4200	0	0	0
2019/11/26 13:00:00	BASE	0.42	117	2.01	92	3.2	94	2.3	725	0	998.5	NA	0.0000		9999	4170	0	0	0
2019/11/26 13:01:00	BASE	0.13	148	1.75	96	3.2	94	2.2	640	0	998.5	NA	0.0000		9999	2230	4270	0	0
2019/11/26 13:02:00	BASE	0.27	160	1.65	78	3.1	93	2.1	781	0	998.5	NA	0.0000		9999	4330	0	0	0
2019/11/26 13:03:00	BASE	0.34	178	1.49	98	3.0	92	1.9	691	0	998.5	NA	0.0000		9999	0	0	0	0
2019/11/26 13:04:00	BASE	0.20	189	1.49	98	2.9	91	1.6	700	0	998.5	NA	0.0000		9999	0	0	0	0
2019/11/26 13:05:00	BASE	0.00	183	1.23	187	2.7	91	1.4	750	0	998.5	NA	0.0000		9999	0	0	0	0
2019/11/26 13:06:00	BASE	0.00	170	1.23	187	2.4	92	1.3	755	0	998.5	NA	0.0000		9999	0	0	0	0
2019/11/26 13:07:00	BASE	0.00	163	1.23	187	2.2	93	1.2	673	0	998.5	NA	0.0000		9999	0	0	0	0
2019/11/26 13:08:00	BASE	0.17	171	1.23	187	2.0	95	1.3	696	0	998.5	NA	0.0000		9999	0	0	0	0
2019/11/26 13:09:00	BASE	0.40	171	1.23	187	1.9	96	1.4	634	0	998.5	NA	0.0000		9999	0	0	0	0
2019/11/26 13:10:00	BASE	0.22	152	1.23	187	1.8	98	1.5	586	0	998.2	NA	0.0000		9999	0	0	0	0
2019/11/26 13:11:00	BASE	0.00	142	1.23	187	1.8	99	1.6	576	0	998.4	NA	0.0000		9999	0	0	0	0
2019/11/26 13:12:00	BASE	0.00	138	1.23	187	1.7	99	1.6	643	0	998.4	NA	0.0000		9999	0	0	0	0
2019/11/26 13:13:00	BASE	0.00	134	1.13	165	1.7	100	1.6	646	0	998.4	NA	0.0000		9999	0	0	0	0
2019/11/26 13:14:00	BASE	0.34	133	1.39	116	1.7	100	1.7	623	0	998.4	NA	0.0000		9999	0	0	0	0
2019/11/26 13:15:00	BASE	0.67	126	1.39	116	1.8	100	1.8	581	0	998.4	NA	0.0000		9999	4590	0	0	0
2019/11/26 13:16:00	BASE	0.33	126	1.39	116	1.9	100	1.9	397	0	998.4	NA	0.0000		9999	4590	0	0	0
2019/11/26 13:17:00	BASE	0.09	111	1.39	116	2.1	100	2.1	606	0	998.4	NA	0.0000		9999	0	0	0	0
2019/11/26 13:18:00	BASE	0.23	92	1.39	116	2.3	100	2.3	759	0	998.3	NA	0.0000		9999	0	0	0	0
2019/11/26 13:19:00	BASE	0.18	94	1.39	116	2.5	100	2.5	751	0	998.3	NA	0.0000		9999	0	0	0	0
2019/11/26 13:20:00	BASE	0.04	88	1.39	116	2.7	100	2.7	750	0	998.3	NA	0.0000		9999	0	0	0	0
2019/11/26 13:21:00	BASE	0.24	75	1.39	116	2.9	99	2.8	749	0	998.3	NA	0.0000		9999	0	0	0	0
2019/11/26 13:22:00	BASE	0.48	87	1.39	100	3.1	98	2.9	753	0	998.3	NA	0.0000		9999	0	0	0	0
2019/11/26 13:23:00	BASE	0.48	104	1.39	100	3.3	97	2.8	758	0	998.1	NA	0.0000		9999	2590	0	0	0
2019/11/26 13:24:00	BASE	0.24	101	1.39	100	3.4	95	2.7	773	0	998.3	NA	0.0000		9999	2850	0	0	0
2019/11/26 13:25:00	BASE	0.00	91	1.39	100	3.5	93	2.5	778	0	998.3	NA	0.0000		9999	2490	0	0	0
2019/11/26 13:26:00	BASE	0.05	90	1.39	100	3.6	91	2.3	767	0	997.8	NA	0.0000		9999	2430	0	0	0
2019/11/26 13:27:00	BASE	0.05	98	1.39	100	3.6	90	2.0	803	0	997.8	NA	0.0000		9999	2430	0	0	0
2019/11/26 13:28:00	BASE	0.00	82	1.39	100	3.6	89	2.0	786	0	997.8	NA	0.0000		9999	2460	0	0	0
2019/11/26 13:29:00	BASE	0.00	60	1.39	100	3.6	89	1.9	672	0	997.8	NA	0.0000		9999	2460	0	0	0
2019/11/26 13:30:00	BASE	0.00	54	1.39	100	3.6	89	2.0	798	0	998.0	NA	0.0000		9999	2430	0	0	0
2019/11/26 13:31:00	BASE	0.00	55	1.39	100	3.8	89	2.2	823	0	997.8	NA	0.0000		9999	2430	0	0	0
2019/11/26 13:32:00	BASE	0.00	108	1.18	96	4.0	89	2.3	853	0	997.7	NA	0.0000		9999	2460	0	0	0
2019/11/26 13:33:00	BASE	0.00	204	1.08	105	4.0	88	2.2	824	0	997.8	NA	0.0000		9999	2460	0	0	0
2019/11/26 13:34:00	BASE	0.00	236	1.08	105	4.0	87	2.0	842	0	997.7	NA	0.0000		9999	2460	0	0	0
2019/11/26 13:35:00	BASE	0.00	233	1.08	105	4.1	86	1.9	888	0	998.0	NA	0.0000		9999	2430	0	0	0
2019/11/26 13:36:00	BASE	0.05	269	1.08	24	4.0	85	1.7	915	0	997.8	NA	0.0000		9999	2400	0	0	0
2019/11/26 13:37:00	BASE	0.27	27	1.23	42	3.9	84	1.5	640	0	998.2	NA	0.0000		9999	2400	0	0	0
2019/11/26 13:38:00	BASE	0.41	32	1.23	42	3.9	84	1.4	988	0	997.9	NA	0.0000		9999	2430	0	0	0
2019/11/26 13:39:00	BASE	0.22	44	1.23	42	3.9	84	1.5	935	0	998.1	NA	0.0000		9999	2460	0	0	0
2019/11/26 13:40:00	BASE	0.04	71	1.23	42	3.8	85	1.5	798	0	998.2	NA	0.0000		9999	2400	0	0	0
2019/11/26 13:41:00	BASE	0.87	144	2.11	169	3.7	85	1.3	912	0	998.3	NA	0.0000		9999	2360	0	0	0
2019/11/26 13:42:00	BASE	1.90	170	2.47	162	3.4	85	1.2	568	0	998.0	NA	0.0000		9999	2330	22900	0	0
2019/11/26 13:43:00	BASE	2.20	161	2.62	152	3.1	86	1.0	681	0	998.2	NA	0.0000		9999	2360	0	0	0
2019/11/26 13:44:00	BASE	2.00	157	2.62	152	2.8	87	0.9	447	0	998.3	NA	0.0000		9999	2400	0	0	0
2019/11/26 13:45:00	BASE	1.65	155	2.62	152	2.5	89	0.8	451	0	998.3	NA	0.0000		9999	2560	0	0	0
2019/11/26 13:46:00	BASE	1.75	157	2.62	152	2.3	91	1.0	416	0	998.2	NA	0.0000		9999	0	0	0	0
2019/11/26 13:47:00	BASE	1.84	157	2.62	152	2.3	93	1.2	390	0	998.2	NA	0.0000		9999	2360	0	0	0
2019/11/26 13:48:00	BASE	1.64	151	2.62	152	2.3	94	1.4	542	0	998.1	NA	0.0000		9999	2400	0	0	0
2019/11/26 13:49:00	BASE	1.21	141	2.62	152	2.3	95	1.5	356	0	997.9	NA	0.0000		9999	2400	0	0	0
2019/11/26 13:50:00	BASE	0.96	140	2.62	152	2.3	95	1.6	400	0	998.3	NA	0.0000		9999	2330	0	0	0
2019/11/26 13:51:00	BASE	1.52	156	2.62	152	2.3	96	1.6	542	0	998.3	NA	0.0000		9999	2460	0	0	0
2019/11/26 13:52:00	BASE	2.51	165	3.34	169	2.2	96	1.6	702	0	998.3	NA	0.0000		9999	2490	0	0	0
2019/11/26 13:53:00	BASE	2.77	157	3.34	169	2.2	96	1.6	913	0	998.2	NA	0.0000		9999	2490	0	0	0
2019/11/26 13:54:00	BASE	2.38	142	3.34	169	2.1	96	1.6	730	0	998.3	NA	0.0000		9999	2530	0	0	0
2019/11/26 13:55:00	BASE	1.99	142	3.34	169	2.1	96	1.6	1035	0	998.4	NA	0.0000		9999	2430	3020	0	0
2019/11/26 13:56:00	BASE	1.62	149	3.34	169	2.1	97	1.6	733	0	998.4	NA	0.0000		9999	2490	2920	0	0
2019/11/26 13:57:00	BASE	1.30	148	3.34	169	2.1	97	1.7	902	0	998.4	NA	0.0000		9999	2560	0	0	0
2019/11/26 13:58:00	BASE	1.24	144	3.34	169	2.2	98	1.8	663	0	998.4	NA	0.0000		9999	2460	3050	0	0
2019/11/26 13:59:00	BASE	0.95	135	3.34	169	2.3	98	1.9	378	0	998.4	NA	0.0000		9999	2990	22900	0	0
2019/11/26 14:00:00	BASE	0.47	135	3.34	169	2.3	98	2.0	346	0	998.4	NA	0.0000		9999	2820	0	0	0
2019/11/26 14:01:00	BASE	0.27	125	3.34	169	2.4	98	2.2	319	0	998.2	NA	0.0000		9999	2690	0	0	0
2019/11/26 14:02:00	BASE	0.73	79	3.04	157	2.5	98	2.2	312	0	998.4	NA	0.0000		9999	2850	0	0	0
2019/11/26 14:03:00	BASE	1.06	52	2.37	142	2.7	98	2.4	345	0	998.4	NA	0.0000		9999	2990	0	0	0
2019/11/26 14:04:00	BASE	0.57	47	2.06	143	2.9	97	2.5	355	0	998.4	NA	0.0000		9999	3020	0	0	0
2019/11/26 14:05:00	BASE	0.63	38	1.70	60	3.0	97	2.5	349	0	998.3	NA	0.0000		9999	0	0	0	0
2019/11/26 14:06:00	BASE	0.57	29	1.70	60	3.1	96	2.5	349	0	997.9	NA	0.0000		9999	0	0	0	0
2019/11/26 14:07:00	BASE	0.10	23	1.70	60	3.0	95	2.4	384	0	998.2	NA	0.0000		9999	3050	0	0	0
2019/11/26 14:08:00	BASE	0.00	19	1.70	60	3.0	95	2.2	457	0	998.4	NA	0.0000		9999	3080	0	0	0
2019/11/26 14:09:00	BASE	0.00	19	1.70	60	2.9	94	2.1	671	0	998.4	NA	0.0000		9999	3080	0	0	0
2019/11/26 14:10:00	BASE	0.00	27	1.70	60	2.8	94	2.0	515	0	998.4	NA	0.0000		9999	3150	0	0	0
2019/11/26 14:11:00	BASE	0.00	37	1.70	60	2.7	95	1.9	682	0	998.4	NA	0.0000		9999	0	0	0	0
2019/11/26 14:12:00	BASE	0.00	43	1.65	75	2.6	95	1.9	858	0	998.4	NA	0.0000		9999	3120	0	0	0
2019/11/26 14:13:00	BASE	0.00	41	1.59	33	2.6	95	1.9	504	0	998.4	NA	0.0000		9999	3120	0	0	0
2019/11/26 14:14:00	BASE	0.00	24	1.59	33	2.5	96	1.8	577	0	998.3	NA	0.0000		9999	3150	0	0	0
2019/11/26 14:15:00	BASE	0.00	8	1.18	36	2.5	96	1.9	932	0	998.3	NA	0.0000		9999	3120	19750	20080	0
2019/11/26 14:16:00	BASE	0.41	157	1.59	152	2.5	97	2.0	652	0	998.3	NA	0.0000		9999	3120	0	0	0
2019/11/26 14:17:00	BASE	0.55	154	1.59	152	2.5	97	2.0	564	0	998.3	NA	0.0000		9999	3050	0	0	0
2019/11/26 14:18:00	BASE	0.17	162	1.59	152	2.5	97	2.1	437	0	998.2	NA	0.0000		9999	3080	0	0	0
2019/11/26 14:19:00	BASE	0.04	164	1.59	152	2.4	97	2.0	430	0	998.2	NA	0.0000		9999	0	0	0	0
2019/11/26 14:20:00	BASE	0.31	175	1.59	152	2.2	97	1.8	753	0	998.2	NA	0.0000		9999	3150	0	0	0
2019/11/26 14:21:00	BASE	1.03	181	1.59	152	2.1	97	1.7	853	0	998.1	NA	0.0000		9999	3120	0	0	0
2019/11/26 14:22:00	BASE	1.40	177	1.65	180	1.9	97	1.5	847	0	998.0	NA	0.0000		9999	0	0	0	0
2019/11/26 14:23:00	BASE	1.19	177	1.65	180	1.8	97	1.5	817	0	998.0	NA	0.0000		9999	0	0	0	0
2019/11/26 14:24:00	BASE	1.04	174	1.65	180	1.8	98	1.4	797	0	998.0	NA	0.0000		9999	0	0	0	0
2019/11/26 14:25:00	BASE	0.86	166	1.65	180	1.7	98	1.5	786	0	998.0	NA	0.0000		9999	0	0	0	0
2019/11/26 14:26:00	BASE	0.68	163	1.65	180	1.8	99	1.6	788	0	998.0	NA	0.0000		9999	0	0	0	0
2019/11/26 14:27:00	BASE	0.77	163	1.65	180	1.8	99	1.6	795	0	998.0	NA	0.0000		9999	22410	0	0	0
2019/11/26 14:28:00	BASE	0.73	159	1.65	180	1.8	99	1.7	807	0	998.0	NA	0.0000		9999	0	0	0	0
2019/11/26 14:29:00	BASE	0.83	159	1.65	180	1.9	99	1.8	827	0	998.0	NA	0.0000		9999	0	0	0	0
2019/11/26 14:30:00	BASE	0.93	154	1.65	180	2.0	100	1.9	858	0	998.1	NA	0.0000		9999	0	0	0	0
2019/11/26 14:31:00	BASE	0.85	142	1.65	180	2.0	99	1.9	884	0	998.2	NA	0.0000		9999	3080	0	0	0
2019/11/26 14:32:00	BASE	0.54	124	1.44	177	2.0	99	1.9	895	0	998.2	NA	0.0000		9999	3080	0	0	0
2019/11/26 14:33:00	BASE	0.09	107	1.44	177	2.1	99	2.0	890	0	998.2	NA	0.0000		9999	3120	0	0	0
2019/11/26 14:34:00	BASE	0.21	88	1.90	50	2.2	99	2.1	764	0	998.2	NA	0.0000		9999	3080	3670	0	0
2019/11/26 14:35:00	BASE	1.17	60	2.31	48	2.3	99	2.1	475	0	998.2	NA	0.0000		9999	3710	0	0	0
2019/11/26 14:36:00	BASE	1.92	44	2.31	47	2.4	99	2.2	490	0	998.2	NA	0.0000		9999	3840	0	0	0
2019/11/26 14:37:00	BASE	1.90	34	2.31	47	2.5	98	2.3	497	0	998.2	NA	0.0000		9999	0	0	0	0
2019/11/26 14:38:00	BASE	1.89	25	2.31	47	2.5	98	2.3	736	0	998.2	NA	0.0000		9999	0	0	0	0
2019/11/26 14:39:00	BASE	1.95	20	2.31	47	2.6	98	2.3	436	0	998.2	NA	0.0000		9999	0	0	0	0
2019/11/26 14:40:00	BASE	2.19	17	2.57	14	2.5	98	2.2	709	0	998.2	NA	0.0000		9999	0	0	0	0
2019/11/26 14:41:00	BASE	2.41	13	2.57	14	2.4	98	2.1	814	0	998.2	NA	0.0000		9999	3380	0	0	0
2019/11/26 14:42:00	BASE	2.37	7	2.57	14	2.4	98	2.2	865	0	998.2	NA	0.0000		9999	3350	0	0	0
2019/11/26 14:43:00	BASE	2.18	355	2.57	14	2.4	98	2.2	836	0	998.1	NA	0.0000		9999	3250	0	0	0
2019/11/26 14:44:00	BASE	2.05	339	2.57	14	2.4	99	2.2	819	0	998.0	NA	0.0000		9999	3220	0	0	0
2019/11/26 14:45:00	BASE	1.98	326	2.57	14	2.5	99	2.3	808	0	998.0	NA	0.0000		9999	3250	0	0	0
2019/11/26 14:46:00	BASE	1.85	320	2.57	14	2.6	99	2.4	803	0	998.0	NA	0.0000		9999	0	0	0	0
2019/11/26 14:47:00	BASE	1.81	319	2.57	14	2.6	99	2.5	803	0	998.0	NA	0.0000		9999	0	0	0	0
2019/11/26 14:48:00	BASE	1.69	311	2.57	14	2.7	99	2.5	805	0	998.0	NA	0.0000		9999	0	0	0	0
2019/11/26 14:49:00	BASE	1.45	306	2.57	14	2.8	99	2.6	804	0	998.0	NA	0.0000		9999	0	0	0	0
2019/11/26 14:50:00	BASE	1.36	308	2.52	7	3.0	98	2.7	807	0	998.1	NA	0.0000		9999	0	0	0	0
2019/11/26 14:51:00	BASE	1.45	305	2.37	3	3.0	97	2.7	810	0	998.2	NA	0.0000		9999	0	0	0	0
2019/11/26 14:52:00	BASE	1.47	299	2.21	352	3.1	97	2.6	811	0	998.2	NA	0.0000		9999	0	0	0	0
2019/11/26 14:53:00	BASE	1.47	297	2.11	320	3.2	96	2.6	802	0	998.2	NA	0.0000		9999	0	0	0	0
2019/11/26 14:54:00	BASE	0.90	292	2.06	316	3.1	95	2.4	778	0	998.2	NA	0.0000		9999	0	0	0	0
2019/11/26 14:55:00	BASE	0.48	284	2.06	316	2.9	94	2.1	829	0	998.2	NA	0.0000		9999	0	0	0	0
2019/11/26 14:56:00	BASE	0.79	280	1.90	316	2.7	94	1.9	862	0	998.2	NA	0.0000		9999	0	0	0	0
2019/11/26 14:57:00	BASE	0.44	262	1.85	312	2.5	94	1.6	875	0	998.3	NA	0.0000		9999	0	0	0	0
2019/11/26 14:58:00	BASE	0.00	227	1.80	297	2.2	94	1.3	667	0	998.2	NA	0.0000		9999	0	0	0	0
2019/11/26 14:59:00	BASE	0.00	216	1.80	297	1.9	95	1.2	547	0	998.3	NA	0.0000		9999	0	0	0	0
2019/11/26 15:00:00	BASE	0.00	234	1.80	297	1.7	96	1.1	467	0	998.3	NA	0.0000		9999	0	0	0	0
2019/11/26 15:01:00	BASE	0.00	269	1.80	297	1.6	97	1.1	460	0	998.4	NA	0.0000		9999	3020	0	0	0
2019/11/26 15:02:00	BASE	0.00	273	1.80	297	1.6	98	1.3	493	0	998.3	NA	0.0000		9999	2990	0	0	0
2019/11/26 15:03:00	BASE	0.00	286	1.44	289	1.7	99	1.5	571	0	998.2	NA	0.0000		9999	2950	0	0	0
2019/11/26 15:04:00	BASE	0.00	301	1.44	289	1.7	99	1.7	572	0	998.3	NA	0.0000		9999	2920	0	0	0
2019/11/26 15:05:00	BASE	0.00	268	1.23	286	1.8	100	1.7	592	0	998.3	NA	0.0000		9999	2990	0	0	0
2019/11/26 15:06:00	BASE	0.40	233	1.44	191	1.8	100	1.8	602	0	998.3	NA	0.0000		9999	3020	0	0	0
2019/11/26 15:07:00	BASE	1.31	203	2.26	186	1.8	100	1.8	599	0	998.3	NA	0.0000		9999	3020	0	0	0
2019/11/26 15:08:00	BASE	2.18	184	2.73	164	1.8	100	1.8	531	0	998.3	NA	0.0000		9999	2990	0	0	0
2019/11/26 15:09:00	BASE	2.71	171	3.24	169	1.8	100	1.8	433	0	998.3	NA	0.0000		9999	2990	0	0	0
2019/11/26 15:10:00	BASE	2.91	172	3.55	183	1.8	100	1.8	373	0	998.2	NA	0.0000		9999	2950	0	0	0
2019/11/26 15:11:00	BASE	2.86	173	3.55	183	1.8	100	1.8	364	0	998.2	NA	0.0000		9999	2950	0	0	0
2019/11/26 15:12:00	BASE	2.55	172	3.55	183	1.7	100	1.7	347	0	998.2	NA	0.0000		9999	2950	22440	0	0
2019/11/26 15:13:00	BASE	2.20	182	3.55	183	1.6	100	1.6	381	0	998.2	NA	0.0000		9999	2920	0	0	0
2019/11/26 15:14:00	BASE	2.14	189	3.55	183	1.6	100	1.6	361	0	998.2	NA	0.0000		9999	2950	0	0	0
2019/11/26 15:15:00	BASE	2.18	189	3.55	183	1.5	100	1.5	388	0	998.2	NA	0.0000		9999	2950	0	0	0
2019/11/26 15:16:00	BASE	2.06	186	3.55	183	1.5	100	1.5	455	0	998.1	NA	0.0000		9999	2950	0	0	0
2019/11/26 15:17:00	BASE	2.03	184	3.55	183	1.5	100	1.5	506	0	998.0	NA	0.0000		9999	2950	0	0	0
2019/11/26 15:18:00	BASE	2.12	184	3.55	183	1.4	100	1.4	468	0	998.0	NA	0.0000		9999	2950	0	0	0
2019/11/26 15:19:00	BASE	2.18	184	3.55	183	1.4	100	1.4	472	0	998.0	NA	0.0000		9999	2920	0	0	0
2019/11/26 15:20:00	BASE	2.26	186	2.98	170	1.4	100	1.4	610	0	997.9	NA	0.0000		9999	2920	0	0	0
2019/11/26 15:21:00	BASE	2.10	187	2.62	186	1.4	100	1.4	672	0	997.9	NA	0.0000		9999	2950	0	0	0
2019/11/26 15:22:00	BASE	1.98	184	2.62	186	1.4	100	1.4	606	0	997.9	NA	0.0000		9999	2920	23750	0	0
2019/11/26 15:23:00	BASE	2.19	181	2.62	187	1.4	100	1.4	571	0	997.9	NA	0.0000		9999	2950	0	0	0
2019/11/26 15:24:00	BASE	2.35	170	2.62	160	1.5	100	1.5	677	0	997.9	NA	0.0000		9999	0	0	0	0
2019/11/26 15:25:00	BASE	2.45	163	2.78	161	1.5	100	1.5	618	0	997.9	NA	0.0000		9999	0	0	0	0
2019/11/26 15:26:00	BASE	2.22	165	2.78	161	1.5	100	1.5	622	0	997.9	NA	0.0000		9999	0	0	0	0
2019/11/26 15:27:00	BASE	1.81	164	2.78	161	1.6	100	1.6	608	0	997.9	NA	0.0000		9999	0	0	0	0
2019/11/26 15:28:00	BASE	1.95	161	2.78	161	1.6	100	1.6	635	0	997.9	NA	0.0000		9999	0	0	0	0
2019/11/26 15:29:00	BASE	2.39	157	2.98	155	1.6	100	1.6	872	0	997.9	NA	0.0000		9999	0	0	0	0
2019/11/26 15:30:00	BASE	2.84	156	3.45	159	1.6	100	1.6	681	0	997.8	NA	0.0000		9999	0	0	0	0
2019/11/26 15:31:00	BASE	3.19	157	3.45	159	1.6	100	1.6	667	0	997.8	NA	0.0000		9999	0	0	0	0
2019/11/26 15:32:00	BASE	3.16	157	3.45	159	1.6	100	1.6	665	0	997.8	NA	0.0000		9999	0	0	0	0
2019/11/26 15:33:00	BASE	2.97	152	3.45	159	1.7	100	1.7	646	0	997.7	NA	0.0000		9999	0	0	0	0
2019/11/26 15:34:00	BASE	2.89	148	3.45	159	1.7	100	1.7	621	0	997.6	NA	0.0000		9999	0	0	0	0
2019/11/26 15:35:00	BASE	3.17	142	3.96	134	1.7	100	1.7	586	0	997.6	NA	0.0000		9999	0	0	0	0
2019/11/26 15:36:00	BASE	3.25	135	3.96	134	1.7	100	1.7	651	0	997.5	NA	0.0000		9999	0	0	0	0
2019/11/26 15:37:00	BASE	3.09	132	3.96	134	1.6	100	1.6	765	0	997.5	NA	0.0000		9999	0	0	0	0
2019/11/26 15:38:00	BASE	3.22	131	3.96	134	1.6	100	1.6	654	0	997.5	NA	0.0000		9999	0	0	0	0
2019/11/26 15:39:00	BASE	3.49	129	3.96	134	1.5	100	1.5	691	0	997.5	NA	0.0000		9999	0	0	0	0
2019/11/26 15:40:00	BASE	3.73	128	4.01	125	1.5	100	1.5	803	0	997.5	NA	0.0000		9999	0	0	0	0
2019/11/26 15:41:00	BASE	3.60	126	4.22	126	1.5	100	1.5	863	0	997.5	NA	0.0000		9999	21490	0	0	0
2019/11/26 15:42:00	BASE	3.58	125	4.22	126	1.5	100	1.5	788	0	997.5	NA	0.0000		9999	0	0	0	0
2019/11/26 15:43:00	BASE	3.70	123	4.22	126	1.5	100	1.5	946	0	997.4	NA	0.0000		9999	0	0	0	0
2019/11/26 15:44:00	BASE	3.60	119	4.22	126	1.5	100	1.5	947	0	997.4	NA	0.0000		9999	0	0	0	0
2019/11/26 15:45:00	BASE	3.33	117	4.22	126	1.5	100	1.5	936	0	997.3	NA	0.0000		9999	0	0	0	0
2019/11/26 15:46:00	BASE	3.07	116	4.22	126	1.5	100	1.5	922	0	997.3	NA	0.0000		9999	0	0	0	0
2019/11/26 15:47:00	BASE	2.50	108	4.22	126	1.5	100	1.5	893	0	997.3	NA	0.0000		9999	0	0	0	0
2019/11/26 15:48:00	BASE	1.82	90	4.22	126	1.6	100	1.6	836	0	997.3	NA	0.0000		9999	0	0	0	0
2019/11/26 15:49:00	BASE	1.52	56	4.22	126	1.7	100	1.7	799	0	997.3	NA	0.0000		9999	0	0	0	0
2019/11/26 15:50:00	BASE	1.65	31	4.22	126	1.8	100	1.8	824	0	997.3	NA	0.0000		9999	19290	0	0	0
2019/11/26 15:51:00	BASE	1.88	26	4.12	116	2.0	100	2.0	704	0	997.2	NA	0.0000		9999	0	0	0	0
2019/11/26 15:52:00	BASE	1.91	26	3.96	113	2.1	100	2.1	676	0	997.2	NA	0.0000		9999	0	0	0	0
2019/11/26 15:53:00	BASE	2.00	30	3.76	124	2.1	100	2.1	761	0	997.2	NA	0.0000		9999	0	0	0	0
2019/11/26 15:54:00	BASE	2.06	30	3.34	115	2.1	100	2.1	756	0	997.2	NA	0.0000		9999	0	0	0	0
2019/11/26 15:55:00	BASE	2.03	28	3.34	115	2.1	100	2.1	754	0	997.2	NA	0.0000		9999	0	0	0	0
2019/11/26 15:56:00	BASE	2.00	26	2.52	117	2.1	100	2.1	789	0	997.2	NA	0.0000		9999	0	0	0	0
2019/11/26 15:57:00	BASE	1.95	22	2.26	33	2.1	100	2.1	813	0	997.2	NA	0.0000		9999	0	0	0	0
2019/11/26 15:58:00	BASE	1.84	18	2.26	33	2.2	100	2.2	804	0	997.2	NA	0.0000		9999	0	0	0	0
2019/11/26 15:59:00	BASE	1.80	18	2.26	33	2.3	100	2.2	798	0	997.2	NA	0.0000		9999	0	0	0	0
2019/11/26 16:00:00	BASE	1.71	20	2.26	33	2.3	100	2.2	808	0	997.2	NA	0.0000		9999	0	0	0	0
2019/11/26 16:01:00	BASE	1.58	24	2.26	33	2.3	99	2.2	805	0	997.2	NA	0.0000		9999	0	0	0	0
2019/11/26 16:02:00	BASE	1.49	28	2.26	33	2.2	99	2.1	829	0	997.1	NA	0.0000		9999	0	0	0	0
2019/11/26 16:03:00	BASE	1.47	22	2.21	28	2.2	99	2.1	833	0	997.1	NA	0.0000		9999	0	0	0	0
2019/11/26 16:04:00	BASE	1.50	18	2.21	28	2.2	99	2.0	827	0	997.1	NA	0.0000		9999	0	0	0	0
2019/11/26 16:05:00	BASE	1.52	18	2.11	18	2.2	99	2.0	827	0	997.1	NA	0.0000		9999	0	0	0	0
2019/11/26 16:06:00	BASE	1.70	14	2.11	18	2.3	99	2.1	837	0	997.1	NA	0.0000		9999	0	0	0	0
2019/11/26 16:07:00	BASE	1.91	10	2.11	10	2.3	98	2.1	835	0	997.0	NA	0.0000		9999	0	0	0	0
2019/11/26 16:08:00	BASE	2.04	8	2.42	8	2.4	98	2.2	724	0	997.0	NA	0.0000		9999	0	0	0	0
2019/11/26 16:09:00	BASE	2.16	4	2.57	2	2.5	98	2.2	719	0	997.0	NA	0.0000		9999	0	0	0	0
2019/11/26 16:10:00	BASE	2.97	353	4.22	339	2.5	98	2.2	775	0	997.0	NA	0.0000		9999	0	0	0	0
2019/11/26 16:11:00	BASE	3.97	340	4.37	335	2.5	98	2.2	677	0	996.8	NA	0.0000		9999	0	0	0	0
2019/11/26 16:12:00	BASE	4.02	334	4.37	335	2.4	98	2.1	707	0	996.8	NA	0.0000		9999	0	0	0	0
2019/11/26 16:13:00	BASE	3.86	331	4.37	335	2.4	98	2.1	637	0	996.8	NA	0.0000		9999	0	0	0	0
2019/11/26 16:14:00	BASE	3.88	333	4.37	337	2.4	98	2.0	679	0	996.8	NA	0.0000		9999	0	0	0	0
2019/11/26 16:15:00	BASE	4.15	335	4.68	335	2.3	98	2.0	669	0	996.8	NA	0.0000		9999	0	0	0	0
2019/11/26 16:16:00	BASE	4.19	337	4.68	335	2.2	98	1.9	696	0	996.7	NA	0.0000		9999	0	0	0	0
2019/11/26 16:17:00	BASE	3.94	339	4.68	335	2.1	98	1.9	685	0	996.7	NA	0.0000		9999	0	0	0	0
2019/11/26 16:18:00	BASE	4.31	341	4.94	345	2.1	98	1.8	664	0	996.7	NA	0.0000		9999	0	0	0	0
2019/11/26 16:19:00	BASE	4.80	342	5.09	340	2.1	99	1.9	658	0	996.7	NA	0.0000		9999	0	0	0	0
2019/11/26 16:20:00	BASE	4.98	342	5.25	341	2.0	99	1.9	639	0	996.5	NA	0.0000		9999	0	0	0	0
2019/11/26 16:21:00	BASE	5.09	340	5.45	339	2.1	99	1.9	653	0	996.6	NA	0.0000		9999	0	0	0	0
2019/11/26 16:22:00	BASE	5.13	339	5.45	339	2.0	99	2.0	624	0	996.1	NA	0.0000		9999	0	0	0	0
2019/11/26 16:23:00	BASE	5.09	339	5.45	339	2.0	100	2.0	624	0	996.7	NA	0.0000		9999	0	0	0	0
2019/11/26 16:24:00	BASE	5.06	339	5.45	339	2.0	100	2.0	621	0	996.7	NA	0.0000		9999	0	0	0	0
2019/11/26 16:25:00	BASE	4.98	341	5.45	339	2.0	100	2.0	617	0	996.7	NA	0.0000		9999	22180	0	0	0
2019/11/26 16:26:00	BASE	5.04	343	5.71	341	1.9	100	1.9	621	0	996.7	NA	0.0000		9999	0	0	0	0
2019/11/26 16:27:00	BASE	5.22	343	5.71	341	1.9	100	1.9	619	0	996.6	NA	0.0000		9999	0	0	0	0
2019/11/26 16:28:00	BASE	5.32	343	5.92	342	1.9	100	1.9	632	0	996.6	NA	0.0000		9999	0	0	0	0
2019/11/26 16:29:00	BASE	5.30	343	5.92	342	1.9	100	1.9	635	0	996.7	NA	0.0000		9999	0	0	0	0
2019/11/26 16:30:00	BASE	5.02	337	5.92	342	1.9	100	1.9	635	0	996.7	NA	0.0000		9999	0	0	0	0
2019/11/26 16:31:00	BASE	4.80	331	5.92	342	1.8	100	1.8	663	0	996.6	NA	0.0000		9999	20970	0	0	0
2019/11/26 16:32:00	BASE	4.69	331	5.92	342	1.8	100	1.8	679	0	996.7	NA	0.0000		9999	0	0	0	0
2019/11/26 16:33:00	BASE	4.65	329	5.92	342	1.8	100	1.8	687	0	996.7	NA	0.0000		9999	0	0	0	0
2019/11/26 16:34:00	BASE	4.68	326	5.92	342	1.8	100	1.8	680	0	996.6	NA	0.0000		9999	0	0	0	0
2019/11/26 16:35:00	BASE	4.49	327	5.92	342	1.8	100	1.8	682	0	996.6	NA	0.0000		9999	0	0	0	0
2019/11/26 16:36:00	BASE	4.53	328	5.92	342	1.8	100	1.8	688	0	996.6	NA	0.0000		9999	0	0	0	0
2019/11/26 16:37:00	BASE	4.71	329	5.92	342	1.8	100	1.8	694	0	996.6	NA	0.0000		9999	15220	0	0	0
2019/11/26 16:38:00	BASE	4.77	331	5.61	344	1.8	100	1.8	707	0	996.6	NA	0.0000		9999	0	0	0	0
2019/11/26 16:39:00	BASE	4.95	332	5.40	330	1.8	100	1.8	692	0	996.6	NA	0.0000		9999	0	0	0	0
2019/11/26 16:40:00	BASE	4.92	333	5.20	333	1.9	100	1.9	684	0	996.6	NA	0.0000		9999	18930	0	0	0
2019/11/26 16:41:00	BASE	4.60	335	5.20	333	1.8	100	1.8	648	0	996.6	NA	0.0000		9999	20600	0	0	0
2019/11/26 16:42:00	BASE	4.35	332	5.20	333	1.8	100	1.8	636	0	996.6	NA	0.0000		9999	0	0	0	0
2019/11/26 16:43:00	BASE	4.47	331	5.20	333	1.7	100	1.7	662	0	996.6	NA	0.0000		9999	22970	0	0	0
2019/11/26 16:44:00	BASE	4.58	330	5.20	333	1.7	100	1.7	643	0	996.6	NA	0.0000		9999	0	0	0	0
2019/11/26 16:45:00	BASE	4.31	327	5.20	333	1.7	100	1.7	620	0	996.5	NA	0.0000		9999	21230	0	0	0
2019/11/26 16:46:00	BASE	4.17	325	5.20	333	1.7	100	1.7	632	0	996.5	NA	0.0000		9999	0	0	0	0
2019/11/26 16:47:00	BASE	4.19	324	5.20	333	1.8	100	1.8	618	0	996.6	NA	0.0000		9999	0	0	0	0
2019/11/26 16:48:00	BASE	3.97	322	5.14	334	1.8	100	1.8	601	0	996.6	NA	0.0000		9999	0	0	0	0
2019/11/26 16:49:00	BASE	3.66	320	5.04	338	1.7	100	1.7	612	0	996.6	NA	0.0000		9999	0	0	0	0
2019/11/26 16:50:00	BASE	3.71	318	4.78	327	1.7	100	1.7	605	0	996.6	NA	0.0000		9999	18500	0	0	0
2019/11/26 16:51:00	BASE	3.92	316	4.78	327	1.6	100	1.6	622	0	996.5	NA	0.0000		9999	19160	0	0	0
2019/11/26 16:52:00	BASE	3.95	313	4.78	327	1.6	100	1.6	571	0	996.5	NA	0.0000		9999	0	0	0	0
2019/11/26 16:53:00	BASE	4.02	311	4.73	332	1.6	100	1.6	575	0	996.5	NA	0.0000		9999	0	0	0	0
2019/11/26 16:54:00	BASE	4.15	311	4.58	323	1.6	100	1.6	571	0	996.2	NA	0.0000		9999	0	0	0	0
2019/11/26 16:55:00	BASE	4.15	311	4.48	317	1.7	100	1.7	593	0	996.4	NA	0.0000		9999	0	0	0	0
2019/11/26 16:56:00	BASE	4.17	311	4.48	311	1.7	100	1.7	604	0	996.4	NA	0.0000		9999	0	0	0	0
2019/11/26 16:57:00	BASE	4.27	312	4.68	312	1.8	100	1.8	602	0	996.4	NA	0.0000		9999	0	0	0	0
2019/11/26 16:58:00	BASE	4.32	313	4.68	312	1.8	100	1.8	617	0	996.4	NA	0.0000		9999	19980	0	0	0
2019/11/26 16:59:00	BASE	4.33	316	4.68	312	1.8	100	1.8	637	0	996.4	NA	0.0000		9999	23690	0	0	0
2019/11/26 17:00:00	BASE	4.30	318	4.68	312	1.7	100	1.7	572	0	996.4	NA	0.0000		9999	0	0	0	0
2019/11/26 17:01:00	BASE	4.09	319	4.68	312	1.6	100	1.6	598	0	996.4	NA	0.0000		9999	0	0	0	0
2019/11/26 17:02:00	BASE	3.98	319	4.68	312	1.6	100	1.6	615	0	996.4	NA	0.0000		9999	18960	0	0	0
2019/11/26 17:03:00	BASE	3.91	319	4.68	312	1.5	100	1.5	652	0	996.3	NA	0.0000		9999	0	0	0	0
2019/11/26 17:04:00	BASE	3.76	317	4.68	312	1.5	100	1.5	658	0	996.3	NA	0.0000		9999	0	0	0	0
2019/11/26 17:05:00	BASE	3.68	316	4.68	312	1.5	100	1.5	683	0	996.3	NA	0.0000		9999	19000	0	0	0
2019/11/26 17:06:00	BASE	3.61	314	4.68	312	1.5	100	1.5	675	0	996.3	NA	0.0000		9999	0	0	0	0
2019/11/26 17:07:00	BASE	3.54	313	4.63	315	1.5	100	1.5	674	0	996.3	NA	0.0000		9999	22050	22870	0	0
2019/11/26 17:08:00	BASE	3.54	312	4.48	320	1.5	100	1.5	633	0	996.3	NA	0.0000		9999	19880	0	0	0
2019/11/26 17:09:00	BASE	3.56	311	4.48	320	1.5	100	1.5	610	0	996.3	NA	0.0000		9999	22970	0	0	0
2019/11/26 17:10:01	BASE	3.61	312	4.22	319	1.4	100	1.4	639	0	996.2	NA	0.0000		9999	0	0	0	0
2019/11/26 17:11:00	BASE	3.51	311	4.22	319	1.4	100	1.4	652	0	996.3	NA	0.0000		9999	19650	0	0	0
2019/11/26 17:12:00	BASE	3.20	309	3.91	317	1.4	100	1.4	659	0	996.3	NA	0.0000		9999	20900	0	0	0
2019/11/26 17:13:00	BASE	3.05	309	3.81	315	1.5	100	1.5	647	0	996.3	NA	0.0000		9999	0	0	0	0
2019/11/26 17:14:00	BASE	3.15	309	3.76	310	1.5	100	1.5	600	0	996.3	NA	0.0000		9999	0	0	0	0
2019/11/26 17:15:00	BASE	3.01	308	3.76	310	1.6	100	1.6	594	0	996.3	NA	0.0000		9999	0	0	0	0
2019/11/26 17:16:00	BASE	2.95	304	3.76	310	1.6	100	1.6	620	0	996.3	NA	0.0000		9999	0	0	0	0
2019/11/26 17:17:00	BASE	3.05	301	3.76	310	1.6	100	1.6	613	0	996.3	NA	0.0000		9999	0	0	0	0
2019/11/26 17:18:00	BASE	3.02	296	3.76	310	1.6	100	1.6	626	0	996.2	NA	0.0000		9999	20600	0	0	0
2019/11/26 17:19:00	BASE	3.19	293	3.76	310	1.7	100	1.7	626	0	996.2	NA	0.0000		9999	0	0	0	0
2019/11/26 17:20:00	BASE	3.32	293	3.65	311	1.6	100	1.6	640	0	996.1	NA	0.0000		9999	0	0	0	0
2019/11/26 17:21:00	BASE	3.40	293	3.70	294	1.5	100	1.5	631	0	996.1	NA	0.0000		9999	0	0	0	0
2019/11/26 17:22:00	BASE	3.46	295	3.70	295	1.5	100	1.5	645	0	996.1	NA	0.0000		9999	0	0	0	0
2019/11/26 17:23:00	BASE	3.35	296	3.70	295	1.5	100	1.5	615	0	996.1	NA	0.0000		9999	0	0	0	0
2019/11/26 17:24:00	BASE	3.20	299	3.70	295	1.5	100	1.5	583	0	996.1	NA	0.0000		9999	20010	0	0	0
2019/11/26 17:25:00	BASE	3.09	302	3.70	295	1.6	100	1.6	599	0	996.1	NA	0.0000		9999	0	0	0	0
2019/11/26 17:26:00	BASE	2.96	303	3.70	295	1.5	100	1.5	583	0	996.1	NA	0.0000		9999	0	0	0	0
2019/11/26 17:27:00	BASE	2.98	303	3.70	295	1.5	100	1.5	544	0	996.1	NA	0.0000		9999	0	0	0	0
2019/11/26 17:28:00	BASE	3.00	305	3.70	295	1.4	100	1.4	543	0	996.1	NA	0.0000		9999	0	0	0	0
2019/11/26 17:29:00	BASE	2.97	308	3.70	295	1.3	100	1.3	528	0	995.9	NA	0.0000		9999	17820	20440	0	0
2019/11/26 17:30:00	BASE	2.94	310	3.70	295	1.3	100	1.3	528	0	995.9	NA	0.0000		9999	19590	0	0	0
2019/11/26 17:31:00	BASE	2.85	317	3.70	295	1.2	100	1.2	540	0	996.1	NA	0.0000		9999	17420	0	0	0
2019/11/26 17:32:00	BASE	2.84	322	3.45	298	1.2	100	1.2	536	0	996.1	NA	0.0000		9999	0	0	0	0
2019/11/26 17:33:00	BASE	3.06	323	3.60	323	1.2	100	1.2	545	0	996.1	NA	0.0000		9999	20470	0	0	0
2019/11/26 17:34:00	BASE	3.42	322	3.76	319	1.2	100	1.2	538	0	996.0	NA	0.0000		9999	0	0	0	0
2019/11/26 17:35:00	BASE	3.71	319	4.06	316	1.2	100	1.2	559	0	996.0	NA	0.0000		9999	19420	0	0	0
2019/11/26 17:36:00	BASE	3.94	316	4.12	317	1.2	100	1.2	534	0	996.1	NA	0.0000		9999	0	0	0	0
2019/11/26 17:37:00	BASE	4.11	316	4.27	316	1.1	100	1.1	528	0	996.1	NA	0.0000		9999	0	0	0	0
2019/11/26 17:38:00	BASE	4.06	316	4.27	316	1.1	100	1.1	523	0	996.1	NA	0.0000		9999	0	0	0	200
2019/11/26 17:39:00	BASE	3.85	318	4.27	316	1.1	100	1.1	524	0	996.1	NA	0.0000		9999	0	0	0	0
2019/11/26 17:40:00	BASE	3.94	319	4.27	316	1.1	100	1.1	540	0	996.0	NA	0.0000		9999	0	0	0	200
2019/11/26 17:41:00	BASE	4.26	320	4.53	321	1.1	100	1.1	561	0	996.0	NA	0.0000		9999	0	0	0	0
2019/11/26 17:42:00	BASE	4.36	322	4.53	321	1.1	100	1.1	570	0	996.0	NA	0.0000		9999	0	0	0	200
2019/11/26 17:43:00	BASE	4.28	323	4.53	321	1.1	100	1.1	557	0	996.0	NA	0.0000		9999	0	0	0	230
2019/11/26 17:44:00	BASE	4.18	323	4.53	321	1.1	100	1.1	538	0	996.0	NA	0.0000		9999	0	0	0	0
2019/11/26 17:45:00	BASE	4.08	322	4.53	321	1.0	100	1.0	520	0	996.0	NA	0.0000		9999	0	0	0	260
2019/11/26 17:46:00	BASE	4.13	319	4.53	321	1.0	100	1.0	527	0	996.0	NA	0.0000		9999	16570	0	0	0
2019/11/26 17:47:00	BASE	4.31	317	4.58	318	1.0	100	1.0	533	0	996.0	NA	0.0000		9999	0	0	0	300
2019/11/26 17:48:00	BASE	4.43	316	4.63	319	1.0	100	1.0	517	0	996.0	NA	0.0000		9999	0	0	0	330
2019/11/26 17:49:00	BASE	4.32	316	4.63	319	1.0	100	1.0	508	0	996.0	NA	0.0000		9999	0	0	0	300
2019/11/26 17:50:00	BASE	4.07	316	4.63	319	0.9	100	0.9	526	0	996.0	NA	0.0000		9999	0	0	0	260
2019/11/26 17:51:00	BASE	3.94	315	4.63	319	0.9	100	0.9	535	0	995.8	NA	0.0000		9000	0	0	0	300
2019/11/26 17:52:00	BASE	3.93	315	4.63	319	0.9	100	0.9	528	0	996.0	NA	0.0000		9999	0	0	0	300
2019/11/26 17:53:00	BASE	3.94	314	4.63	319	0.9	100	0.9	525	0	996.0	NA	0.0000		9999	0	0	0	330
2019/11/26 17:54:00	BASE	4.00	313	4.63	319	0.9	100	0.9	529	0	996.0	NA	0.0000		9999	0	0	0	330
2019/11/26 17:55:00	BASE	3.82	311	4.63	319	0.9	100	0.9	516	0	996.0	NA	0.0000		9999	0	0	0	330
2019/11/26 17:56:00	BASE	3.70	310	4.63	319	0.8	100	0.8	512	0	996.0	NA	0.0000		9999	0	0	0	300
2019/11/26 17:57:00	BASE	3.70	310	4.63	319	0.8	100	0.8	489	0	995.6	NA	0.0000		9999	0	0	0	300
2019/11/26 17:58:00	BASE	3.66	310	4.37	318	0.8	100	0.8	509	0	995.9	NA	0.0000		9999	0	0	0	330
2019/11/26 17:59:00	BASE	3.95	310	4.32	311	0.8	100	0.8	513	0	996.0	NA	0.0000	BR	9999	430	21650	0	0
2019/11/26 18:00:00	BASE	4.22	311	4.42	312	0.8	100	0.8	527	0	996.0	NA	0.0000	BR	9000	360	0	0	0
2019/11/26 18:01:00	BASE	4.23	312	4.42	312	0.8	100	0.8	510	0	995.9	NA	0.0000	BR	7000	0	0	0	460
2019/11/26 18:02:00	BASE	4.20	312	4.42	312	0.7	100	0.7	483	0	996.0	NA	0.0000	BR	9999	0	0	0	390
2019/11/26 18:03:00	BASE	4.06	312	4.42	312	0.7	100	0.7	468	0	996.0	NA	0.0000		9999	0	0	0	460
2019/11/26 18:04:00	BASE	3.84	311	4.42	312	0.6	100	0.6	470	0	996.0	NA	0.0000		9999	0	0	0	430
2019/11/26 18:05:00	BASE	3.72	311	4.42	312	0.6	100	0.6	467	0	996.0	NA	0.0000		9999	0	0	0	390
2019/11/26 18:06:00	BASE	3.79	312	4.42	312	0.5	100	0.5	451	0	995.6	NA	0.0000		9999	0	0	0	490
2019/11/26 18:07:00	BASE	3.80	313	4.42	312	0.5	100	0.5	434	0	995.9	NA	0.0000		9999	0	0	0	460
2019/11/26 18:08:00	BASE	3.61	312	4.42	312	0.4	100	0.4	414	0	995.9	NA	0.0000		9999	0	0	0	460
2019/11/26 18:09:00	BASE	3.60	312	4.42	312	0.3	100	0.3	452	0	995.9	NA	0.0000		9999	0	0	0	390
2019/11/26 18:10:00	BASE	3.75	315	4.37	311	0.3	100	0.3	473	0	995.9	NA	0.0000		9999	0	0	0	460
2019/11/26 18:11:00	BASE	3.80	315	4.32	308	0.3	100	0.3	486	0	995.9	NA	0.0000		9999	0	0	0	430
2019/11/26 18:12:00	BASE	3.80	313	4.17	309	0.3	100	0.3	507	0	995.9	NA	0.0000		9999	0	0	0	430
2019/11/26 18:13:00	BASE	3.62	310	4.12	316	0.3	100	0.3	489	0	995.9	NA	0.0000		9999	0	0	0	430
2019/11/26 18:14:00	BASE	3.42	307	4.12	316	0.4	100	0.4	509	0	995.8	NA	0.0000		9999	0	0	0	430
2019/11/26 18:15:00	BASE	3.40	304	4.12	316	0.4	100	0.4	519	0	995.8	NA	0.0000		9999	0	0	0	390
2019/11/26 18:16:00	BASE	3.29	303	4.12	316	0.4	100	0.4	475	0	995.8	NA	0.0000		9999	22700	0	0	0
2019/11/26 18:17:00	BASE	3.23	302	4.12	316	0.5	100	0.5	445	0	995.8	NA	0.0000		9999	0	0	0	330
2019/11/26 18:18:00	BASE	3.23	301	4.12	316	0.5	100	0.5	407	0	995.8	NA	0.0000		9999	0	0	0	330
2019/11/26 18:19:00	BASE	3.15	301	4.12	316	0.5	100	0.5	437	0	995.7	NA	0.0000		9999	0	0	0	300
2019/11/26 18:20:00	BASE	3.08	300	4.06	315	0.4	100	0.4	461	0	995.8	NA	0.0000		9999	0	0	0	300
2019/11/26 18:21:00	BASE	3.19	299	4.06	315	0.4	100	0.4	445	0	995.8	NA	0.0000		9999	0	0	0	360
2019/11/26 18:22:00	BASE	3.15	296	3.76	306	0.3	100	0.3	445	0	995.8	NA	0.0000		9999	0	0	0	390
2019/11/26 18:23:00	BASE	3.09	291	3.76	306	0.2	100	0.2	418	0	995.8	NA	0.0000		9999	0	0	0	460
2019/11/26 18:24:00	BASE	3.00	285	3.55	304	0.2	100	0.2	415	0	995.8	NA	0.0000		9999	0	0	0	490
2019/11/26 18:25:00	BASE	2.79	278	3.55	260	0.1	100	0.1	406	0	995.8	NA	0.0000		9999	0	0	0	430
2019/11/26 18:26:00	BASE	2.77	269	3.55	260	0.1	100	0.1	409	0	995.5	NA	0.0000		9999	0	0	0	330
2019/11/26 18:27:00	BASE	2.99	266	3.70	268	0.0	100	0.0	401	0	995.8	NA	0.0000		9999	0	0	0	390
2019/11/26 18:28:00	BASE	3.04	270	3.70	268	-0.0	100	-0.0	428	0	995.8	NA	0.0000		9999	0	0	0	390
2019/11/26 18:29:00	BASE	2.70	275	3.70	268	-0.1	100	-0.1	488	0	995.8	NA	0.0000		9999	0	0	0	430
2019/11/26 18:30:00	BASE	2.65	275	3.70	268	-0.2	100	-0.2	477	0	995.8	NA	0.0000		9999	0	0	0	490
2019/11/26 18:31:00	BASE	2.52	266	3.70	268	-0.3	100	-0.3	461	0	995.5	NA	0.0000		9999	0	0	0	490
2019/11/26 18:32:00	BASE	2.42	265	3.70	268	-0.3	100	-0.3	422	0	995.8	NA	0.0000		9999	0	0	0	520
2019/11/26 18:33:00	BASE	2.33	272	3.70	268	-0.4	100	-0.4	421	0	995.8	NA	0.0000		9999	0	0	0	560
2019/11/26 18:34:00	BASE	2.24	279	3.70	268	-0.4	100	-0.4	483	0	995.8	NA	0.0000		9999	0	0	0	560
2019/11/26 18:35:00	BASE	2.07	290	3.70	268	-0.4	100	-0.4	468	0	995.8	NA	0.0000		9999	300	22570	0	0
2019/11/26 18:36:00	BASE	1.77	291	3.70	268	-0.4	100	-0.4	423	0	995.8	NA	0.0000		9999	0	0	0	620
2019/11/26 18:37:00	BASE	1.87	285	3.45	271	-0.3	100	-0.3	380	0	995.8	NA	0.0000		9999	0	0	0	620
2019/11/26 18:38:00	BASE	1.91	288	3.09	277	-0.2	100	-0.2	394	0	995.8	NA	0.0000		9999	0	0	0	690
2019/11/26 18:39:00	BASE	1.84	295	3.09	277	-0.2	100	-0.2	399	0	995.8	NA	0.0000		8000	0	0	0	620
2019/11/26 18:40:00	BASE	1.97	300	3.09	277	-0.1	100	-0.1	386	0	995.8	NA	0.0000		9999	0	0	0	590
2019/11/26 18:41:00	BASE	2.23	300	3.09	277	-0.2	100	-0.2	363	0	995.8	NA	0.0000		9999	0	0	0	620
2019/11/26 18:42:00	BASE	2.13	301	3.09	277	-0.2	100	-0.2	367	0	995.8	NA	0.0000		9999	0	0	0	560
2019/11/26 18:43:00	BASE	1.94	307	2.73	287	-0.3	100	-0.3	364	0	995.8	NA	0.0000		9999	0	0	0	490
2019/11/26 18:44:00	BASE	1.85	310	2.42	303	-0.4	100	-0.4	371	0	995.8	NA	0.0000		9999	0	0	0	460
2019/11/26 18:45:00	BASE	1.90	311	2.42	303	-0.4	100	-0.4	365	0	995.5	NA	0.0000		9999	0	0	0	490
2019/11/26 18:46:00	BASE	2.04	312	2.42	303	-0.5	100	-0.5	343	0	995.9	NA	0.0000		9999	0	0	0	490
2019/11/26 18:47:00	BASE	1.92	315	2.42	303	-0.5	100	-0.5	352	0	995.9	NA	0.0000		9999	0	0	0	460
2019/11/26 18:48:00	BASE	1.88	320	2.42	303	-0.4	100	-0.4	359	0	995.9	NA	0.0000		9999	22210	0	0	0
2019/11/26 18:49:00	BASE	1.93	323	2.42	303	-0.4	100	-0.4	360	0	995.9	NA	0.0000		9999	0	0	0	520
2019/11/26 18:50:00	BASE	1.87	324	2.42	303	-0.4	100	-0.4	344	0	995.9	NA	0.0000		9999	22900	0	0	0
2019/11/26 18:51:00	BASE	1.92	322	2.31	307	-0.4	100	-0.4	356	0	995.8	NA	0.0000		9999	0	0	0	560
2019/11/26 18:52:00	BASE	2.11	326	2.47	326	-0.4	100	-0.4	375	0	995.8	NA	0.0000		9999	0	0	0	560
2019/11/26 18:53:00	BASE	2.42	333	2.73	340	-0.4	100	-0.4	384	0	995.7	NA	0.0000		9999	0	0	0	460
2019/11/26 18:54:00	BASE	2.55	335	2.73	340	-0.3	100	-0.3	380	0	995.7	NA	0.0000		9999	0	0	0	360
2019/11/26 18:55:00	BASE	2.38	335	2.73	340	-0.3	100	-0.3	365	0	995.8	NA	0.0000		9999	0	0	0	390
2019/11/26 18:56:00	BASE	2.07	336	2.73	340	-0.2	100	-0.2	351	0	995.7	NA	0.0000		9999	0	0	0	460
2019/11/26 18:57:00	BASE	1.79	341	2.73	340	-0.1	100	-0.1	317	0	995.7	NA	0.0000		9999	0	0	0	490
2019/11/26 18:58:00	BASE	1.81	340	2.73	340	-0.1	100	-0.1	322	0	995.6	NA	0.0000		9999	0	0	0	490
2019/11/26 18:59:00	BASE	1.99	339	2.73	340	-0.1	100	-0.1	332	0	995.6	NA	0.0000		9999	160	0	0	0
2019/11/26 19:00:00	BASE	2.10	339	2.73	340	-0.1	100	-0.1	343	0	995.5	NA	0.0000		9999	0	0	0	460
2019/11/26 19:01:00	BASE	2.12	341	2.73	340	-0.1	100	-0.1	349	0	995.5	NA	0.0000		9999	160	18830	0	0
2019/11/26 19:02:00	BASE	2.12	344	2.73	340	-0.1	100	-0.1	353	0	995.5	NA	0.0000		9999	160	0	0	0
2019/11/26 19:03:00	BASE	1.95	344	2.68	338	-0.0	100	-0.0	361	0	995.7	NA	0.0000		9999	160	21950	0	0
2019/11/26 19:04:00	BASE	1.72	345	2.47	335	0.0	100	0.0	359	0	995.7	NA	0.0000		9999	160	0	0	0
2019/11/26 19:05:00	BASE	1.79	345	2.31	343	0.1	100	0.1	348	0	995.7	NA	0.0000		9999	160	0	0	0
2019/11/26 19:06:00	BASE	1.97	345	2.31	343	0.1	100	0.1	347	0	995.7	NA	0.0000		9999	160	0	0	0
2019/11/26 19:07:00	BASE	2.10	347	2.42	350	0.1	100	0.1	341	0	995.7	NA	0.0000		9999	160	0	0	0
2019/11/26 19:08:00	BASE	2.39	350	2.68	355	0.0	100	0.0	337	0	995.7	NA	0.0000		9999	0	0	0	430
2019/11/26 19:09:00	BASE	2.58	355	2.68	354	-0.0	100	-0.0	334	0	995.6	NA	0.0000		9999	0	0	0	460
2019/11/26 19:10:00	BASE	2.62	355	2.83	352	-0.1	100	-0.1	332	0	995.5	NA	0.0000		9999	160	0	0	0
2019/11/26 19:11:00	BASE	2.68	353	2.88	353	-0.1	100	-0.1	321	0	995.5	NA	0.0000		9999	160	0	0	0
2019/11/26 19:12:00	BASE	2.64	351	2.98	350	-0.0	100	-0.0	318	0	995.5	NA	0.0000		9999	0	0	0	390
2019/11/26 19:13:00	BASE	2.82	354	3.24	1	0.0	100	0.0	320	0	995.5	NA	0.0000		9999	0	0	0	330
2019/11/26 19:14:00	BASE	2.87	1	3.24	1	0.0	100	0.0	326	0	995.5	NA	0.0000		9999	0	0	0	300
2019/11/26 19:15:00	BASE	2.70	355	3.24	1	0.0	100	0.0	323	0	995.5	NA	0.0000		9999	18730	0	0	0
2019/11/26 19:16:00	BASE	2.64	344	3.24	1	0.1	100	0.0	318	0	995.5	NA	0.0000		9999	0	0	0	360
2019/11/26 19:17:00	BASE	2.77	339	3.24	1	0.0	100	0.0	310	0	995.5	NA	0.0000		9999	0	0	0	390
2019/11/26 19:18:00	BASE	2.90	338	3.24	1	0.0	100	0.0	312	0	995.5	NA	0.0000		9999	160	0	0	0
2019/11/26 19:19:00	BASE	2.77	339	3.24	1	0.0	100	0.0	316	0	995.5	NA	0.0000		9999	0	0	0	390
2019/11/26 19:20:00	BASE	2.59	333	3.24	1	0.1	100	0.1	322	0	995.5	NA	0.0000		9999	160	22670	0	0
2019/11/26 19:21:00	BASE	2.71	324	3.24	1	0.1	100	0.1	331	0	995.5	NA	0.0000		9999	160	0	0	0
2019/11/26 19:22:00	BASE	2.97	321	3.24	1	0.1	100	0.1	333	0	995.5	NA	0.0000		9999	160	0	0	0
2019/11/26 19:23:00	BASE	2.95	321	3.19	317	0.2	100	0.2	339	0	995.5	NA	0.0000		9999	160	22210	0	0
2019/11/26 19:24:00	BASE	2.95	320	3.24	321	0.2	100	0.2	326	0	995.6	NA	0.0000		9999	200	0	0	0
2019/11/26 19:25:00	BASE	2.98	311	3.34	299	0.1	100	0.1	316	0	995.7	NA	0.0000		9999	160	0	0	0
2019/11/26 19:26:00	BASE	3.20	300	3.70	298	0.2	100	0.2	324	0	995.7	NA	0.0000		9999	160	0	0	0
2019/11/26 19:27:00	BASE	3.47	300	3.76	302	0.2	100	0.2	328	0	995.7	NA	0.0000		9999	160	0	0	0
2019/11/26 19:28:00	BASE	3.49	303	3.76	302	0.2	100	0.2	321	0	995.7	NA	0.0000		9999	160	0	0	0
2019/11/26 19:29:00	BASE	3.47	306	3.76	302	0.2	100	0.2	315	0	995.4	NA	0.0000		9999	0	0	0	360
2019/11/26 19:30:00	BASE	3.45	307	3.76	302	0.2	100	0.2	315	0	995.7	NA	0.0000		9999	0	0	0	390
2019/11/26 19:31:00	BASE	3.32	305	3.76	302	0.1	100	0.1	308	0	995.7	NA	0.0000		9999	22870	24380	0	0
2019/11/26 19:32:00	BASE	3.34	303	3.76	302	0.1	100	0.1	300	0	995.7	NA	0.0000		9999	0	0	0	390
2019/11/26 19:33:00	BASE	3.43	304	3.76	302	0.0	100	0.0	294	0	995.7	NA	0.0000		9999	0	0	0	360
2019/11/26 19:34:00	BASE	3.36	306	3.76	302	0.0	100	0.0	288	0	995.7	NA	0.0000		9999	0	0	0	360
2019/11/26 19:35:00	BASE	3.21	306	3.76	302	-0.0	100	-0.0	285	0	995.7	NA	0.0000		9999	0	0	0	330
2019/11/26 19:36:00	BASE	2.96	308	3.76	302	-0.1	100	-0.1	283	0	995.7	NA	0.0000		9999	0	0	0	300
2019/11/26 19:37:00	BASE	2.71	309	3.65	309	-0.2	100	-0.2	276	0	995.7	NA	0.0000		9999	0	0	0	260
2019/11/26 19:38:00	BASE	2.49	305	3.65	309	-0.2	100	-0.2	266	0	995.7	NA	0.0000		9999	0	0	0	330
2019/11/26 19:39:00	BASE	2.53	297	3.65	309	-0.2	100	-0.2	254	0	995.6	NA	0.0000		9999	0	0	0	360
2019/11/26 19:40:00	BASE	2.66	294	3.60	302	-0.2	100	-0.2	252	0	995.5	NA	0.0000		9999	0	0	0	360
2019/11/26 19:41:00	BASE	2.59	297	3.60	302	-0.3	100	-0.3	250	0	995.5	NA	0.0000		3500	0	0	0	330
2019/11/26 19:42:00	BASE	2.52	303	3.55	308	-0.3	100	-0.3	255	0	995.5	NA	0.0000	BR	3300	22930	0	0	0
2019/11/26 19:43:00	BASE	2.51	305	3.55	308	-0.3	100	-0.3	253	0	995.5	NA	0.0000	BR	2600	0	0	0	300
2019/11/26 19:44:00	BASE	2.55	305	3.29	304	-0.3	100	-0.3	250	0	995.5	NA	0.0000	BR	3600	0	0	0	300
2019/11/26 19:45:00	BASE	2.76	301	3.04	307	-0.3	100	-0.3	243	0	995.5	NA	0.0000	BR	3100	0	0	0	330
2019/11/26 19:46:00	BASE	2.92	298	2.98	296	-0.3	100	-0.3	238	0	995.5	NA	0.0000	BR	2300	0	0	0	360
2019/11/26 19:47:00	BASE	2.91	297	3.09	300	-0.3	100	-0.3	232	0	995.5	NA	0.0000	BR	2500	0	0	0	360
2019/11/26 19:48:00	BASE	2.92	297	3.09	295	-0.2	100	-0.2	230	0	995.5	NA	0.0000	BR	2500	0	0	0	360
2019/11/26 19:49:00	BASE	2.84	297	3.09	295	-0.2	100	-0.2	227	0	995.5	NA	0.0000	BR	3100	0	0	0	330
2019/11/26 19:50:00	BASE	2.65	298	3.09	295	-0.2	100	-0.2	224	0	995.4	NA	0.0000	BR	3300	0	0	0	330
2019/11/26 19:51:00	BASE	2.37	297	3.09	295	-0.2	100	-0.2	218	0	995.3	NA	0.0000	BR	3600	0	0	0	360
2019/11/26 19:52:00	BASE	2.16	295	3.09	295	-0.1	100	-0.1	213	0	995.5	NA	0.0000	BR	4300	0	0	0	390
2019/11/26 19:53:00	BASE	2.14	293	3.09	295	-0.1	100	-0.1	214	0	995.4	NA	0.0000	BR	7000	0	0	0	360
2019/11/26 19:54:00	BASE	2.15	292	3.09	295	-0.1	100	-0.1	217	0	995.4	NA	0.0000	BR	5000	0	0	0	360
2019/11/26 19:55:00	BASE	2.03	292	3.09	295	-0.1	100	-0.1	219	0	995.4	NA	0.0000	BR	3700	0	0	0	360
2019/11/26 19:56:00	BASE	1.93	292	3.09	295	-0.2	100	-0.2	220	0	995.4	NA	0.0000	BR	4400	0	0	0	360
2019/11/26 19:57:00	BASE	1.95	292	3.09	295	-0.2	100	-0.2	221	0	995.5	NA	0.0000	BR	4400	0	0	0	360
2019/11/26 19:58:00	BASE	2.04	293	2.98	296	-0.3	100	-0.3	222	0	995.5	NA	0.0000	BR	3700	0	0	0	360
2019/11/26 19:59:00	BASE	2.18	294	2.68	298	-0.3	100	-0.3	221	0	995.5	NA	0.0000	BR	4700	0	0	0	390
2019/11/26 20:00:00	BASE	2.26	294	2.52	294	-0.2	100	-0.2	216	0	995.5	NA	0.0000	BR	7000	0	0	0	360
2019/11/26 20:01:00	BASE	2.23	294	2.52	294	-0.2	100	-0.2	215	0	995.5	NA	0.0000	BR	9000	0	0	0	360
2019/11/26 20:02:00	BASE	2.18	294	2.52	294	-0.2	100	-0.2	212	0	995.5	NA	0.0000	BR	9999	21060	0	0	0
2019/11/26 20:03:00	BASE	2.10	292	2.52	294	-0.2	100	-0.2	208	0	995.5	NA	0.0000	BR	9999	0	0	0	390
2019/11/26 20:04:00	BASE	2.04	293	2.52	294	-0.3	100	-0.3	203	0	995.5	NA	0.0000	BR	7000	0	0	0	360
2019/11/26 20:05:00	BASE	1.94	294	2.52	294	-0.3	100	-0.3	201	0	995.5	NA	0.0000	BR	9000	0	0	0	390
2019/11/26 20:06:00	BASE	1.88	294	2.52	294	-0.3	100	-0.3	198	0	995.5	NA	0.0000	BR	6000	0	0	0	430
2019/11/26 20:07:00	BASE	1.79	293	2.52	294	-0.4	100	-0.4	196	0	995.5	NA	0.0000	BR	3800	0	0	0	390
2019/11/26 20:08:00	BASE	1.61	293	2.52	294	-0.4	100	-0.4	195	0	995.5	NA	0.0000	BR	5000	0	0	0	390
2019/11/26 20:09:00	BASE	1.57	298	2.52	294	-0.3	100	-0.3	195	0	995.5	NA	0.0000	BR	3100	0	0	0	390
2019/11/26 20:10:00	BASE	1.63	300	2.42	293	-0.3	100	-0.3	194	0	995.3	NA	0.0000	BR	5000	0	0	0	390
2019/11/26 20:11:00	BASE	1.69	298	2.42	293	-0.3	100	-0.3	192	0	995.4	NA	0.0000	BR	6000	0	0	0	390
2019/11/26 20:12:00	BASE	1.72	297	2.21	293	-0.3	100	-0.3	188	0	995.4	NA	0.0000	BR	7000	0	0	0	390
2019/11/26 20:13:00	BASE	1.66	299	2.21	293	-0.3	100	-0.3	190	0	995.4	NA	0.0000	BR	5000	0	0	0	390
2019/11/26 20:14:00	BASE	1.63	301	2.21	293	-0.3	100	-0.3	191	0	995.4	NA	0.0000	BR	8000	0	0	0	360
2019/11/26 20:15:00	BASE	1.66	299	2.06	294	-0.3	100	-0.3	189	0	995.4	NA	0.0000	BR	9999	0	0	0	390
2019/11/26 20:16:00	BASE	1.58	297	1.90	298	-0.2	100	-0.2	189	0	995.4	NA	0.0000	BR	9000	0	0	0	390
2019/11/26 20:17:00	BASE	1.52	299	1.90	298	-0.2	100	-0.2	187	0	995.1	NA	0.0000	BR	9999	0	0	0	390
2019/11/26 20:18:00	BASE	1.54	300	1.90	298	-0.2	100	-0.2	187	0	995.3	NA	0.0000	BR	6000	0	0	0	360
2019/11/26 20:19:00	BASE	1.50	300	1.90	298	-0.2	100	-0.2	185	0	995.3	NA	0.0000	BR	5000	0	0	0	360
2019/11/26 20:20:00	BASE	1.38	301	1.85	299	-0.1	100	-0.1	184	0	995.3	NA	0.0000	BR	5000	21920	22970	0	0
2019/11/26 20:21:00	BASE	1.12	305	1.85	299	-0.2	100	-0.2	181	0	995.3	NA	0.0000	BR	3900	0	0	0	360
2019/11/26 20:22:00	BASE	0.99	308	1.80	297	-0.2	100	-0.2	180	0	995.3	NA	0.0000	BR	2700	0	0	0	330
2019/11/26 20:23:00	BASE	0.91	307	1.80	297	-0.3	100	-0.3	179	0	995.3	NA	0.0000	BR	3800	0	0	0	330
2019/11/26 20:24:00	BASE	0.76	312	1.80	297	-0.3	100	-0.3	177	0	995.3	NA	0.0000	BR	4100	0	0	0	330
2019/11/26 20:25:00	BASE	0.57	319	1.75	297	-0.3	100	-0.3	177	0	995.3	NA	0.0000	BR	7000	0	0	0	360
2019/11/26 20:26:00	BASE	0.42	316	1.75	297	-0.3	100	-0.3	177	0	995.3	NA	0.0000	BR	6000	0	0	0	330
2019/11/26 20:27:00	BASE	0.28	306	1.75	297	-0.4	100	-0.4	178	0	995.3	NA	0.0000	BR	8000	0	0	0	330
2019/11/26 20:28:00	BASE	0.18	305	1.70	303	-0.4	100	-0.4	179	0	995.3	NA	0.0000	BR	8000	0	0	0	330
2019/11/26 20:29:00	BASE	0.18	309	1.44	301	-0.4	100	-0.4	184	0	995.3	NA	0.0000	BR	8000	0	0	0	330
2019/11/26 20:30:00	BASE	0.04	310	1.39	315	-0.4	100	-0.4	187	0	995.3	NA	0.0000	BR	5000	0	0	0	300
2019/11/26 20:31:00	BASE	0.00	316	1.39	315	-0.3	100	-0.3	188	0	995.3	NA	0.0000	BR	3600	0	0	0	300
2019/11/26 20:32:00	BASE	0.00	322	1.39	315	-0.3	100	-0.3	185	0	995.3	NA	0.0000	BR	5000	0	0	0	230
2019/11/26 20:33:00	BASE	0.00	325	1.39	315	-0.3	100	-0.3	183	0	995.2	NA	0.0000	BR	3200	0	0	0	230
2019/11/26 20:34:00	BASE	0.00	332	1.29	312	-0.3	100	-0.3	182	0	995.2	NA	0.0000	BR	2600	0	0	0	200
2019/11/26 20:35:00	BASE	0.00	336	1.29	312	-0.3	100	-0.3	182	0	995.2	NA	0.0000	BR	3000	0	0	0	100
2019/11/26 20:36:00	BASE	0.00	321	1.13	326	-0.2	100	-0.2	181	0	995.1	NA	0.0000	BR	5000	0	0	0	100
2019/11/26 20:37:00	BASE	0.00	305	1.13	326	-0.2	100	-0.2	182	0	995.1	NA	0.0000	BR	4900	0	0	0	100
2019/11/26 20:38:00	BASE	0.00	302	1.03	296	-0.1	100	-0.1	183	0	995.1	NA	0.0000	BR	5000	0	0	0	200
2019/11/26 20:39:00	BASE	0.00	303	M	M	-0.1	100	-0.1	184	0	995.1	NA	0.0000	BR	4800	0	0	0	200
2019/11/26 20:40:00	BASE	0.00	295	M	M	-0.1	100	-0.1	186	0	995.1	NA	0.0000	BR	4300	0	0	0	300
2019/11/26 20:41:00	BASE	0.00	304	M	M	-0.1	100	-0.1	186	0	995.1	NA	0.0000	BR	4900	160	0	0	0
2019/11/26 20:42:00	BASE	0.00	327	M	M	-0.1	100	-0.1	183	0	995.1	NA	0.0000	BR	5000	0	0	0	100
2019/11/26 20:43:00	BASE	0.00	322	M	M	-0.2	100	-0.2	179	0	995.1	NA	0.0000	BR	6000	160	0	0	0
2019/11/26 20:44:00	BASE	0.23	300	1.13	288	-0.2	100	-0.2	178	0	995.1	NA	0.0000	BR	4300	0	0	0	260
2019/11/26 20:45:00	BASE	0.36	294	1.13	305	-0.2	100	-0.2	177	0	995.0	NA	0.0000	BR	2200	0	0	0	230
2019/11/26 20:46:00	BASE	0.50	299	1.18	298	-0.3	100	-0.3	176	0	995.1	NA	0.0000	BR	1600	0	0	0	200
2019/11/26 20:47:00	BASE	0.56	305	1.18	302	-0.3	100	-0.3	173	0	995.1	NA	0.0000	BR	2600	0	0	0	130
2019/11/26 20:48:00	BASE	0.55	304	1.18	301	-0.4	100	-0.4	170	0	995.0	NA	0.0000	BR	2300	0	0	0	30
2019/11/26 20:49:00	BASE	0.40	298	1.18	301	-0.4	100	-0.4	167	0	995.0	NA	0.0000	BR	1800	0	0	0	0
2019/11/26 20:50:00	BASE	0.05	293	1.18	301	-0.4	100	-0.4	164	0	995.0	NA	0.0000	BR	2200	0	0	0	0
2019/11/26 20:51:00	BASE	0.00	281	1.18	301	-0.4	100	-0.4	163	0	994.9	NA	0.0000	BR	1600	0	0	0	30
2019/11/26 20:52:00	BASE	0.00	270	1.18	301	-0.5	100	-0.5	164	0	995.0	NA	0.0000	BR	1500	0	0	0	30
2019/11/26 20:53:00	BASE	0.00	274	1.18	301	-0.5	100	-0.5	164	0	995.0	NA	0.0000	BR	1600	0	0	0	30
2019/11/26 20:54:00	BASE	0.00	276	1.18	301	-0.5	100	-0.5	163	0	995.0	NA	0.0000	BR	1900	0	0	0	30
2019/11/26 20:55:00	BASE	0.00	265	1.18	301	-0.5	100	-0.5	163	0	995.0	NA	0.0000	BR	4200	0	0	0	0
2019/11/26 20:56:00	BASE	0.00	266	1.18	301	-0.5	100	-0.5	161	0	995.0	NA	0.0000	BR	5000	0	0	0	0
2019/11/26 20:57:00	BASE	0.00	265	1.18	301	-0.5	100	-0.5	158	0	995.0	NA	0.0000	BR	3600	1120	0	0	0
2019/11/26 20:58:00	BASE	0.00	259	1.08	307	-0.5	100	-0.5	156	0	995.0	NA	0.0000	BR	4400	1080	0	0	0
2019/11/26 20:59:00	BASE	0.00	250	M	M	-0.5	100	-0.5	156	0	994.9	NA	0.0000	BR	3000	1050	0	0	0
2019/11/26 21:00:00	BASE	0.00	229	M	M	-0.5	100	-0.5	155	0	994.9	NA	0.0000	BR	3700	1050	0	0	0
2019/11/26 21:01:00	BASE	0.00	220	M	M	-0.6	100	-0.6	155	0	994.9	NA	0.0000	BR	6000	1050	0	0	0
2019/11/26 21:02:00	BASE	0.00	227	M	M	-0.6	100	-0.6	154	0	994.9	NA	0.0000	BR	7000	1020	0	0	0
2019/11/26 21:03:00	BASE	0.04	232	1.03	233	-0.6	100	-0.6	153	0	994.8	NA	0.0000	BR	9999	1020	0	0	0
2019/11/26 21:04:00	BASE	0.04	233	1.03	233	-0.6	100	-0.6	152	0	994.8	NA	0.0000	BR	9999	1050	0	0	0
2019/11/26 21:05:00	BASE	0.00	229	1.03	233	-0.5	100	-0.5	149	0	994.8	NA	0.0000	BR	9999	1050	0	0	0
2019/11/26 21:06:00	BASE	0.00	231	1.03	233	-0.5	100	-0.5	147	0	994.8	NA	0.0000	BR	9999	1050	0	0	0
2019/11/26 21:07:00	BASE	0.00	233	1.03	233	-0.5	100	-0.5	146	0	994.8	NA	0.0000	BR	9999	1020	0	0	0
2019/11/26 21:08:00	BASE	0.00	231	1.03	233	-0.4	100	-0.4	144	0	994.8	NA	0.0000	BR	9999	1120	0	0	0
2019/11/26 21:09:00	BASE	0.00	231	1.03	233	-0.4	100	-0.4	143	0	994.8	NA	0.0000	BR	9999	1020	0	0	0
2019/11/26 21:10:00	BASE	0.00	242	1.03	233	-0.3	100	-0.3	142	0	994.8	NA	0.0000		9999	950	0	0	0
2019/11/26 21:11:00	BASE	0.00	285	1.03	233	-0.3	100	-0.3	141	0	994.8	NA	0.0000		9999	950	0	0	0
2019/11/26 21:12:00	BASE	0.51	325	1.44	348	-0.2	100	-0.2	140	0	994.8	NA	0.0000		9999	980	0	0	0
2019/11/26 21:13:00	BASE	1.12	350	1.44	348	-0.3	100	-0.3	140	0	994.8	NA	0.0000		9999	980	0	0	0
2019/11/26 21:14:00	BASE	0.86	358	1.44	348	-0.3	100	-0.3	139	0	994.8	NA	0.0000		9999	920	0	0	0
2019/11/26 21:15:00	BASE	0.41	4	1.44	348	-0.4	100	-0.4	140	0	994.7	NA	0.0000		9999	850	0	0	0
2019/11/26 21:16:00	BASE	0.14	2	1.44	348	-0.4	100	-0.4	140	0	994.7	NA	0.0000		9999	980	0	0	0
2019/11/26 21:17:00	BASE	0.00	345	1.44	348	-0.4	100	-0.4	140	0	994.7	NA	0.0000		9999	950	0	0	0
2019/11/26 21:18:00	BASE	0.00	329	1.44	348	-0.3	100	-0.3	140	0	994.7	NA	0.0000		9999	980	0	0	0
2019/11/26 21:19:00	BASE	0.00	323	1.44	348	-0.2	100	-0.2	140	0	994.7	NA	0.0000		9999	950	0	0	0
2019/11/26 21:20:00	BASE	0.00	326	1.44	348	-0.2	100	-0.2	141	0	994.7	NA	0.0000		9999	980	0	0	0
2019/11/26 21:21:00	BASE	0.00	332	1.44	348	-0.2	100	-0.2	141	0	994.7	NA	0.0000		9999	950	0	0	0
2019/11/26 21:22:00	BASE	0.00	339	1.29	352	-0.1	100	-0.1	141	0	994.7	NA	0.0000		9999	950	0	0	0
2019/11/26 21:23:00	BASE	0.05	349	1.18	6	-0.2	100	-0.2	141	0	994.7	NA	0.0000		9999	950	0	0	0
2019/11/26 21:24:00	BASE	0.47	356	1.29	354	-0.2	100	-0.2	139	0	994.7	NA	0.0000		9999	950	0	0	0
2019/11/26 21:25:00	BASE	0.73	354	1.29	354	-0.1	100	-0.1	136	0	994.7	NA	0.0000		9999	980	0	0	0
2019/11/26 21:26:00	BASE	0.35	353	1.29	354	-0.1	100	-0.1	134	0	994.7	NA	0.0000		9999	980	0	0	0
2019/11/26 21:27:00	BASE	0.05	352	1.29	354	-0.2	100	-0.2	133	0	994.6	NA	0.0000		9999	890	0	0	0
2019/11/26 21:28:00	BASE	0.05	352	1.29	354	-0.2	100	-0.2	131	0	994.6	NA	0.0000		9999	820	0	0	0
2019/11/26 21:29:00	BASE	0.19	358	1.29	354	-0.3	100	-0.3	127	0	994.6	NA	0.0000		9999	12070	0	0	0
2019/11/26 21:30:00	BASE	0.38	354	1.34	344	-0.3	100	-0.3	123	0	994.6	NA	0.0000		9999	1020	0	0	0
2019/11/26 21:31:00	BASE	0.84	356	1.44	360	-0.3	100	-0.3	120	0	994.6	NA	0.0000		9000	1050	0	0	0
2019/11/26 21:32:00	BASE	1.24	1	1.49	10	-0.3	100	-0.3	117	0	994.6	NA	0.0000		4100	0	0	0	30
2019/11/26 21:33:00	BASE	1.31	6	1.49	10	-0.4	100	-0.4	115	0	994.6	NA	0.0000	BR	2300	0	0	0	70
2019/11/26 21:34:00	BASE	1.23	14	1.49	10	-0.4	100	-0.4	115	0	994.6	NA	0.0000	BR	2500	0	0	0	100
2019/11/26 21:35:00	BASE	1.09	15	1.49	10	-0.5	100	-0.5	115	0	994.6	NA	0.0000	BR	3100	0	0	0	100
2019/11/26 21:36:00	BASE	1.13	15	1.49	10	-0.5	100	-0.5	115	0	994.6	NA	0.0000	BR	2600	0	0	0	130
2019/11/26 21:37:00	BASE	1.08	10	1.49	10	-0.5	100	-0.5	113	0	994.6	NA	0.0000	BR	2400	0	0	0	130
2019/11/26 21:38:00	BASE	0.90	7	1.49	10	-0.5	100	-0.5	113	0	994.6	NA	0.0000	BR	2100	0	0	0	160
2019/11/26 21:39:00	BASE	0.84	13	1.49	10	-0.5	100	-0.5	112	0	994.5	NA	0.0000	BR	1900	0	0	0	100
2019/11/26 21:40:01	BASE	0.68	17	1.49	10	-0.5	100	-0.5	111	0	994.6	NA	0.0000	BR	2800	0	0	0	200
2019/11/26 21:41:00	BASE	0.40	17	1.49	10	-0.5	100	-0.5	109	0	994.6	NA	0.0000	BR	3000	0	0	0	130
2019/11/26 21:42:00	BASE	0.50	16	1.39	18	-0.4	100	-0.4	108	0	994.5	NA	0.0000	BR	3900	1150	0	0	0
2019/11/26 21:43:00	BASE	0.79	11	1.39	18	-0.4	100	-0.4	106	0	994.5	NA	0.0000	BR	7000	13260	0	0	0
2019/11/26 21:44:00	BASE	0.69	5	1.39	18	-0.4	100	-0.4	104	0	994.5	NA	0.0000	BR	9999	12990	0	0	0
2019/11/26 21:45:00	BASE	0.54	1	1.39	18	-0.3	100	-0.3	102	0	994.5	NA	0.0000	BR	9999	12860	0	0	0
2019/11/26 21:46:00	BASE	0.36	354	1.29	360	-0.3	100	-0.3	101	0	994.5	NA	0.0000	BR	9999	12760	0	0	0
2019/11/26 21:47:00	BASE	0.45	349	1.29	360	-0.3	100	-0.3	100	0	994.5	NA	0.0000	BR	9999	12700	0	0	0
2019/11/26 21:48:00	BASE	0.84	348	1.29	360	-0.3	100	-0.3	99	0	994.5	NA	0.0000	BR	9999	10300	0	0	0
2019/11/26 21:49:00	BASE	1.13	347	1.54	341	-0.3	100	-0.3	98	0	994.3	NA	0.0000	BR	9999	11350	0	0	0
2019/11/26 21:50:00	BASE	1.31	343	1.54	341	-0.4	100	-0.4	96	0	994.3	NA	0.0000	BR	9999	10400	0	0	0
2019/11/26 21:51:00	BASE	1.32	345	1.54	341	-0.4	100	-0.4	94	0	994.5	NA	0.0000		9999	10560	11580	0	0
2019/11/26 21:52:00	BASE	1.38	343	1.54	339	-0.4	100	-0.4	93	0	994.5	NA	0.0000		9999	10500	0	0	0
2019/11/26 21:53:00	BASE	1.37	337	1.54	339	-0.5	100	-0.5	91	0	994.5	NA	0.0000		6000	10500	0	0	0
2019/11/26 21:54:00	BASE	1.39	329	1.75	326	-0.5	100	-0.5	91	0	994.5	NA	0.0000		6000	10470	0	0	0
2019/11/26 21:55:00	BASE	1.53	321	1.75	326	-0.5	100	-0.5	91	0	994.5	NA	0.0000		9000	10340	0	0	0
2019/11/26 21:56:00	BASE	1.58	321	1.75	326	-0.5	100	-0.5	90	0	994.5	NA	0.0000		9999	10470	0	0	0
2019/11/26 21:57:00	BASE	1.52	321	1.75	326	-0.5	100	-0.5	89	0	994.5	NA	0.0000		9999	10430	0	0	0
2019/11/26 21:58:00	BASE	1.57	320	1.95	320	-0.5	100	-0.5	87	0	994.3	NA	0.0000		9999	10300	0	0	0
2019/11/26 21:59:00	BASE	1.70	323	2.01	321	-0.4	100	-0.4	86	0	994.5	NA	0.0000		9999	10370	0	0	0
2019/11/26 22:00:00	BASE	1.68	328	2.01	321	-0.4	100	-0.4	84	0	994.5	NA	0.0000		9999	10340	0	0	0
2019/11/26 22:01:00	BASE	1.22	333	2.01	321	-0.5	100	-0.5	82	0	994.5	NA	0.0000		9999	820	10400	0	0
2019/11/26 22:02:00	BASE	0.45	353	2.01	321	-0.4	100	-0.4	80	0	994.5	NA	0.0000		9999	720	0	0	0
2019/11/26 22:03:00	BASE	0.20	358	2.01	321	-0.4	100	-0.4	79	0	994.5	NA	0.0000		9999	720	0	0	0
2019/11/26 22:04:00	BASE	0.19	338	2.01	321	-0.4	100	-0.4	78	0	994.5	NA	0.0000		9999	720	21980	0	0
2019/11/26 22:05:00	BASE	0.04	324	2.01	321	-0.4	100	-0.4	77	0	994.5	NA	0.0000		9999	720	0	0	0
2019/11/26 22:06:00	BASE	0.00	314	2.01	321	-0.4	100	-0.4	76	0	994.5	NA	0.0000		9999	690	0	0	0
2019/11/26 22:07:00	BASE	0.09	315	2.01	321	-0.4	100	-0.4	76	0	994.5	NA	0.0000		9999	690	0	0	0
2019/11/26 22:08:00	BASE	0.26	317	2.01	321	-0.4	100	-0.4	75	0	994.5	NA	0.0000		9999	690	0	0	0
2019/11/26 22:09:00	BASE	0.76	320	1.90	331	-0.3	100	-0.3	75	0	994.5	NA	0.0000		9999	690	0	0	0
2019/11/26 22:10:00	BASE	1.26	323	1.70	328	-0.3	100	-0.3	76	0	994.5	NA	0.0000		9999	620	0	0	0
2019/11/26 22:11:00	BASE	1.36	326	1.54	335	-0.3	100	-0.3	76	0	994.4	NA	0.0000		9999	660	0	0	0
2019/11/26 22:12:00	BASE	1.21	328	1.54	335	-0.3	100	-0.3	76	0	994.4	NA	0.0000		9999	690	0	0	0
2019/11/26 22:13:00	BASE	1.08	325	1.54	335	-0.3	100	-0.3	75	0	994.4	NA	0.0000		9999	620	0	0	0
2019/11/26 22:14:00	BASE	0.90	334	1.54	335	-0.3	100	-0.3	72	0	994.4	NA	0.0000		9999	560	0	0	0
2019/11/26 22:15:00	BASE	0.97	359	1.54	335	-0.3	100	-0.3	69	0	994.4	NA	0.0000		9999	520	0	0	0
2019/11/26 22:16:00	BASE	1.33	15	1.59	21	-0.3	100	-0.3	67	0	994.4	NA	0.0000		9999	560	0	0	0
2019/11/26 22:17:00	BASE	1.47	23	1.75	19	-0.2	100	-0.2	66	0	994.4	NA	0.0000		9999	560	0	0	0
2019/11/26 22:18:00	BASE	1.64	27	2.01	25	-0.2	100	-0.2	66	0	994.4	NA	0.0000		9999	560	0	0	0
2019/11/26 22:19:00	BASE	1.61	26	2.01	25	-0.1	100	-0.1	66	0	994.4	NA	0.0000		9999	560	0	0	0
2019/11/26 22:20:01	BASE	1.48	25	2.01	25	-0.1	100	-0.1	66	0	994.4	NA	0.0000		9999	590	0	0	0
2019/11/26 22:21:00	BASE	1.31	19	2.01	25	-0.1	100	-0.1	65	0	994.4	NA	0.0000		9999	590	0	0	0
2019/11/26 22:22:00	BASE	1.04	15	2.01	25	-0.2	100	-0.2	65	0	994.4	NA	0.0000		9999	560	0	0	0
2019/11/26 22:23:00	BASE	1.19	13	2.01	25	-0.2	100	-0.2	64	0	994.1	NA	0.0000		9999	560	0	0	0
2019/11/26 22:24:00	BASE	1.21	3	2.01	25	-0.2	100	-0.2	64	0	994.4	NA	0.0000		9999	560	0	0	0
2019/11/26 22:25:00	BASE	1.20	360	2.01	25	-0.2	100	-0.2	64	0	994.4	NA	0.0000		9999	590	0	0	0
2019/11/26 22:26:00	BASE	1.28	354	2.01	25	-0.2	100	-0.2	63	0	994.4	NA	0.0000		9999	560	0	0	0
2019/11/26 22:27:00	BASE	1.11	354	2.01	25	-0.2	100	-0.2	61	0	994.4	NA	0.0000		9999	560	0	0	0
2019/11/26 22:28:00	BASE	0.98	2	1.80	6	-0.2	100	-0.2	60	0	994.4	NA	0.0000		9999	590	0	0	0
2019/11/26 22:29:00	BASE	1.17	358	1.80	6	-0.2	100	-0.2	60	0	994.5	NA	0.0000		9999	620	0	0	0
2019/11/26 22:30:00	BASE	1.47	353	1.85	342	-0.2	100	-0.2	62	0	994.5	NA	0.0000		9999	620	0	0	0
2019/11/26 22:31:00	BASE	1.52	344	1.85	342	-0.2	100	-0.2	63	0	994.5	NA	0.0000		9999	560	0	0	0
2019/11/26 22:32:00	BASE	1.27	332	1.85	342	-0.1	100	-0.1	63	0	994.5	NA	0.0000		9999	560	0	0	0
2019/11/26 22:33:00	BASE	0.51	332	1.85	342	-0.1	100	-0.1	63	0	994.4	NA	0.0000		9999	560	0	0	0
2019/11/26 22:34:00	BASE	0.32	330	1.85	342	-0.1	100	-0.1	62	0	994.4	NA	0.0000		9999	590	0	0	0
2019/11/26 22:35:00	BASE	0.82	313	1.85	342	-0.0	100	-0.0	60	0	994.4	NA	0.0000		9999	560	0	0	0
2019/11/26 22:36:00	BASE	0.90	306	1.85	342	0.0	100	0.0	58	0	994.4	NA	0.0000		9999	560	0	0	0
2019/11/26 22:37:00	BASE	0.92	309	1.85	342	0.0	100	0.0	56	0	994.4	NA	0.0000		9999	560	0	0	0
2019/11/26 22:38:00	BASE	0.99	310	1.85	342	0.1	100	0.1	54	0	994.4	NA	0.0000		9999	590	0	0	0
2019/11/26 22:39:00	BASE	0.99	313	1.85	342	0.1	100	0.1	52	0	994.4	NA	0.0000		9999	620	0	0	0
2019/11/26 22:40:00	BASE	1.24	320	1.75	348	0.1	100	0.1	50	0	994.4	NA	0.0000		9999	590	0	0	0
2019/11/26 22:41:00	BASE	1.40	327	1.59	345	0.0	100	0.0	49	0	994.4	NA	0.0000		9999	560	0	0	0
2019/11/26 22:42:00	BASE	1.24	335	1.59	345	-0.0	100	-0.0	50	0	994.4	NA	0.0000		9999	520	0	0	0
2019/11/26 22:43:00	BASE	0.57	338	1.59	345	-0.0	100	-0.0	51	0	994.4	NA	0.0000		9999	520	0	0	0
2019/11/26 22:44:00	BASE	0.00	335	1.59	345	-0.0	100	-0.0	51	0	994.4	NA	0.0000		9999	520	0	0	0
2019/11/26 22:45:00	BASE	0.00	334	1.59	345	-0.1	100	-0.1	51	0	994.4	NA	0.0000		9999	490	0	0	0
2019/11/26 22:46:00	BASE	0.00	332	1.59	345	-0.1	100	-0.1	51	0	994.4	NA	0.0000		9999	460	0	0	0
2019/11/26 22:47:00	BASE	0.00	328	1.59	345	0.0	100	0.0	51	0	994.1	NA	0.0000		9999	460	0	0	0
2019/11/26 22:48:00	BASE	0.13	328	1.59	345	0.1	100	0.1	52	0	994.2	NA	0.0000		9999	430	0	0	0
2019/11/26 22:49:00	BASE	0.31	331	1.59	345	0.0	100	0.0	52	0	994.2	NA	0.0000		9999	430	0	0	0
2019/11/26 22:50:00	BASE	0.17	334	1.59	345	0.1	100	0.1	51	0	994.2	NA	0.0000		9999	430	0	0	0
2019/11/26 22:51:00	BASE	0.00	339	1.39	332	0.1	100	0.1	49	0	994.2	NA	0.0000		9999	460	0	0	0
2019/11/26 22:52:00	BASE	0.00	325	1.08	325	0.1	100	0.1	47	0	994.2	NA	0.0000		9999	460	0	0	0
2019/11/26 22:53:00	BASE	0.00	315	1.08	325	0.1	100	0.1	44	0	994.2	NA	0.0000		9999	460	0	0	0
2019/11/26 22:54:00	BASE	0.00	320	1.08	325	0.2	100	0.2	42	0	994.2	NA	0.0000		9999	460	0	0	0
2019/11/26 22:55:00	BASE	0.00	332	1.08	325	0.2	100	0.2	40	0	994.2	NA	0.0000		9999	460	0	0	0
2019/11/26 22:56:00	BASE	0.00	336	1.08	325	0.3	100	0.3	38	0	994.2	NA	0.0000		9999	430	0	0	0
2019/11/26 22:57:00	BASE	0.00	331	1.08	325	0.2	100	0.2	37	0	994.2	NA	0.0000		9999	430	0	0	0
2019/11/26 22:58:00	BASE	0.00	331	1.08	325	0.2	100	0.2	37	0	994.2	NA	0.0000		9999	430	0	0	0
2019/11/26 22:59:00	BASE	0.05	326	1.08	328	0.2	100	0.2	36	0	994.2	NA	0.0000		9999	430	0	0	0
2019/11/26 23:00:01	BASE	0.05	327	1.08	328	0.2	100	0.2	36	0	994.2	NA	0.0000		9999	390	0	0	0
2019/11/26 23:01:00	BASE	0.05	335	1.08	347	0.2	100	0.2	37	0	994.2	NA	0.0000		9999	430	0	0	0
2019/11/26 23:02:00	BASE	0.05	342	1.08	347	0.2	100	0.2	37	0	994.2	NA	0.0000		9999	460	0	0	0
2019/11/26 23:03:00	BASE	0.00	344	1.08	347	0.2	100	0.2	37	0	994.2	NA	0.0000		9999	460	0	0	0
2019/11/26 23:04:00	BASE	0.09	344	1.08	340	0.2	100	0.2	37	0	994.1	NA	0.0000		9999	460	0	0	0
2019/11/26 23:05:00	BASE	0.13	346	1.08	340	0.2	100	0.2	36	0	994.1	NA	0.0000		9999	460	0	0	0
2019/11/26 23:06:00	BASE	0.05	344	1.08	340	0.3	100	0.3	36	0	994.1	NA	0.0000		9999	490	0	0	0
2019/11/26 23:07:00	BASE	0.00	343	1.08	340	0.3	100	0.2	36	0	993.8	NA	0.0000		9999	490	0	0	0
2019/11/26 23:08:00	BASE	0.00	339	1.08	340	0.3	100	0.3	35	0	994.1	NA	0.0000		9999	490	0	0	0
2019/11/26 23:09:00	BASE	0.00	336	1.08	340	0.3	100	0.3	35	0	994.1	NA	0.0000		9999	490	0	0	0
2019/11/26 23:10:00	BASE	0.00	329	1.08	340	0.3	100	0.3	37	0	994.1	NA	0.0000		9999	460	0	0	0
2019/11/26 23:11:00	BASE	0.00	307	1.08	340	0.3	100	0.3	37	0	994.1	NA	0.0000		9999	460	0	0	0
2019/11/26 23:12:00	BASE	0.00	288	1.08	340	0.3	100	0.3	36	0	994.1	NA	0.0000		9999	460	0	0	0
2019/11/26 23:13:00	BASE	0.00	288	1.08	340	0.3	100	0.3	36	0	994.1	NA	0.0000		9999	490	0	0	0
2019/11/26 23:14:00	BASE	0.00	291	1.08	340	0.3	100	0.3	36	0	994.1	NA	0.0000		9999	460	0	0	0
2019/11/26 23:15:00	BASE	0.00	280	M	M	0.2	100	0.2	36	0	993.8	NA	0.0000		9999	490	0	0	0
2019/11/26 23:16:00	BASE	0.00	244	M	M	0.2	100	0.2	35	0	994.1	NA	0.0000		9999	490	0	0	0
2019/11/26 23:17:00	BASE	0.00	215	M	M	0.2	100	0.2	35	0	994.1	NA	0.0000		9999	490	0	0	0
2019/11/26 23:18:00	BASE	0.00	222	M	M	0.2	100	0.2	35	0	994.1	NA	0.0000		9999	460	0	0	0
2019/11/26 23:19:00	BASE	0.00	233	M	M	0.2	100	0.2	34	0	994.0	NA	0.0000		9999	460	0	0	0
2019/11/26 23:20:00	BASE	0.00	231	M	M	0.2	100	0.2	35	0	994.0	NA	0.0000		9999	460	0	0	0
2019/11/26 23:21:00	BASE	0.00	227	M	M	0.2	100	0.2	36	0	994.0	NA	0.0000		9999	460	0	0	0
2019/11/26 23:22:00	BASE	0.22	221	1.13	216	0.2	100	0.2	37	0	994.0	NA	0.0000		9999	460	0	0	0
2019/11/26 23:23:00	BASE	0.88	214	1.54	203	0.2	100	0.2	36	0	994.0	NA	0.0000		9999	460	0	0	0
2019/11/26 23:24:00	BASE	1.32	208	1.54	203	0.2	100	0.2	35	0	993.7	NA	0.0000		9999	460	0	0	0
2019/11/26 23:25:00	BASE	1.27	204	1.54	203	0.2	100	0.2	34	0	994.0	NA	0.0000		9999	460	0	0	0
2019/11/26 23:26:00	BASE	1.22	201	1.54	203	0.2	100	0.2	33	0	994.0	NA	0.0000		9999	460	0	0	0
2019/11/26 23:27:00	BASE	1.14	196	1.54	203	0.2	100	0.2	32	0	994.0	NA	0.0000		9999	460	0	0	0
2019/11/26 23:28:00	BASE	1.13	193	1.54	203	0.1	100	0.1	32	0	994.0	NA	0.0000		9999	430	0	0	0
2019/11/26 23:29:00	BASE	0.79	196	1.54	203	0.1	100	0.1	32	0	994.0	NA	0.0000		9999	430	0	0	0
2019/11/26 23:30:00	BASE	0.18	197	1.54	203	0.1	100	0.1	30	0	994.0	NA	0.0000		9999	460	0	0	0
2019/11/26 23:31:00	BASE	0.00	194	1.54	203	0.1	100	0.1	29	0	994.0	NA	0.0000		9999	460	0	0	0
2019/11/26 23:32:00	BASE	0.00	203	1.54	203	0.1	100	0.1	29	0	994.0	NA	0.0000		9999	460	0	0	0
2019/11/26 23:33:00	BASE	0.00	209	1.44	195	0.1	100	0.1	28	0	993.9	NA	0.0000		9999	460	0	0	0
2019/11/26 23:34:00	BASE	0.44	185	1.34	195	0.2	100	0.2	26	0	994.0	NA	0.0000		9999	460	0	0	0
2019/11/26 23:35:00	BASE	1.12	162	1.44	152	0.2	100	0.2	26	0	994.0	NA	0.0000		9999	460	0	0	0
2019/11/26 23:36:00	BASE	1.03	166	1.44	152	0.2	100	0.2	26	0	994.0	NA	0.0000		9999	430	0	0	0
2019/11/26 23:37:00	BASE	0.54	169	1.44	152	0.1	100	0.1	25	0	994.0	NA	0.0000		9999	430	0	0	0
2019/11/26 23:38:00	BASE	0.36	163	1.44	152	0.1	100	0.1	24	0	994.0	NA	0.0000		9999	390	0	0	0
2019/11/26 23:39:00	BASE	0.89	151	1.65	143	0.2	100	0.2	24	0	994.1	NA	0.0000		9999	390	0	0	0
2019/11/26 23:40:00	BASE	1.53	142	1.75	143	0.2	100	0.2	24	0	994.1	NA	0.0000		9999	360	0	0	0
2019/11/26 23:41:00	BASE	1.62	142	1.75	143	0.2	100	0.2	23	0	994.1	NA	0.0000		9999	360	0	0	0
2019/11/26 23:42:00	BASE	1.63	140	1.85	135	0.2	100	0.2	23	0	994.1	NA	0.0000		9999	360	0	0	0
2019/11/26 23:43:00	BASE	1.70	133	2.06	130	0.2	100	0.2	22	0	994.1	NA	0.0000		9999	360	0	0	0
2019/11/26 23:44:00	BASE	1.73	131	2.06	130	0.2	100	0.2	22	0	994.1	NA	0.0000		9999	330	0	0	0
2019/11/26 23:45:00	BASE	1.82	131	2.11	130	0.2	100	0.2	21	0	994.1	NA	0.0000		9999	330	0	0	0
2019/11/26 23:46:00	BASE	1.81	133	2.11	130	0.2	100	0.2	21	0	994.1	NA	0.0000		9999	330	0	0	0
2019/11/26 23:47:00	BASE	1.73	133	2.11	129	0.2	100	0.2	20	0	994.1	NA	0.0000		9999	300	0	0	0
2019/11/26 23:48:00	BASE	1.82	127	2.11	129	0.2	100	0.2	20	0	993.8	NA	0.0000		9999	230	0	0	0
2019/11/26 23:49:00	BASE	1.66	122	2.11	129	0.2	100	0.2	20	0	994.1	NA	0.0000		9999	200	0	0	0
2019/11/26 23:50:00	BASE	1.09	126	2.11	129	0.2	100	0.2	21	0	993.8	NA	0.0000		9999	200	0	0	0
2019/11/26 23:51:00	BASE	0.49	137	2.11	129	0.1	100	0.1	20	0	994.0	NA	0.0000		9999	200	0	0	0
2019/11/26 23:52:00	BASE	0.35	142	2.11	129	0.1	100	0.1	18	0	994.0	NA	0.0000		9999	200	0	0	0
2019/11/26 23:53:00	BASE	0.27	142	2.11	129	0.1	100	0.1	18	0	994.0	NA	0.0000		9999	200	0	0	0
2019/11/26 23:54:00	BASE	0.05	140	2.11	129	0.1	100	0.1	18	0	994.0	NA	0.0000		9999	200	0	0	0
2019/11/26 23:55:00	BASE	0.00	150	2.11	129	0.1	100	0.1	18	0	994.0	NA	0.0000		9999	200	0	0	0
2019/11/26 23:56:00	BASE	0.00	149	2.11	129	0.1	100	0.1	17	0	994.0	NA	0.0000		9999	200	0	0	0
2019/11/26 23:57:00	BASE	0.00	131	2.06	124	0.1	100	0.1	17	0	994.0	NA	0.0000		9999	230	0	0	0
2019/11/26 23:58:00	BASE	0.00	129	1.75	124	0.1	100	0.1	16	0	993.9	NA	0.0000		9999	200	0	0	0
2019/11/26 23:59:00	BASE	0.00	141	1.18	140	0.1	100	0.1	16	0	993.9	NA	0.0000		9999	230	0	0	0